<?xml version="1.0" encoding="UTF-8" standalone="no" ?>
<gpx xmlns="http://www.topografix.com/GPX/1/1" xmlns:xsi="http://www.w3.org/2001/XMLSchema-instance" xsi:schemaLocation="http://www.topografix.com/GPX/1/1 http://www.topografix.com/GPX/1/1/gpx.xsd" version="1.1" creator="VisuGPX - https://www.visugpx.com">
  <metadata>
    <name>CYCLO Entre Durance et Buech</name>
    <desc><![CDATA[Un beau circuit dans un magnifique paysage très haute Provence avec le très joli village d'Upaix , le joli lac de Mison et de beaux mas isolés , ça monte  et ça descend sa remonte et sa redescend . GPS recommandé dans l?entrelacs de très petites routes désertes . Le dénivelé affiché est faux , compter 580m
]]></desc>
  </metadata>
  <trk>
    <name><![CDATA[21/05/2019 10:08:18]]></name>
    <trkseg>
      <trkpt lat="44.36733" lon="5.92385">
        <ele>564.4000244</ele>
        <time>2019-05-21T08:08:18Z</time>
      </trkpt>
      <trkpt lat="44.36732" lon="5.92384">
        <ele>565.2000122</ele>
        <time>2019-05-21T08:08:47Z</time>
      </trkpt>
      <trkpt lat="44.36723" lon="5.92384">
        <ele>564.7999878</ele>
        <time>2019-05-21T08:12:15Z</time>
      </trkpt>
      <trkpt lat="44.36721" lon="5.92383">
        <ele>564.7999878</ele>
        <time>2019-05-21T08:12:16Z</time>
      </trkpt>
      <trkpt lat="44.36718" lon="5.92383">
        <ele>564.7999878</ele>
        <time>2019-05-21T08:12:17Z</time>
      </trkpt>
      <trkpt lat="44.36716" lon="5.92383">
        <ele>564.7999878</ele>
        <time>2019-05-21T08:12:18Z</time>
      </trkpt>
      <trkpt lat="44.36713" lon="5.92384">
        <ele>564.7999878</ele>
        <time>2019-05-21T08:12:19Z</time>
      </trkpt>
      <trkpt lat="44.36711" lon="5.92385">
        <ele>564.7999878</ele>
        <time>2019-05-21T08:12:20Z</time>
      </trkpt>
      <trkpt lat="44.36709" lon="5.92386">
        <ele>564.7999878</ele>
        <time>2019-05-21T08:12:21Z</time>
      </trkpt>
      <trkpt lat="44.36706" lon="5.92388">
        <ele>564.7999878</ele>
        <time>2019-05-21T08:12:22Z</time>
      </trkpt>
      <trkpt lat="44.36672" lon="5.92415">
        <ele>565</ele>
        <time>2019-05-21T08:12:37Z</time>
      </trkpt>
      <trkpt lat="44.36635" lon="5.9242">
        <ele>564.5999756</ele>
        <time>2019-05-21T08:12:51Z</time>
      </trkpt>
      <trkpt lat="44.36594" lon="5.92386">
        <ele>564.2000122</ele>
        <time>2019-05-21T08:13:05Z</time>
      </trkpt>
      <trkpt lat="44.36554" lon="5.92328">
        <ele>563.5999756</ele>
        <time>2019-05-21T08:13:22Z</time>
      </trkpt>
      <trkpt lat="44.36551" lon="5.9233">
        <ele>563.5999756</ele>
        <time>2019-05-21T08:13:31Z</time>
      </trkpt>
      <trkpt lat="44.3655" lon="5.92334">
        <ele>563.5999756</ele>
        <time>2019-05-21T08:13:32Z</time>
      </trkpt>
      <trkpt lat="44.36553" lon="5.92356">
        <ele>563.7999878</ele>
        <time>2019-05-21T08:13:38Z</time>
      </trkpt>
      <trkpt lat="44.36554" lon="5.92359">
        <ele>563.7999878</ele>
        <time>2019-05-21T08:13:39Z</time>
      </trkpt>
      <trkpt lat="44.36555" lon="5.92363">
        <ele>564</ele>
        <time>2019-05-21T08:13:40Z</time>
      </trkpt>
      <trkpt lat="44.36557" lon="5.92366">
        <ele>564</ele>
        <time>2019-05-21T08:13:41Z</time>
      </trkpt>
      <trkpt lat="44.36586" lon="5.92399">
        <ele>565.4000244</ele>
        <time>2019-05-21T08:13:56Z</time>
      </trkpt>
      <trkpt lat="44.36615" lon="5.92416">
        <ele>566.4000244</ele>
        <time>2019-05-21T08:14:11Z</time>
      </trkpt>
      <trkpt lat="44.36651" lon="5.92419">
        <ele>568.4000244</ele>
        <time>2019-05-21T08:14:28Z</time>
      </trkpt>
      <trkpt lat="44.36681" lon="5.92383">
        <ele>569.5999756</ele>
        <time>2019-05-21T08:14:45Z</time>
      </trkpt>
      <trkpt lat="44.36702" lon="5.9233">
        <ele>571</ele>
        <time>2019-05-21T08:15:03Z</time>
      </trkpt>
      <trkpt lat="44.36726" lon="5.92281">
        <ele>571.7999878</ele>
        <time>2019-05-21T08:15:21Z</time>
      </trkpt>
      <trkpt lat="44.36758" lon="5.92284">
        <ele>572</ele>
        <time>2019-05-21T08:15:34Z</time>
      </trkpt>
      <trkpt lat="44.36794" lon="5.92278">
        <ele>572.7999878</ele>
        <time>2019-05-21T08:15:49Z</time>
      </trkpt>
      <trkpt lat="44.36823" lon="5.92224">
        <ele>573</ele>
        <time>2019-05-21T08:16:07Z</time>
      </trkpt>
      <trkpt lat="44.36852" lon="5.92168">
        <ele>572.5999756</ele>
        <time>2019-05-21T08:16:25Z</time>
      </trkpt>
      <trkpt lat="44.36877" lon="5.92119">
        <ele>571.7999878</ele>
        <time>2019-05-21T08:16:40Z</time>
      </trkpt>
      <trkpt lat="44.36908" lon="5.92063">
        <ele>570.7999878</ele>
        <time>2019-05-21T08:16:56Z</time>
      </trkpt>
      <trkpt lat="44.36924" lon="5.91999">
        <ele>569.7999878</ele>
        <time>2019-05-21T08:17:11Z</time>
      </trkpt>
      <trkpt lat="44.36923" lon="5.91942">
        <ele>570.5999756</ele>
        <time>2019-05-21T08:17:27Z</time>
      </trkpt>
      <trkpt lat="44.36924" lon="5.91875">
        <ele>571.7999878</ele>
        <time>2019-05-21T08:17:47Z</time>
      </trkpt>
      <trkpt lat="44.36929" lon="5.91821">
        <ele>573.2000122</ele>
        <time>2019-05-21T08:18:04Z</time>
      </trkpt>
      <trkpt lat="44.36939" lon="5.91769">
        <ele>574.4000244</ele>
        <time>2019-05-21T08:18:21Z</time>
      </trkpt>
      <trkpt lat="44.3695" lon="5.91716">
        <ele>576.2000122</ele>
        <time>2019-05-21T08:18:39Z</time>
      </trkpt>
      <trkpt lat="44.36964" lon="5.91668">
        <ele>578</ele>
        <time>2019-05-21T08:18:57Z</time>
      </trkpt>
      <trkpt lat="44.36989" lon="5.91648">
        <ele>579.7999878</ele>
        <time>2019-05-21T08:19:13Z</time>
      </trkpt>
      <trkpt lat="44.36997" lon="5.91642">
        <ele>580.5999756</ele>
        <time>2019-05-21T08:19:18Z</time>
      </trkpt>
      <trkpt lat="44.36998" lon="5.91641">
        <ele>580.7999878</ele>
        <time>2019-05-21T08:19:19Z</time>
      </trkpt>
      <trkpt lat="44.36999" lon="5.9164">
        <ele>581</ele>
        <time>2019-05-21T08:19:20Z</time>
      </trkpt>
      <trkpt lat="44.37001" lon="5.9164">
        <ele>581.2000122</ele>
        <time>2019-05-21T08:19:21Z</time>
      </trkpt>
      <trkpt lat="44.37004" lon="5.91638">
        <ele>581.4000244</ele>
        <time>2019-05-21T08:19:23Z</time>
      </trkpt>
      <trkpt lat="44.37016" lon="5.91634">
        <ele>582.4000244</ele>
        <time>2019-05-21T08:19:30Z</time>
      </trkpt>
      <trkpt lat="44.37018" lon="5.91633">
        <ele>582.4000244</ele>
        <time>2019-05-21T08:19:31Z</time>
      </trkpt>
      <trkpt lat="44.37019" lon="5.91633">
        <ele>582.5999756</ele>
        <time>2019-05-21T08:19:32Z</time>
      </trkpt>
      <trkpt lat="44.37021" lon="5.91632">
        <ele>582.5999756</ele>
        <time>2019-05-21T08:19:33Z</time>
      </trkpt>
      <trkpt lat="44.37023" lon="5.91632">
        <ele>582.5999756</ele>
        <time>2019-05-21T08:19:34Z</time>
      </trkpt>
      <trkpt lat="44.37024" lon="5.91631">
        <ele>582.5999756</ele>
        <time>2019-05-21T08:19:35Z</time>
      </trkpt>
      <trkpt lat="44.37026" lon="5.91631">
        <ele>582.5999756</ele>
        <time>2019-05-21T08:19:36Z</time>
      </trkpt>
      <trkpt lat="44.37028" lon="5.9163">
        <ele>582.5999756</ele>
        <time>2019-05-21T08:19:37Z</time>
      </trkpt>
      <trkpt lat="44.3703" lon="5.9163">
        <ele>582.7999878</ele>
        <time>2019-05-21T08:19:38Z</time>
      </trkpt>
      <trkpt lat="44.37062" lon="5.91612">
        <ele>584.5999756</ele>
        <time>2019-05-21T08:19:55Z</time>
      </trkpt>
      <trkpt lat="44.37092" lon="5.91593">
        <ele>585.4000244</ele>
        <time>2019-05-21T08:20:13Z</time>
      </trkpt>
      <trkpt lat="44.37113" lon="5.91559">
        <ele>587</ele>
        <time>2019-05-21T08:20:29Z</time>
      </trkpt>
      <trkpt lat="44.37129" lon="5.91527">
        <ele>588.4000244</ele>
        <time>2019-05-21T08:20:46Z</time>
      </trkpt>
      <trkpt lat="44.37136" lon="5.91507">
        <ele>589.4000244</ele>
        <time>2019-05-21T08:20:54Z</time>
      </trkpt>
      <trkpt lat="44.37166" lon="5.91402">
        <ele>594.2000122</ele>
        <time>2019-05-21T08:21:41Z</time>
      </trkpt>
      <trkpt lat="44.37169" lon="5.91384">
        <ele>595.2000122</ele>
        <time>2019-05-21T08:21:48Z</time>
      </trkpt>
      <trkpt lat="44.37169" lon="5.91382">
        <ele>595.2000122</ele>
        <time>2019-05-21T08:21:49Z</time>
      </trkpt>
      <trkpt lat="44.37171" lon="5.91364">
        <ele>595.4000244</ele>
        <time>2019-05-21T08:21:57Z</time>
      </trkpt>
      <trkpt lat="44.37171" lon="5.91363">
        <ele>595.4000244</ele>
        <time>2019-05-21T08:21:58Z</time>
      </trkpt>
      <trkpt lat="44.37171" lon="5.91361">
        <ele>595.4000244</ele>
        <time>2019-05-21T08:21:59Z</time>
      </trkpt>
      <trkpt lat="44.37175" lon="5.91353">
        <ele>595.4000244</ele>
        <time>2019-05-21T08:22:03Z</time>
      </trkpt>
      <trkpt lat="44.37179" lon="5.91344">
        <ele>596</ele>
        <time>2019-05-21T08:22:08Z</time>
      </trkpt>
      <trkpt lat="44.37181" lon="5.9134">
        <ele>596.4000244</ele>
        <time>2019-05-21T08:22:10Z</time>
      </trkpt>
      <trkpt lat="44.37184" lon="5.91334">
        <ele>596.7999878</ele>
        <time>2019-05-21T08:22:13Z</time>
      </trkpt>
      <trkpt lat="44.37185" lon="5.91331">
        <ele>597</ele>
        <time>2019-05-21T08:22:14Z</time>
      </trkpt>
      <trkpt lat="44.37188" lon="5.91327">
        <ele>597.2000122</ele>
        <time>2019-05-21T08:22:16Z</time>
      </trkpt>
      <trkpt lat="44.37192" lon="5.91319">
        <ele>597.4000244</ele>
        <time>2019-05-21T08:22:19Z</time>
      </trkpt>
      <trkpt lat="44.37193" lon="5.91317">
        <ele>597.5999756</ele>
        <time>2019-05-21T08:22:20Z</time>
      </trkpt>
      <trkpt lat="44.37217" lon="5.91291">
        <ele>598.7999878</ele>
        <time>2019-05-21T08:22:36Z</time>
      </trkpt>
      <trkpt lat="44.37244" lon="5.9127">
        <ele>599.7999878</ele>
        <time>2019-05-21T08:22:52Z</time>
      </trkpt>
      <trkpt lat="44.37264" lon="5.91248">
        <ele>601.5999756</ele>
        <time>2019-05-21T08:23:08Z</time>
      </trkpt>
      <trkpt lat="44.37267" lon="5.91242">
        <ele>602.2000122</ele>
        <time>2019-05-21T08:23:11Z</time>
      </trkpt>
      <trkpt lat="44.37268" lon="5.9124">
        <ele>602.4000244</ele>
        <time>2019-05-21T08:23:12Z</time>
      </trkpt>
      <trkpt lat="44.37268" lon="5.91238">
        <ele>602.5999756</ele>
        <time>2019-05-21T08:23:13Z</time>
      </trkpt>
      <trkpt lat="44.37269" lon="5.91236">
        <ele>602.5999756</ele>
        <time>2019-05-21T08:23:14Z</time>
      </trkpt>
      <trkpt lat="44.3727" lon="5.91234">
        <ele>602.5999756</ele>
        <time>2019-05-21T08:23:15Z</time>
      </trkpt>
      <trkpt lat="44.37271" lon="5.91232">
        <ele>602.7999878</ele>
        <time>2019-05-21T08:23:16Z</time>
      </trkpt>
      <trkpt lat="44.3728" lon="5.91201">
        <ele>604.2000122</ele>
        <time>2019-05-21T08:23:30Z</time>
      </trkpt>
      <trkpt lat="44.37284" lon="5.91185">
        <ele>604.7999878</ele>
        <time>2019-05-21T08:23:36Z</time>
      </trkpt>
      <trkpt lat="44.37288" lon="5.91169">
        <ele>605.2000122</ele>
        <time>2019-05-21T08:23:43Z</time>
      </trkpt>
      <trkpt lat="44.37291" lon="5.91157">
        <ele>605.4000244</ele>
        <time>2019-05-21T08:23:48Z</time>
      </trkpt>
      <trkpt lat="44.37299" lon="5.91118">
        <ele>606</ele>
        <time>2019-05-21T08:24:04Z</time>
      </trkpt>
      <trkpt lat="44.37297" lon="5.91095">
        <ele>607.7999878</ele>
        <time>2019-05-21T08:24:14Z</time>
      </trkpt>
      <trkpt lat="44.37297" lon="5.91092">
        <ele>608</ele>
        <time>2019-05-21T08:24:15Z</time>
      </trkpt>
      <trkpt lat="44.37293" lon="5.91081">
        <ele>608.7999878</ele>
        <time>2019-05-21T08:24:21Z</time>
      </trkpt>
      <trkpt lat="44.37291" lon="5.91077">
        <ele>609</ele>
        <time>2019-05-21T08:24:23Z</time>
      </trkpt>
      <trkpt lat="44.37291" lon="5.91075">
        <ele>609</ele>
        <time>2019-05-21T08:24:24Z</time>
      </trkpt>
      <trkpt lat="44.37288" lon="5.91071">
        <ele>609.2000122</ele>
        <time>2019-05-21T08:24:27Z</time>
      </trkpt>
      <trkpt lat="44.37283" lon="5.91055">
        <ele>609.5999756</ele>
        <time>2019-05-21T08:24:34Z</time>
      </trkpt>
      <trkpt lat="44.37277" lon="5.91042">
        <ele>610</ele>
        <time>2019-05-21T08:24:40Z</time>
      </trkpt>
      <trkpt lat="44.3727" lon="5.91018">
        <ele>610.4000244</ele>
        <time>2019-05-21T08:24:50Z</time>
      </trkpt>
      <trkpt lat="44.37269" lon="5.91005">
        <ele>610.7999878</ele>
        <time>2019-05-21T08:24:54Z</time>
      </trkpt>
      <trkpt lat="44.37268" lon="5.90987">
        <ele>611.2000122</ele>
        <time>2019-05-21T08:25:01Z</time>
      </trkpt>
      <trkpt lat="44.37268" lon="5.90984">
        <ele>611.4000244</ele>
        <time>2019-05-21T08:25:02Z</time>
      </trkpt>
      <trkpt lat="44.37269" lon="5.90972">
        <ele>611.5999756</ele>
        <time>2019-05-21T08:25:07Z</time>
      </trkpt>
      <trkpt lat="44.3727" lon="5.90961">
        <ele>612</ele>
        <time>2019-05-21T08:25:11Z</time>
      </trkpt>
      <trkpt lat="44.3727" lon="5.90958">
        <ele>612.2000122</ele>
        <time>2019-05-21T08:25:12Z</time>
      </trkpt>
      <trkpt lat="44.3727" lon="5.90953">
        <ele>612.4000244</ele>
        <time>2019-05-21T08:25:14Z</time>
      </trkpt>
      <trkpt lat="44.3727" lon="5.9095">
        <ele>612.5999756</ele>
        <time>2019-05-21T08:25:15Z</time>
      </trkpt>
      <trkpt lat="44.37271" lon="5.90948">
        <ele>612.5999756</ele>
        <time>2019-05-21T08:25:16Z</time>
      </trkpt>
      <trkpt lat="44.37271" lon="5.90946">
        <ele>612.7999878</ele>
        <time>2019-05-21T08:25:17Z</time>
      </trkpt>
      <trkpt lat="44.37271" lon="5.90944">
        <ele>613</ele>
        <time>2019-05-21T08:25:18Z</time>
      </trkpt>
      <trkpt lat="44.37271" lon="5.90924">
        <ele>614.2000122</ele>
        <time>2019-05-21T08:25:26Z</time>
      </trkpt>
      <trkpt lat="44.37272" lon="5.90922">
        <ele>614.2000122</ele>
        <time>2019-05-21T08:25:27Z</time>
      </trkpt>
      <trkpt lat="44.37272" lon="5.9092">
        <ele>614.4000244</ele>
        <time>2019-05-21T08:25:28Z</time>
      </trkpt>
      <trkpt lat="44.37273" lon="5.90908">
        <ele>615</ele>
        <time>2019-05-21T08:25:33Z</time>
      </trkpt>
      <trkpt lat="44.37273" lon="5.90906">
        <ele>615.2000122</ele>
        <time>2019-05-21T08:25:34Z</time>
      </trkpt>
      <trkpt lat="44.37273" lon="5.90901">
        <ele>615.2000122</ele>
        <time>2019-05-21T08:25:36Z</time>
      </trkpt>
      <trkpt lat="44.37274" lon="5.90899">
        <ele>615.4000244</ele>
        <time>2019-05-21T08:25:37Z</time>
      </trkpt>
      <trkpt lat="44.37277" lon="5.90884">
        <ele>616</ele>
        <time>2019-05-21T08:25:44Z</time>
      </trkpt>
      <trkpt lat="44.37277" lon="5.9088">
        <ele>616.4000244</ele>
        <time>2019-05-21T08:25:46Z</time>
      </trkpt>
      <trkpt lat="44.37277" lon="5.90878">
        <ele>616.5999756</ele>
        <time>2019-05-21T08:25:47Z</time>
      </trkpt>
      <trkpt lat="44.37277" lon="5.9087">
        <ele>617.2000122</ele>
        <time>2019-05-21T08:25:50Z</time>
      </trkpt>
      <trkpt lat="44.37273" lon="5.90852">
        <ele>618.4000244</ele>
        <time>2019-05-21T08:25:57Z</time>
      </trkpt>
      <trkpt lat="44.37271" lon="5.90848">
        <ele>618.4000244</ele>
        <time>2019-05-21T08:25:59Z</time>
      </trkpt>
      <trkpt lat="44.3727" lon="5.90846">
        <ele>618.4000244</ele>
        <time>2019-05-21T08:26:00Z</time>
      </trkpt>
      <trkpt lat="44.37264" lon="5.90825">
        <ele>619</ele>
        <time>2019-05-21T08:26:09Z</time>
      </trkpt>
      <trkpt lat="44.3726" lon="5.90813">
        <ele>619.2000122</ele>
        <time>2019-05-21T08:26:15Z</time>
      </trkpt>
      <trkpt lat="44.37253" lon="5.908">
        <ele>620</ele>
        <time>2019-05-21T08:26:21Z</time>
      </trkpt>
      <trkpt lat="44.37253" lon="5.90798">
        <ele>620.2000122</ele>
        <time>2019-05-21T08:26:22Z</time>
      </trkpt>
      <trkpt lat="44.37252" lon="5.90796">
        <ele>620.4000244</ele>
        <time>2019-05-21T08:26:23Z</time>
      </trkpt>
      <trkpt lat="44.37248" lon="5.90793">
        <ele>620.5999756</ele>
        <time>2019-05-21T08:26:26Z</time>
      </trkpt>
      <trkpt lat="44.37246" lon="5.90792">
        <ele>620.5999756</ele>
        <time>2019-05-21T08:26:27Z</time>
      </trkpt>
      <trkpt lat="44.37245" lon="5.90791">
        <ele>620.7999878</ele>
        <time>2019-05-21T08:26:28Z</time>
      </trkpt>
      <trkpt lat="44.37243" lon="5.9079">
        <ele>620.7999878</ele>
        <time>2019-05-21T08:26:29Z</time>
      </trkpt>
      <trkpt lat="44.37242" lon="5.90789">
        <ele>620.7999878</ele>
        <time>2019-05-21T08:26:30Z</time>
      </trkpt>
      <trkpt lat="44.37227" lon="5.9078">
        <ele>621.4000244</ele>
        <time>2019-05-21T08:26:40Z</time>
      </trkpt>
      <trkpt lat="44.37225" lon="5.90779">
        <ele>621.4000244</ele>
        <time>2019-05-21T08:26:41Z</time>
      </trkpt>
      <trkpt lat="44.37217" lon="5.90775">
        <ele>621.7999878</ele>
        <time>2019-05-21T08:26:46Z</time>
      </trkpt>
      <trkpt lat="44.37215" lon="5.90775">
        <ele>621.7999878</ele>
        <time>2019-05-21T08:26:47Z</time>
      </trkpt>
      <trkpt lat="44.37205" lon="5.90772">
        <ele>622.5999756</ele>
        <time>2019-05-21T08:26:53Z</time>
      </trkpt>
      <trkpt lat="44.3719" lon="5.90765">
        <ele>623.2000122</ele>
        <time>2019-05-21T08:27:01Z</time>
      </trkpt>
      <trkpt lat="44.37188" lon="5.90763">
        <ele>623.2000122</ele>
        <time>2019-05-21T08:27:02Z</time>
      </trkpt>
      <trkpt lat="44.37186" lon="5.90762">
        <ele>623.2000122</ele>
        <time>2019-05-21T08:27:03Z</time>
      </trkpt>
      <trkpt lat="44.37181" lon="5.90744">
        <ele>623.4000244</ele>
        <time>2019-05-21T08:27:12Z</time>
      </trkpt>
      <trkpt lat="44.37198" lon="5.9069">
        <ele>625</ele>
        <time>2019-05-21T08:27:30Z</time>
      </trkpt>
      <trkpt lat="44.37199" lon="5.90683">
        <ele>625</ele>
        <time>2019-05-21T08:27:32Z</time>
      </trkpt>
      <trkpt lat="44.37201" lon="5.9068">
        <ele>625</ele>
        <time>2019-05-21T08:27:33Z</time>
      </trkpt>
      <trkpt lat="44.37204" lon="5.90673">
        <ele>625</ele>
        <time>2019-05-21T08:27:35Z</time>
      </trkpt>
      <trkpt lat="44.37205" lon="5.90671">
        <ele>625</ele>
        <time>2019-05-21T08:27:36Z</time>
      </trkpt>
      <trkpt lat="44.37207" lon="5.90668">
        <ele>625.2000122</ele>
        <time>2019-05-21T08:27:37Z</time>
      </trkpt>
      <trkpt lat="44.37209" lon="5.90665">
        <ele>625.2000122</ele>
        <time>2019-05-21T08:27:38Z</time>
      </trkpt>
      <trkpt lat="44.37211" lon="5.90663">
        <ele>625.2000122</ele>
        <time>2019-05-21T08:27:39Z</time>
      </trkpt>
      <trkpt lat="44.37241" lon="5.90629">
        <ele>626.7999878</ele>
        <time>2019-05-21T08:27:57Z</time>
      </trkpt>
      <trkpt lat="44.37257" lon="5.90582">
        <ele>627.4000244</ele>
        <time>2019-05-21T08:28:11Z</time>
      </trkpt>
      <trkpt lat="44.37262" lon="5.90526">
        <ele>626.7999878</ele>
        <time>2019-05-21T08:28:20Z</time>
      </trkpt>
      <trkpt lat="44.37267" lon="5.90511">
        <ele>626.4000244</ele>
        <time>2019-05-21T08:28:22Z</time>
      </trkpt>
      <trkpt lat="44.37272" lon="5.90468">
        <ele>625</ele>
        <time>2019-05-21T08:28:27Z</time>
      </trkpt>
      <trkpt lat="44.37272" lon="5.90458">
        <ele>624.7999878</ele>
        <time>2019-05-21T08:28:28Z</time>
      </trkpt>
      <trkpt lat="44.37278" lon="5.90378">
        <ele>621.4000244</ele>
        <time>2019-05-21T08:28:37Z</time>
      </trkpt>
      <trkpt lat="44.37281" lon="5.9037">
        <ele>620.7999878</ele>
        <time>2019-05-21T08:28:38Z</time>
      </trkpt>
      <trkpt lat="44.37284" lon="5.9036">
        <ele>620.2000122</ele>
        <time>2019-05-21T08:28:39Z</time>
      </trkpt>
      <trkpt lat="44.37288" lon="5.90351">
        <ele>620</ele>
        <time>2019-05-21T08:28:40Z</time>
      </trkpt>
      <trkpt lat="44.37317" lon="5.90285">
        <ele>616.7999878</ele>
        <time>2019-05-21T08:28:47Z</time>
      </trkpt>
      <trkpt lat="44.37338" lon="5.90246">
        <ele>614</ele>
        <time>2019-05-21T08:28:53Z</time>
      </trkpt>
      <trkpt lat="44.37342" lon="5.90242">
        <ele>613.5999756</ele>
        <time>2019-05-21T08:28:54Z</time>
      </trkpt>
      <trkpt lat="44.37347" lon="5.90241">
        <ele>613</ele>
        <time>2019-05-21T08:28:55Z</time>
      </trkpt>
      <trkpt lat="44.37352" lon="5.90241">
        <ele>612.5999756</ele>
        <time>2019-05-21T08:28:56Z</time>
      </trkpt>
      <trkpt lat="44.37357" lon="5.90244">
        <ele>612.4000244</ele>
        <time>2019-05-21T08:28:57Z</time>
      </trkpt>
      <trkpt lat="44.37362" lon="5.90248">
        <ele>611.7999878</ele>
        <time>2019-05-21T08:28:58Z</time>
      </trkpt>
      <trkpt lat="44.37367" lon="5.90253">
        <ele>611</ele>
        <time>2019-05-21T08:28:59Z</time>
      </trkpt>
      <trkpt lat="44.37371" lon="5.90259">
        <ele>610.4000244</ele>
        <time>2019-05-21T08:29:00Z</time>
      </trkpt>
      <trkpt lat="44.37375" lon="5.90265">
        <ele>609.7999878</ele>
        <time>2019-05-21T08:29:01Z</time>
      </trkpt>
      <trkpt lat="44.37379" lon="5.90271">
        <ele>609.5999756</ele>
        <time>2019-05-21T08:29:02Z</time>
      </trkpt>
      <trkpt lat="44.37408" lon="5.90302">
        <ele>607.5999756</ele>
        <time>2019-05-21T08:29:09Z</time>
      </trkpt>
      <trkpt lat="44.37412" lon="5.90304">
        <ele>607.4000244</ele>
        <time>2019-05-21T08:29:10Z</time>
      </trkpt>
      <trkpt lat="44.37415" lon="5.90306">
        <ele>607.2000122</ele>
        <time>2019-05-21T08:29:11Z</time>
      </trkpt>
      <trkpt lat="44.37418" lon="5.90305">
        <ele>606.7999878</ele>
        <time>2019-05-21T08:29:12Z</time>
      </trkpt>
      <trkpt lat="44.37421" lon="5.90304">
        <ele>606.5999756</ele>
        <time>2019-05-21T08:29:13Z</time>
      </trkpt>
      <trkpt lat="44.37423" lon="5.90302">
        <ele>606.2000122</ele>
        <time>2019-05-21T08:29:14Z</time>
      </trkpt>
      <trkpt lat="44.37424" lon="5.903">
        <ele>606</ele>
        <time>2019-05-21T08:29:15Z</time>
      </trkpt>
      <trkpt lat="44.37425" lon="5.90297">
        <ele>605.7999878</ele>
        <time>2019-05-21T08:29:16Z</time>
      </trkpt>
      <trkpt lat="44.37426" lon="5.90294">
        <ele>605.7999878</ele>
        <time>2019-05-21T08:29:17Z</time>
      </trkpt>
      <trkpt lat="44.37427" lon="5.90291">
        <ele>605.5999756</ele>
        <time>2019-05-21T08:29:18Z</time>
      </trkpt>
      <trkpt lat="44.37426" lon="5.90287">
        <ele>605.5999756</ele>
        <time>2019-05-21T08:29:19Z</time>
      </trkpt>
      <trkpt lat="44.37425" lon="5.90282">
        <ele>605.5999756</ele>
        <time>2019-05-21T08:29:20Z</time>
      </trkpt>
      <trkpt lat="44.37423" lon="5.90278">
        <ele>605.4000244</ele>
        <time>2019-05-21T08:29:21Z</time>
      </trkpt>
      <trkpt lat="44.37421" lon="5.90275">
        <ele>605.4000244</ele>
        <time>2019-05-21T08:29:22Z</time>
      </trkpt>
      <trkpt lat="44.37419" lon="5.90272">
        <ele>605.4000244</ele>
        <time>2019-05-21T08:29:23Z</time>
      </trkpt>
      <trkpt lat="44.37415" lon="5.90262">
        <ele>604.7999878</ele>
        <time>2019-05-21T08:29:33Z</time>
      </trkpt>
      <trkpt lat="44.37407" lon="5.90246">
        <ele>603.5999756</ele>
        <time>2019-05-21T08:30:47Z</time>
      </trkpt>
      <trkpt lat="44.37361" lon="5.9019">
        <ele>603.4000244</ele>
        <time>2019-05-21T08:31:01Z</time>
      </trkpt>
      <trkpt lat="44.37299" lon="5.90123">
        <ele>601.4000244</ele>
        <time>2019-05-21T08:31:16Z</time>
      </trkpt>
      <trkpt lat="44.37239" lon="5.90049">
        <ele>598.2000122</ele>
        <time>2019-05-21T08:31:29Z</time>
      </trkpt>
      <trkpt lat="44.37181" lon="5.89964">
        <ele>595.7999878</ele>
        <time>2019-05-21T08:31:42Z</time>
      </trkpt>
      <trkpt lat="44.37176" lon="5.8996">
        <ele>595.5999756</ele>
        <time>2019-05-21T08:31:43Z</time>
      </trkpt>
      <trkpt lat="44.37157" lon="5.89947">
        <ele>595.2000122</ele>
        <time>2019-05-21T08:31:47Z</time>
      </trkpt>
      <trkpt lat="44.37153" lon="5.89945">
        <ele>595</ele>
        <time>2019-05-21T08:31:48Z</time>
      </trkpt>
      <trkpt lat="44.37148" lon="5.89945">
        <ele>595</ele>
        <time>2019-05-21T08:31:49Z</time>
      </trkpt>
      <trkpt lat="44.37144" lon="5.89944">
        <ele>594.7999878</ele>
        <time>2019-05-21T08:31:50Z</time>
      </trkpt>
      <trkpt lat="44.37139" lon="5.89945">
        <ele>594.7999878</ele>
        <time>2019-05-21T08:31:51Z</time>
      </trkpt>
      <trkpt lat="44.37135" lon="5.89946">
        <ele>594.7999878</ele>
        <time>2019-05-21T08:31:52Z</time>
      </trkpt>
      <trkpt lat="44.37131" lon="5.89947">
        <ele>594.5999756</ele>
        <time>2019-05-21T08:31:53Z</time>
      </trkpt>
      <trkpt lat="44.37095" lon="5.89975">
        <ele>594.5999756</ele>
        <time>2019-05-21T08:32:07Z</time>
      </trkpt>
      <trkpt lat="44.37064" lon="5.89999">
        <ele>596.4000244</ele>
        <time>2019-05-21T08:32:21Z</time>
      </trkpt>
      <trkpt lat="44.37017" lon="5.89995">
        <ele>599.4000244</ele>
        <time>2019-05-21T08:32:38Z</time>
      </trkpt>
      <trkpt lat="44.36963" lon="5.89949">
        <ele>599.7999878</ele>
        <time>2019-05-21T08:32:54Z</time>
      </trkpt>
      <trkpt lat="44.36872" lon="5.89888">
        <ele>597.2000122</ele>
        <time>2019-05-21T08:33:08Z</time>
      </trkpt>
      <trkpt lat="44.36815" lon="5.89825">
        <ele>594</ele>
        <time>2019-05-21T08:33:19Z</time>
      </trkpt>
      <trkpt lat="44.368" lon="5.89778">
        <ele>594.2000122</ele>
        <time>2019-05-21T08:33:31Z</time>
      </trkpt>
      <trkpt lat="44.36772" lon="5.89712">
        <ele>595.5999756</ele>
        <time>2019-05-21T08:33:48Z</time>
      </trkpt>
      <trkpt lat="44.3674" lon="5.89665">
        <ele>595.4000244</ele>
        <time>2019-05-21T08:34:00Z</time>
      </trkpt>
      <trkpt lat="44.3669" lon="5.89593">
        <ele>595.2000122</ele>
        <time>2019-05-21T08:34:18Z</time>
      </trkpt>
      <trkpt lat="44.36639" lon="5.89521">
        <ele>593.7999878</ele>
        <time>2019-05-21T08:34:33Z</time>
      </trkpt>
      <trkpt lat="44.36605" lon="5.89477">
        <ele>593</ele>
        <time>2019-05-21T08:34:47Z</time>
      </trkpt>
      <trkpt lat="44.36572" lon="5.89432">
        <ele>593.7999878</ele>
        <time>2019-05-21T08:35:01Z</time>
      </trkpt>
      <trkpt lat="44.36558" lon="5.89353">
        <ele>593.4000244</ele>
        <time>2019-05-21T08:35:16Z</time>
      </trkpt>
      <trkpt lat="44.36543" lon="5.89285">
        <ele>593.4000244</ele>
        <time>2019-05-21T08:35:31Z</time>
      </trkpt>
      <trkpt lat="44.36521" lon="5.89226">
        <ele>596.2000122</ele>
        <time>2019-05-21T08:35:50Z</time>
      </trkpt>
      <trkpt lat="44.36498" lon="5.89174">
        <ele>598.4000244</ele>
        <time>2019-05-21T08:36:08Z</time>
      </trkpt>
      <trkpt lat="44.36478" lon="5.89133">
        <ele>599.4000244</ele>
        <time>2019-05-21T08:36:24Z</time>
      </trkpt>
      <trkpt lat="44.36458" lon="5.89077">
        <ele>600.4000244</ele>
        <time>2019-05-21T08:36:41Z</time>
      </trkpt>
      <trkpt lat="44.36441" lon="5.89029">
        <ele>602.5999756</ele>
        <time>2019-05-21T08:36:58Z</time>
      </trkpt>
      <trkpt lat="44.36423" lon="5.8898">
        <ele>603.7999878</ele>
        <time>2019-05-21T08:37:14Z</time>
      </trkpt>
      <trkpt lat="44.36402" lon="5.8891">
        <ele>603.5999756</ele>
        <time>2019-05-21T08:37:30Z</time>
      </trkpt>
      <trkpt lat="44.36386" lon="5.88865">
        <ele>603.7999878</ele>
        <time>2019-05-21T08:37:45Z</time>
      </trkpt>
      <trkpt lat="44.36363" lon="5.88816">
        <ele>605.5999756</ele>
        <time>2019-05-21T08:38:01Z</time>
      </trkpt>
      <trkpt lat="44.36346" lon="5.88772">
        <ele>606.5999756</ele>
        <time>2019-05-21T08:38:17Z</time>
      </trkpt>
      <trkpt lat="44.36343" lon="5.88726">
        <ele>608.2000122</ele>
        <time>2019-05-21T08:38:32Z</time>
      </trkpt>
      <trkpt lat="44.36366" lon="5.88673">
        <ele>608.4000244</ele>
        <time>2019-05-21T08:38:46Z</time>
      </trkpt>
      <trkpt lat="44.36377" lon="5.88609">
        <ele>607.5999756</ele>
        <time>2019-05-21T08:39:00Z</time>
      </trkpt>
      <trkpt lat="44.36375" lon="5.8854">
        <ele>607.4000244</ele>
        <time>2019-05-21T08:39:15Z</time>
      </trkpt>
      <trkpt lat="44.36377" lon="5.88466">
        <ele>607.2000122</ele>
        <time>2019-05-21T08:39:28Z</time>
      </trkpt>
      <trkpt lat="44.36376" lon="5.8846">
        <ele>607.2000122</ele>
        <time>2019-05-21T08:39:29Z</time>
      </trkpt>
      <trkpt lat="44.36375" lon="5.88452">
        <ele>607.2000122</ele>
        <time>2019-05-21T08:39:30Z</time>
      </trkpt>
      <trkpt lat="44.36373" lon="5.88446">
        <ele>607.2000122</ele>
        <time>2019-05-21T08:39:31Z</time>
      </trkpt>
      <trkpt lat="44.36372" lon="5.88439">
        <ele>607.2000122</ele>
        <time>2019-05-21T08:39:32Z</time>
      </trkpt>
      <trkpt lat="44.36365" lon="5.88405">
        <ele>606.7999878</ele>
        <time>2019-05-21T08:39:36Z</time>
      </trkpt>
      <trkpt lat="44.36363" lon="5.88398">
        <ele>606.5999756</ele>
        <time>2019-05-21T08:39:37Z</time>
      </trkpt>
      <trkpt lat="44.3636" lon="5.88391">
        <ele>606.5999756</ele>
        <time>2019-05-21T08:39:38Z</time>
      </trkpt>
      <trkpt lat="44.36357" lon="5.88385">
        <ele>606</ele>
        <time>2019-05-21T08:39:39Z</time>
      </trkpt>
      <trkpt lat="44.36354" lon="5.88379">
        <ele>605.7999878</ele>
        <time>2019-05-21T08:39:40Z</time>
      </trkpt>
      <trkpt lat="44.36333" lon="5.88318">
        <ele>604.2000122</ele>
        <time>2019-05-21T08:39:53Z</time>
      </trkpt>
      <trkpt lat="44.3632" lon="5.88265">
        <ele>606.2000122</ele>
        <time>2019-05-21T08:40:10Z</time>
      </trkpt>
      <trkpt lat="44.36308" lon="5.88208">
        <ele>608</ele>
        <time>2019-05-21T08:40:25Z</time>
      </trkpt>
      <trkpt lat="44.36293" lon="5.88158">
        <ele>609</ele>
        <time>2019-05-21T08:40:41Z</time>
      </trkpt>
      <trkpt lat="44.36279" lon="5.88111">
        <ele>609.5999756</ele>
        <time>2019-05-21T08:40:54Z</time>
      </trkpt>
      <trkpt lat="44.36258" lon="5.8806">
        <ele>608.5999756</ele>
        <time>2019-05-21T08:41:08Z</time>
      </trkpt>
      <trkpt lat="44.36243" lon="5.88012">
        <ele>608.7999878</ele>
        <time>2019-05-21T08:41:25Z</time>
      </trkpt>
      <trkpt lat="44.36242" lon="5.88003">
        <ele>609.2000122</ele>
        <time>2019-05-21T08:41:28Z</time>
      </trkpt>
      <trkpt lat="44.36244" lon="5.87916">
        <ele>612.4000244</ele>
        <time>2019-05-21T08:41:53Z</time>
      </trkpt>
      <trkpt lat="44.36237" lon="5.8785">
        <ele>613</ele>
        <time>2019-05-21T08:42:09Z</time>
      </trkpt>
      <trkpt lat="44.36222" lon="5.87803">
        <ele>613.4000244</ele>
        <time>2019-05-21T08:42:25Z</time>
      </trkpt>
      <trkpt lat="44.36219" lon="5.8779">
        <ele>613.7999878</ele>
        <time>2019-05-21T08:42:30Z</time>
      </trkpt>
      <trkpt lat="44.36212" lon="5.8776">
        <ele>614.5999756</ele>
        <time>2019-05-21T08:42:40Z</time>
      </trkpt>
      <trkpt lat="44.36211" lon="5.87744">
        <ele>615.2000122</ele>
        <time>2019-05-21T08:42:46Z</time>
      </trkpt>
      <trkpt lat="44.36211" lon="5.87741">
        <ele>615.2000122</ele>
        <time>2019-05-21T08:42:47Z</time>
      </trkpt>
      <trkpt lat="44.36211" lon="5.87729">
        <ele>615.2000122</ele>
        <time>2019-05-21T08:42:51Z</time>
      </trkpt>
      <trkpt lat="44.36214" lon="5.87692">
        <ele>616.2000122</ele>
        <time>2019-05-21T08:43:02Z</time>
      </trkpt>
      <trkpt lat="44.36212" lon="5.87675">
        <ele>616.5999756</ele>
        <time>2019-05-21T08:43:07Z</time>
      </trkpt>
      <trkpt lat="44.36201" lon="5.87624">
        <ele>618</ele>
        <time>2019-05-21T08:43:26Z</time>
      </trkpt>
      <trkpt lat="44.36202" lon="5.87616">
        <ele>619.2000122</ele>
        <time>2019-05-21T08:43:30Z</time>
      </trkpt>
      <trkpt lat="44.36191" lon="5.87471">
        <ele>622.4000244</ele>
        <time>2019-05-21T08:44:26Z</time>
      </trkpt>
      <trkpt lat="44.36193" lon="5.87455">
        <ele>623</ele>
        <time>2019-05-21T08:44:30Z</time>
      </trkpt>
      <trkpt lat="44.36204" lon="5.874">
        <ele>624.4000244</ele>
        <time>2019-05-21T08:44:50Z</time>
      </trkpt>
      <trkpt lat="44.36203" lon="5.8738">
        <ele>625</ele>
        <time>2019-05-21T08:44:57Z</time>
      </trkpt>
      <trkpt lat="44.36201" lon="5.87369">
        <ele>625.4000244</ele>
        <time>2019-05-21T08:45:01Z</time>
      </trkpt>
      <trkpt lat="44.36197" lon="5.87357">
        <ele>626</ele>
        <time>2019-05-21T08:45:06Z</time>
      </trkpt>
      <trkpt lat="44.3619" lon="5.87344">
        <ele>626.2000122</ele>
        <time>2019-05-21T08:45:12Z</time>
      </trkpt>
      <trkpt lat="44.36188" lon="5.87342">
        <ele>626.4000244</ele>
        <time>2019-05-21T08:45:13Z</time>
      </trkpt>
      <trkpt lat="44.36187" lon="5.8734">
        <ele>626.4000244</ele>
        <time>2019-05-21T08:45:14Z</time>
      </trkpt>
      <trkpt lat="44.36186" lon="5.87338">
        <ele>626.4000244</ele>
        <time>2019-05-21T08:45:15Z</time>
      </trkpt>
      <trkpt lat="44.36185" lon="5.87336">
        <ele>626.4000244</ele>
        <time>2019-05-21T08:45:16Z</time>
      </trkpt>
      <trkpt lat="44.36184" lon="5.87333">
        <ele>626.5999756</ele>
        <time>2019-05-21T08:45:17Z</time>
      </trkpt>
      <trkpt lat="44.36171" lon="5.87317">
        <ele>627.5999756</ele>
        <time>2019-05-21T08:45:26Z</time>
      </trkpt>
      <trkpt lat="44.36167" lon="5.87309">
        <ele>628.4000244</ele>
        <time>2019-05-21T08:45:30Z</time>
      </trkpt>
      <trkpt lat="44.36133" lon="5.8722">
        <ele>633.4000244</ele>
        <time>2019-05-21T08:46:13Z</time>
      </trkpt>
      <trkpt lat="44.36131" lon="5.87213">
        <ele>634</ele>
        <time>2019-05-21T08:46:16Z</time>
      </trkpt>
      <trkpt lat="44.36125" lon="5.87183">
        <ele>636.2000122</ele>
        <time>2019-05-21T08:46:30Z</time>
      </trkpt>
      <trkpt lat="44.36124" lon="5.87177">
        <ele>636.5999756</ele>
        <time>2019-05-21T08:46:33Z</time>
      </trkpt>
      <trkpt lat="44.36121" lon="5.87156">
        <ele>637.4000244</ele>
        <time>2019-05-21T08:46:41Z</time>
      </trkpt>
      <trkpt lat="44.3612" lon="5.87147">
        <ele>637.4000244</ele>
        <time>2019-05-21T08:46:44Z</time>
      </trkpt>
      <trkpt lat="44.36119" lon="5.87144">
        <ele>637.5999756</ele>
        <time>2019-05-21T08:46:45Z</time>
      </trkpt>
      <trkpt lat="44.36118" lon="5.87138">
        <ele>637.5999756</ele>
        <time>2019-05-21T08:46:48Z</time>
      </trkpt>
      <trkpt lat="44.36117" lon="5.87127">
        <ele>637.7999878</ele>
        <time>2019-05-21T08:46:53Z</time>
      </trkpt>
      <trkpt lat="44.36115" lon="5.87109">
        <ele>638.5999756</ele>
        <time>2019-05-21T08:47:01Z</time>
      </trkpt>
      <trkpt lat="44.36115" lon="5.87107">
        <ele>638.7999878</ele>
        <time>2019-05-21T08:47:02Z</time>
      </trkpt>
      <trkpt lat="44.36112" lon="5.87092">
        <ele>639.5999756</ele>
        <time>2019-05-21T08:47:09Z</time>
      </trkpt>
      <trkpt lat="44.36111" lon="5.87082">
        <ele>640.2000122</ele>
        <time>2019-05-21T08:47:13Z</time>
      </trkpt>
      <trkpt lat="44.3611" lon="5.87074">
        <ele>640.5999756</ele>
        <time>2019-05-21T08:47:17Z</time>
      </trkpt>
      <trkpt lat="44.36108" lon="5.87061">
        <ele>641.4000244</ele>
        <time>2019-05-21T08:47:23Z</time>
      </trkpt>
      <trkpt lat="44.36107" lon="5.87059">
        <ele>641.4000244</ele>
        <time>2019-05-21T08:47:24Z</time>
      </trkpt>
      <trkpt lat="44.36106" lon="5.87055">
        <ele>641.5999756</ele>
        <time>2019-05-21T08:47:26Z</time>
      </trkpt>
      <trkpt lat="44.36105" lon="5.87053">
        <ele>641.7999878</ele>
        <time>2019-05-21T08:47:27Z</time>
      </trkpt>
      <trkpt lat="44.36105" lon="5.87051">
        <ele>642</ele>
        <time>2019-05-21T08:47:28Z</time>
      </trkpt>
      <trkpt lat="44.36104" lon="5.8705">
        <ele>642.2000122</ele>
        <time>2019-05-21T08:47:29Z</time>
      </trkpt>
      <trkpt lat="44.36103" lon="5.87043">
        <ele>642.5999756</ele>
        <time>2019-05-21T08:47:32Z</time>
      </trkpt>
      <trkpt lat="44.361" lon="5.87033">
        <ele>643.4000244</ele>
        <time>2019-05-21T08:47:37Z</time>
      </trkpt>
      <trkpt lat="44.36098" lon="5.87028">
        <ele>644.2000122</ele>
        <time>2019-05-21T08:47:40Z</time>
      </trkpt>
      <trkpt lat="44.36095" lon="5.87022">
        <ele>644.2000122</ele>
        <time>2019-05-21T08:47:43Z</time>
      </trkpt>
      <trkpt lat="44.36091" lon="5.87009">
        <ele>644.4000244</ele>
        <time>2019-05-21T08:47:49Z</time>
      </trkpt>
      <trkpt lat="44.36087" lon="5.86998">
        <ele>644.7999878</ele>
        <time>2019-05-21T08:47:54Z</time>
      </trkpt>
      <trkpt lat="44.36079" lon="5.86978">
        <ele>645.5999756</ele>
        <time>2019-05-21T08:48:04Z</time>
      </trkpt>
      <trkpt lat="44.36075" lon="5.86972">
        <ele>645.7999878</ele>
        <time>2019-05-21T08:48:07Z</time>
      </trkpt>
      <trkpt lat="44.36069" lon="5.86957">
        <ele>647.5999756</ele>
        <time>2019-05-21T08:48:14Z</time>
      </trkpt>
      <trkpt lat="44.36066" lon="5.86949">
        <ele>647.7999878</ele>
        <time>2019-05-21T08:48:17Z</time>
      </trkpt>
      <trkpt lat="44.36065" lon="5.86944">
        <ele>648</ele>
        <time>2019-05-21T08:48:19Z</time>
      </trkpt>
      <trkpt lat="44.36064" lon="5.86942">
        <ele>648</ele>
        <time>2019-05-21T08:48:20Z</time>
      </trkpt>
      <trkpt lat="44.36063" lon="5.8694">
        <ele>648</ele>
        <time>2019-05-21T08:48:21Z</time>
      </trkpt>
      <trkpt lat="44.36062" lon="5.86937">
        <ele>648.2000122</ele>
        <time>2019-05-21T08:48:22Z</time>
      </trkpt>
      <trkpt lat="44.36062" lon="5.86935">
        <ele>648.2000122</ele>
        <time>2019-05-21T08:48:23Z</time>
      </trkpt>
      <trkpt lat="44.36061" lon="5.86933">
        <ele>648.2000122</ele>
        <time>2019-05-21T08:48:24Z</time>
      </trkpt>
      <trkpt lat="44.36044" lon="5.86896">
        <ele>649.7999878</ele>
        <time>2019-05-21T08:48:42Z</time>
      </trkpt>
      <trkpt lat="44.36032" lon="5.86874">
        <ele>650.2000122</ele>
        <time>2019-05-21T08:48:53Z</time>
      </trkpt>
      <trkpt lat="44.36031" lon="5.86871">
        <ele>650.2000122</ele>
        <time>2019-05-21T08:48:54Z</time>
      </trkpt>
      <trkpt lat="44.3603" lon="5.86869">
        <ele>650.2000122</ele>
        <time>2019-05-21T08:48:55Z</time>
      </trkpt>
      <trkpt lat="44.36028" lon="5.86867">
        <ele>650.4000244</ele>
        <time>2019-05-21T08:48:56Z</time>
      </trkpt>
      <trkpt lat="44.36027" lon="5.86865">
        <ele>650.5999756</ele>
        <time>2019-05-21T08:48:57Z</time>
      </trkpt>
      <trkpt lat="44.36026" lon="5.86863">
        <ele>650.7999878</ele>
        <time>2019-05-21T08:48:58Z</time>
      </trkpt>
      <trkpt lat="44.36012" lon="5.86834">
        <ele>652</ele>
        <time>2019-05-21T08:49:11Z</time>
      </trkpt>
      <trkpt lat="44.36009" lon="5.86827">
        <ele>652.2000122</ele>
        <time>2019-05-21T08:49:14Z</time>
      </trkpt>
      <trkpt lat="44.35992" lon="5.86785">
        <ele>653</ele>
        <time>2019-05-21T08:49:32Z</time>
      </trkpt>
      <trkpt lat="44.35972" lon="5.86736">
        <ele>654.4000244</ele>
        <time>2019-05-21T08:49:53Z</time>
      </trkpt>
      <trkpt lat="44.35952" lon="5.86687">
        <ele>655.4000244</ele>
        <time>2019-05-21T08:50:12Z</time>
      </trkpt>
      <trkpt lat="44.35937" lon="5.86629">
        <ele>656.5999756</ele>
        <time>2019-05-21T08:50:31Z</time>
      </trkpt>
      <trkpt lat="44.35921" lon="5.86561">
        <ele>657.7999878</ele>
        <time>2019-05-21T08:50:53Z</time>
      </trkpt>
      <trkpt lat="44.35911" lon="5.86499">
        <ele>658.7999878</ele>
        <time>2019-05-21T08:51:12Z</time>
      </trkpt>
      <trkpt lat="44.35899" lon="5.86433">
        <ele>659.7999878</ele>
        <time>2019-05-21T08:51:31Z</time>
      </trkpt>
      <trkpt lat="44.35885" lon="5.86361">
        <ele>660.4000244</ele>
        <time>2019-05-21T08:51:49Z</time>
      </trkpt>
      <trkpt lat="44.3586" lon="5.86291">
        <ele>660</ele>
        <time>2019-05-21T08:52:07Z</time>
      </trkpt>
      <trkpt lat="44.35852" lon="5.86277">
        <ele>659.7999878</ele>
        <time>2019-05-21T08:52:10Z</time>
      </trkpt>
      <trkpt lat="44.3585" lon="5.86272">
        <ele>659.7999878</ele>
        <time>2019-05-21T08:52:11Z</time>
      </trkpt>
      <trkpt lat="44.35844" lon="5.86261">
        <ele>659.5999756</ele>
        <time>2019-05-21T08:52:13Z</time>
      </trkpt>
      <trkpt lat="44.3582" lon="5.862">
        <ele>658.5999756</ele>
        <time>2019-05-21T08:52:25Z</time>
      </trkpt>
      <trkpt lat="44.35804" lon="5.86118">
        <ele>658.4000244</ele>
        <time>2019-05-21T08:52:41Z</time>
      </trkpt>
      <trkpt lat="44.35789" lon="5.86039">
        <ele>657.7999878</ele>
        <time>2019-05-21T08:52:58Z</time>
      </trkpt>
      <trkpt lat="44.35778" lon="5.86017">
        <ele>657.2000122</ele>
        <time>2019-05-21T08:53:10Z</time>
      </trkpt>
      <trkpt lat="44.35769" lon="5.86022">
        <ele>656.7999878</ele>
        <time>2019-05-21T08:53:51Z</time>
      </trkpt>
      <trkpt lat="44.35767" lon="5.86018">
        <ele>656.7999878</ele>
        <time>2019-05-21T08:53:52Z</time>
      </trkpt>
      <trkpt lat="44.35765" lon="5.86015">
        <ele>656.7999878</ele>
        <time>2019-05-21T08:53:53Z</time>
      </trkpt>
      <trkpt lat="44.35763" lon="5.8601">
        <ele>656.7999878</ele>
        <time>2019-05-21T08:53:54Z</time>
      </trkpt>
      <trkpt lat="44.35726" lon="5.85942">
        <ele>656.5999756</ele>
        <time>2019-05-21T08:54:09Z</time>
      </trkpt>
      <trkpt lat="44.35666" lon="5.85843">
        <ele>654.2000122</ele>
        <time>2019-05-21T08:54:26Z</time>
      </trkpt>
      <trkpt lat="44.35602" lon="5.85746">
        <ele>651.7999878</ele>
        <time>2019-05-21T08:54:42Z</time>
      </trkpt>
      <trkpt lat="44.35521" lon="5.85655">
        <ele>649</ele>
        <time>2019-05-21T08:54:58Z</time>
      </trkpt>
      <trkpt lat="44.35449" lon="5.85576">
        <ele>645.7999878</ele>
        <time>2019-05-21T08:55:14Z</time>
      </trkpt>
      <trkpt lat="44.35384" lon="5.85506">
        <ele>642.7999878</ele>
        <time>2019-05-21T08:55:28Z</time>
      </trkpt>
      <trkpt lat="44.35327" lon="5.85449">
        <ele>640.7999878</ele>
        <time>2019-05-21T08:55:42Z</time>
      </trkpt>
      <trkpt lat="44.3532" lon="5.85461">
        <ele>640</ele>
        <time>2019-05-21T08:55:46Z</time>
      </trkpt>
      <trkpt lat="44.35319" lon="5.85467">
        <ele>639.7999878</ele>
        <time>2019-05-21T08:55:47Z</time>
      </trkpt>
      <trkpt lat="44.35321" lon="5.85542">
        <ele>637.4000244</ele>
        <time>2019-05-21T08:56:01Z</time>
      </trkpt>
      <trkpt lat="44.35322" lon="5.85627">
        <ele>637.2000122</ele>
        <time>2019-05-21T08:56:19Z</time>
      </trkpt>
      <trkpt lat="44.35309" lon="5.85727">
        <ele>637.7999878</ele>
        <time>2019-05-21T08:56:38Z</time>
      </trkpt>
      <trkpt lat="44.35292" lon="5.85818">
        <ele>638</ele>
        <time>2019-05-21T08:56:55Z</time>
      </trkpt>
      <trkpt lat="44.35272" lon="5.85921">
        <ele>638.2000122</ele>
        <time>2019-05-21T08:57:13Z</time>
      </trkpt>
      <trkpt lat="44.35252" lon="5.86033">
        <ele>637.7999878</ele>
        <time>2019-05-21T08:57:32Z</time>
      </trkpt>
      <trkpt lat="44.35229" lon="5.86165">
        <ele>637.2000122</ele>
        <time>2019-05-21T08:57:54Z</time>
      </trkpt>
      <trkpt lat="44.35219" lon="5.86268">
        <ele>637.2000122</ele>
        <time>2019-05-21T08:58:11Z</time>
      </trkpt>
      <trkpt lat="44.35219" lon="5.86274">
        <ele>637.2000122</ele>
        <time>2019-05-21T08:58:12Z</time>
      </trkpt>
      <trkpt lat="44.35183" lon="5.86368">
        <ele>637.5999756</ele>
        <time>2019-05-21T08:58:30Z</time>
      </trkpt>
      <trkpt lat="44.35137" lon="5.8643">
        <ele>638.4000244</ele>
        <time>2019-05-21T08:58:46Z</time>
      </trkpt>
      <trkpt lat="44.35092" lon="5.86495">
        <ele>638.5999756</ele>
        <time>2019-05-21T08:58:58Z</time>
      </trkpt>
      <trkpt lat="44.35034" lon="5.8658">
        <ele>635.4000244</ele>
        <time>2019-05-21T08:59:10Z</time>
      </trkpt>
      <trkpt lat="44.35031" lon="5.86587">
        <ele>635.2000122</ele>
        <time>2019-05-21T08:59:11Z</time>
      </trkpt>
      <trkpt lat="44.34984" lon="5.8666">
        <ele>633</ele>
        <time>2019-05-21T08:59:24Z</time>
      </trkpt>
      <trkpt lat="44.34929" lon="5.86708">
        <ele>632.4000244</ele>
        <time>2019-05-21T08:59:41Z</time>
      </trkpt>
      <trkpt lat="44.34892" lon="5.86747">
        <ele>632.4000244</ele>
        <time>2019-05-21T08:59:56Z</time>
      </trkpt>
      <trkpt lat="44.34856" lon="5.86811">
        <ele>632</ele>
        <time>2019-05-21T09:00:12Z</time>
      </trkpt>
      <trkpt lat="44.34821" lon="5.86873">
        <ele>631.4000244</ele>
        <time>2019-05-21T09:00:29Z</time>
      </trkpt>
      <trkpt lat="44.34784" lon="5.8691">
        <ele>631.7999878</ele>
        <time>2019-05-21T09:00:44Z</time>
      </trkpt>
      <trkpt lat="44.34743" lon="5.86921">
        <ele>632.7999878</ele>
        <time>2019-05-21T09:01:00Z</time>
      </trkpt>
      <trkpt lat="44.34693" lon="5.86931">
        <ele>633</ele>
        <time>2019-05-21T09:01:19Z</time>
      </trkpt>
      <trkpt lat="44.34654" lon="5.8691">
        <ele>633.7999878</ele>
        <time>2019-05-21T09:01:36Z</time>
      </trkpt>
      <trkpt lat="44.34633" lon="5.86861">
        <ele>635.2000122</ele>
        <time>2019-05-21T09:01:52Z</time>
      </trkpt>
      <trkpt lat="44.34605" lon="5.86821">
        <ele>636</ele>
        <time>2019-05-21T09:02:07Z</time>
      </trkpt>
      <trkpt lat="44.34575" lon="5.86808">
        <ele>635.5999756</ele>
        <time>2019-05-21T09:02:21Z</time>
      </trkpt>
      <trkpt lat="44.34544" lon="5.86807">
        <ele>636.2000122</ele>
        <time>2019-05-21T09:02:36Z</time>
      </trkpt>
      <trkpt lat="44.34539" lon="5.86807">
        <ele>636.4000244</ele>
        <time>2019-05-21T09:02:39Z</time>
      </trkpt>
      <trkpt lat="44.34532" lon="5.86808">
        <ele>636.5999756</ele>
        <time>2019-05-21T09:02:42Z</time>
      </trkpt>
      <trkpt lat="44.3453" lon="5.86808">
        <ele>636.5999756</ele>
        <time>2019-05-21T09:02:43Z</time>
      </trkpt>
      <trkpt lat="44.34528" lon="5.86808">
        <ele>636.7999878</ele>
        <time>2019-05-21T09:02:44Z</time>
      </trkpt>
      <trkpt lat="44.34525" lon="5.86808">
        <ele>637</ele>
        <time>2019-05-21T09:02:45Z</time>
      </trkpt>
      <trkpt lat="44.34524" lon="5.86808">
        <ele>637.2000122</ele>
        <time>2019-05-21T09:02:46Z</time>
      </trkpt>
      <trkpt lat="44.34498" lon="5.86822">
        <ele>639</ele>
        <time>2019-05-21T09:03:02Z</time>
      </trkpt>
      <trkpt lat="44.3449" lon="5.86825">
        <ele>639.5999756</ele>
        <time>2019-05-21T09:03:07Z</time>
      </trkpt>
      <trkpt lat="44.34489" lon="5.86826">
        <ele>639.7999878</ele>
        <time>2019-05-21T09:03:08Z</time>
      </trkpt>
      <trkpt lat="44.34487" lon="5.86826">
        <ele>640</ele>
        <time>2019-05-21T09:03:09Z</time>
      </trkpt>
      <trkpt lat="44.3448" lon="5.86834">
        <ele>640.5999756</ele>
        <time>2019-05-21T09:03:14Z</time>
      </trkpt>
      <trkpt lat="44.34478" lon="5.86836">
        <ele>640.5999756</ele>
        <time>2019-05-21T09:03:15Z</time>
      </trkpt>
      <trkpt lat="44.34477" lon="5.86837">
        <ele>640.7999878</ele>
        <time>2019-05-21T09:03:16Z</time>
      </trkpt>
      <trkpt lat="44.34452" lon="5.86852">
        <ele>643.4000244</ele>
        <time>2019-05-21T09:03:33Z</time>
      </trkpt>
      <trkpt lat="44.34433" lon="5.86864">
        <ele>645.4000244</ele>
        <time>2019-05-21T09:03:48Z</time>
      </trkpt>
      <trkpt lat="44.34427" lon="5.86867">
        <ele>646</ele>
        <time>2019-05-21T09:03:52Z</time>
      </trkpt>
      <trkpt lat="44.3442" lon="5.86864">
        <ele>646.7999878</ele>
        <time>2019-05-21T09:03:56Z</time>
      </trkpt>
      <trkpt lat="44.34415" lon="5.86862">
        <ele>647.5999756</ele>
        <time>2019-05-21T09:03:59Z</time>
      </trkpt>
      <trkpt lat="44.34405" lon="5.86861">
        <ele>648.2000122</ele>
        <time>2019-05-21T09:04:05Z</time>
      </trkpt>
      <trkpt lat="44.34403" lon="5.8686">
        <ele>648.4000244</ele>
        <time>2019-05-21T09:04:06Z</time>
      </trkpt>
      <trkpt lat="44.34402" lon="5.86859">
        <ele>648.7999878</ele>
        <time>2019-05-21T09:04:07Z</time>
      </trkpt>
      <trkpt lat="44.344" lon="5.86858">
        <ele>648.7999878</ele>
        <time>2019-05-21T09:04:08Z</time>
      </trkpt>
      <trkpt lat="44.34398" lon="5.86858">
        <ele>649.2000122</ele>
        <time>2019-05-21T09:04:09Z</time>
      </trkpt>
      <trkpt lat="44.3438" lon="5.8685">
        <ele>650.5999756</ele>
        <time>2019-05-21T09:04:20Z</time>
      </trkpt>
      <trkpt lat="44.34376" lon="5.86847">
        <ele>651</ele>
        <time>2019-05-21T09:04:23Z</time>
      </trkpt>
      <trkpt lat="44.34364" lon="5.86842">
        <ele>652</ele>
        <time>2019-05-21T09:04:31Z</time>
      </trkpt>
      <trkpt lat="44.34363" lon="5.86841">
        <ele>652</ele>
        <time>2019-05-21T09:04:32Z</time>
      </trkpt>
      <trkpt lat="44.34361" lon="5.8684">
        <ele>652.2000122</ele>
        <time>2019-05-21T09:04:33Z</time>
      </trkpt>
      <trkpt lat="44.3436" lon="5.86838">
        <ele>652.4000244</ele>
        <time>2019-05-21T09:04:34Z</time>
      </trkpt>
      <trkpt lat="44.34359" lon="5.86838">
        <ele>652.4000244</ele>
        <time>2019-05-21T09:04:35Z</time>
      </trkpt>
      <trkpt lat="44.34357" lon="5.86836">
        <ele>652.5999756</ele>
        <time>2019-05-21T09:04:36Z</time>
      </trkpt>
      <trkpt lat="44.34332" lon="5.86825">
        <ele>654.5999756</ele>
        <time>2019-05-21T09:04:52Z</time>
      </trkpt>
      <trkpt lat="44.34311" lon="5.86838">
        <ele>656.4000244</ele>
        <time>2019-05-21T09:05:08Z</time>
      </trkpt>
      <trkpt lat="44.34312" lon="5.86861">
        <ele>657</ele>
        <time>2019-05-21T09:05:17Z</time>
      </trkpt>
      <trkpt lat="44.34313" lon="5.86864">
        <ele>657</ele>
        <time>2019-05-21T09:05:18Z</time>
      </trkpt>
      <trkpt lat="44.34314" lon="5.86866">
        <ele>657</ele>
        <time>2019-05-21T09:05:19Z</time>
      </trkpt>
      <trkpt lat="44.34324" lon="5.86883">
        <ele>657.7999878</ele>
        <time>2019-05-21T09:05:27Z</time>
      </trkpt>
      <trkpt lat="44.34327" lon="5.86886">
        <ele>658.2000122</ele>
        <time>2019-05-21T09:05:29Z</time>
      </trkpt>
      <trkpt lat="44.34332" lon="5.86894">
        <ele>658.4000244</ele>
        <time>2019-05-21T09:05:33Z</time>
      </trkpt>
      <trkpt lat="44.34333" lon="5.86896">
        <ele>658.4000244</ele>
        <time>2019-05-21T09:05:34Z</time>
      </trkpt>
      <trkpt lat="44.34335" lon="5.86898">
        <ele>658.5999756</ele>
        <time>2019-05-21T09:05:35Z</time>
      </trkpt>
      <trkpt lat="44.34336" lon="5.869">
        <ele>658.5999756</ele>
        <time>2019-05-21T09:05:36Z</time>
      </trkpt>
      <trkpt lat="44.34341" lon="5.86907">
        <ele>659</ele>
        <time>2019-05-21T09:05:41Z</time>
      </trkpt>
      <trkpt lat="44.3435" lon="5.86918">
        <ele>660</ele>
        <time>2019-05-21T09:05:48Z</time>
      </trkpt>
      <trkpt lat="44.34361" lon="5.86931">
        <ele>661.2000122</ele>
        <time>2019-05-21T09:05:55Z</time>
      </trkpt>
      <trkpt lat="44.34363" lon="5.86932">
        <ele>661.4000244</ele>
        <time>2019-05-21T09:05:56Z</time>
      </trkpt>
      <trkpt lat="44.34365" lon="5.86933">
        <ele>661.5999756</ele>
        <time>2019-05-21T09:05:57Z</time>
      </trkpt>
      <trkpt lat="44.3439" lon="5.86932">
        <ele>663.7999878</ele>
        <time>2019-05-21T09:06:12Z</time>
      </trkpt>
      <trkpt lat="44.34402" lon="5.86929">
        <ele>665</ele>
        <time>2019-05-21T09:06:21Z</time>
      </trkpt>
      <trkpt lat="44.34416" lon="5.8693">
        <ele>666.4000244</ele>
        <time>2019-05-21T09:06:31Z</time>
      </trkpt>
      <trkpt lat="44.34417" lon="5.86931">
        <ele>666.5999756</ele>
        <time>2019-05-21T09:06:32Z</time>
      </trkpt>
      <trkpt lat="44.34418" lon="5.86931">
        <ele>666.7999878</ele>
        <time>2019-05-21T09:06:33Z</time>
      </trkpt>
      <trkpt lat="44.34419" lon="5.86931">
        <ele>666.7999878</ele>
        <time>2019-05-21T09:06:34Z</time>
      </trkpt>
      <trkpt lat="44.34421" lon="5.86932">
        <ele>667</ele>
        <time>2019-05-21T09:06:35Z</time>
      </trkpt>
      <trkpt lat="44.34422" lon="5.86933">
        <ele>667</ele>
        <time>2019-05-21T09:06:36Z</time>
      </trkpt>
      <trkpt lat="44.34424" lon="5.86935">
        <ele>667.2000122</ele>
        <time>2019-05-21T09:06:37Z</time>
      </trkpt>
      <trkpt lat="44.34425" lon="5.86936">
        <ele>667.4000244</ele>
        <time>2019-05-21T09:06:38Z</time>
      </trkpt>
      <trkpt lat="44.34425" lon="5.86938">
        <ele>667.5999756</ele>
        <time>2019-05-21T09:06:39Z</time>
      </trkpt>
      <trkpt lat="44.34426" lon="5.8694">
        <ele>667.7999878</ele>
        <time>2019-05-21T09:06:40Z</time>
      </trkpt>
      <trkpt lat="44.34427" lon="5.86942">
        <ele>668</ele>
        <time>2019-05-21T09:06:41Z</time>
      </trkpt>
      <trkpt lat="44.34428" lon="5.86943">
        <ele>668.2000122</ele>
        <time>2019-05-21T09:06:42Z</time>
      </trkpt>
      <trkpt lat="44.34429" lon="5.86945">
        <ele>668.2000122</ele>
        <time>2019-05-21T09:06:43Z</time>
      </trkpt>
      <trkpt lat="44.34436" lon="5.8696">
        <ele>669</ele>
        <time>2019-05-21T09:06:50Z</time>
      </trkpt>
      <trkpt lat="44.34441" lon="5.8697">
        <ele>669.7999878</ele>
        <time>2019-05-21T09:06:57Z</time>
      </trkpt>
      <trkpt lat="44.34441" lon="5.86972">
        <ele>669.7999878</ele>
        <time>2019-05-21T09:06:58Z</time>
      </trkpt>
      <trkpt lat="44.34442" lon="5.86974">
        <ele>670.2000122</ele>
        <time>2019-05-21T09:06:59Z</time>
      </trkpt>
      <trkpt lat="44.34444" lon="5.86979">
        <ele>670.7999878</ele>
        <time>2019-05-21T09:07:02Z</time>
      </trkpt>
      <trkpt lat="44.34445" lon="5.86981">
        <ele>671</ele>
        <time>2019-05-21T09:07:03Z</time>
      </trkpt>
      <trkpt lat="44.34446" lon="5.86985">
        <ele>671.2000122</ele>
        <time>2019-05-21T09:07:05Z</time>
      </trkpt>
      <trkpt lat="44.34447" lon="5.86987">
        <ele>671.2000122</ele>
        <time>2019-05-21T09:07:06Z</time>
      </trkpt>
      <trkpt lat="44.34448" lon="5.86989">
        <ele>671.4000244</ele>
        <time>2019-05-21T09:07:07Z</time>
      </trkpt>
      <trkpt lat="44.34456" lon="5.87035">
        <ele>673.2000122</ele>
        <time>2019-05-21T09:07:25Z</time>
      </trkpt>
      <trkpt lat="44.34446" lon="5.87111">
        <ele>673.5999756</ele>
        <time>2019-05-21T09:07:43Z</time>
      </trkpt>
      <trkpt lat="44.34437" lon="5.87192">
        <ele>672.7999878</ele>
        <time>2019-05-21T09:08:00Z</time>
      </trkpt>
      <trkpt lat="44.34421" lon="5.87251">
        <ele>673.2000122</ele>
        <time>2019-05-21T09:08:15Z</time>
      </trkpt>
      <trkpt lat="44.34416" lon="5.87254">
        <ele>673.2000122</ele>
        <time>2019-05-21T09:08:16Z</time>
      </trkpt>
      <trkpt lat="44.34411" lon="5.87256">
        <ele>673.2000122</ele>
        <time>2019-05-21T09:08:17Z</time>
      </trkpt>
      <trkpt lat="44.34335" lon="5.87278">
        <ele>672.2000122</ele>
        <time>2019-05-21T09:08:29Z</time>
      </trkpt>
      <trkpt lat="44.34289" lon="5.87293">
        <ele>671</ele>
        <time>2019-05-21T09:08:35Z</time>
      </trkpt>
      <trkpt lat="44.34266" lon="5.87306">
        <ele>669.4000244</ele>
        <time>2019-05-21T09:08:38Z</time>
      </trkpt>
      <trkpt lat="44.34184" lon="5.87349">
        <ele>666.4000244</ele>
        <time>2019-05-21T09:08:51Z</time>
      </trkpt>
      <trkpt lat="44.34178" lon="5.8735">
        <ele>666.4000244</ele>
        <time>2019-05-21T09:08:52Z</time>
      </trkpt>
      <trkpt lat="44.34172" lon="5.8735">
        <ele>666</ele>
        <time>2019-05-21T09:08:53Z</time>
      </trkpt>
      <trkpt lat="44.34166" lon="5.87349">
        <ele>666</ele>
        <time>2019-05-21T09:08:54Z</time>
      </trkpt>
      <trkpt lat="44.3416" lon="5.87348">
        <ele>665.7999878</ele>
        <time>2019-05-21T09:08:55Z</time>
      </trkpt>
      <trkpt lat="44.34154" lon="5.87346">
        <ele>665.7999878</ele>
        <time>2019-05-21T09:08:56Z</time>
      </trkpt>
      <trkpt lat="44.34148" lon="5.87343">
        <ele>665.5999756</ele>
        <time>2019-05-21T09:08:57Z</time>
      </trkpt>
      <trkpt lat="44.34142" lon="5.87339">
        <ele>665.2000122</ele>
        <time>2019-05-21T09:08:58Z</time>
      </trkpt>
      <trkpt lat="44.34103" lon="5.87319">
        <ele>663.4000244</ele>
        <time>2019-05-21T09:09:04Z</time>
      </trkpt>
      <trkpt lat="44.34045" lon="5.87298">
        <ele>661.2000122</ele>
        <time>2019-05-21T09:09:12Z</time>
      </trkpt>
      <trkpt lat="44.34037" lon="5.87298">
        <ele>660.7999878</ele>
        <time>2019-05-21T09:09:13Z</time>
      </trkpt>
      <trkpt lat="44.34022" lon="5.87298">
        <ele>660</ele>
        <time>2019-05-21T09:09:15Z</time>
      </trkpt>
      <trkpt lat="44.33939" lon="5.87296">
        <ele>657</ele>
        <time>2019-05-21T09:09:26Z</time>
      </trkpt>
      <trkpt lat="44.33872" lon="5.87263">
        <ele>654</ele>
        <time>2019-05-21T09:09:37Z</time>
      </trkpt>
      <trkpt lat="44.33847" lon="5.87253">
        <ele>652.5999756</ele>
        <time>2019-05-21T09:09:41Z</time>
      </trkpt>
      <trkpt lat="44.33806" lon="5.87241">
        <ele>651.2000122</ele>
        <time>2019-05-21T09:09:47Z</time>
      </trkpt>
      <trkpt lat="44.338" lon="5.87241">
        <ele>650.7999878</ele>
        <time>2019-05-21T09:09:48Z</time>
      </trkpt>
      <trkpt lat="44.33753" lon="5.87252">
        <ele>648.2000122</ele>
        <time>2019-05-21T09:09:55Z</time>
      </trkpt>
      <trkpt lat="44.33688" lon="5.87256">
        <ele>646.2000122</ele>
        <time>2019-05-21T09:10:07Z</time>
      </trkpt>
      <trkpt lat="44.33682" lon="5.87262">
        <ele>645</ele>
        <time>2019-05-21T09:10:14Z</time>
      </trkpt>
      <trkpt lat="44.33679" lon="5.87265">
        <ele>644.5999756</ele>
        <time>2019-05-21T09:10:22Z</time>
      </trkpt>
      <trkpt lat="44.33671" lon="5.87272">
        <ele>643</ele>
        <time>2019-05-21T09:11:49Z</time>
      </trkpt>
      <trkpt lat="44.33671" lon="5.87281">
        <ele>643.2000122</ele>
        <time>2019-05-21T09:11:51Z</time>
      </trkpt>
      <trkpt lat="44.33657" lon="5.87323">
        <ele>644.7999878</ele>
        <time>2019-05-21T09:12:05Z</time>
      </trkpt>
      <trkpt lat="44.33633" lon="5.87348">
        <ele>647</ele>
        <time>2019-05-21T09:12:21Z</time>
      </trkpt>
      <trkpt lat="44.33625" lon="5.87368">
        <ele>648.4000244</ele>
        <time>2019-05-21T09:12:31Z</time>
      </trkpt>
      <trkpt lat="44.33624" lon="5.87382">
        <ele>649.5999756</ele>
        <time>2019-05-21T09:12:37Z</time>
      </trkpt>
      <trkpt lat="44.33624" lon="5.87384">
        <ele>649.7999878</ele>
        <time>2019-05-21T09:12:38Z</time>
      </trkpt>
      <trkpt lat="44.33624" lon="5.87386">
        <ele>650</ele>
        <time>2019-05-21T09:12:39Z</time>
      </trkpt>
      <trkpt lat="44.33628" lon="5.87422">
        <ele>651.7999878</ele>
        <time>2019-05-21T09:12:54Z</time>
      </trkpt>
      <trkpt lat="44.33629" lon="5.87424">
        <ele>652</ele>
        <time>2019-05-21T09:12:55Z</time>
      </trkpt>
      <trkpt lat="44.33638" lon="5.87444">
        <ele>653</ele>
        <time>2019-05-21T09:13:03Z</time>
      </trkpt>
      <trkpt lat="44.3364" lon="5.87451">
        <ele>653.2000122</ele>
        <time>2019-05-21T09:13:06Z</time>
      </trkpt>
      <trkpt lat="44.33636" lon="5.87491">
        <ele>655.4000244</ele>
        <time>2019-05-21T09:13:22Z</time>
      </trkpt>
      <trkpt lat="44.33633" lon="5.87506">
        <ele>655.7999878</ele>
        <time>2019-05-21T09:13:28Z</time>
      </trkpt>
      <trkpt lat="44.3363" lon="5.87532">
        <ele>656.5999756</ele>
        <time>2019-05-21T09:13:37Z</time>
      </trkpt>
      <trkpt lat="44.33617" lon="5.87578">
        <ele>657.5999756</ele>
        <time>2019-05-21T09:13:55Z</time>
      </trkpt>
      <trkpt lat="44.33596" lon="5.87571">
        <ele>657.7999878</ele>
        <time>2019-05-21T09:14:01Z</time>
      </trkpt>
      <trkpt lat="44.33596" lon="5.87608">
        <ele>667.8242188</ele>
      </trkpt>
      <trkpt lat="44.33598" lon="5.87631">
        <ele>668.1015625</ele>
      </trkpt>
      <trkpt lat="44.33598" lon="5.87654">
        <ele>668.1796875</ele>
      </trkpt>
      <trkpt lat="44.33596" lon="5.87677">
        <ele>668.03125</ele>
      </trkpt>
      <trkpt lat="44.33596" lon="5.877">
        <ele>668.0507813</ele>
      </trkpt>
      <trkpt lat="44.33596" lon="5.87723">
        <ele>668.1914063</ele>
      </trkpt>
      <trkpt lat="44.3359" lon="5.87743">
        <ele>667.9453125</ele>
      </trkpt>
      <trkpt lat="44.33585" lon="5.87763">
        <ele>667.7773438</ele>
      </trkpt>
      <trkpt lat="44.33579" lon="5.87786">
        <ele>667.8046875</ele>
      </trkpt>
      <trkpt lat="44.33574" lon="5.87809">
        <ele>667.8007813</ele>
      </trkpt>
      <trkpt lat="44.33566" lon="5.87832">
        <ele>668.234375</ele>
      </trkpt>
      <trkpt lat="44.33561" lon="5.87852">
        <ele>668.671875</ele>
      </trkpt>
      <trkpt lat="44.3355" lon="5.87865">
        <ele>668.1835938</ele>
      </trkpt>
      <trkpt lat="44.33536" lon="5.87878">
        <ele>668.0234375</ele>
      </trkpt>
      <trkpt lat="44.3352" lon="5.87881">
        <ele>666.7773438</ele>
      </trkpt>
      <trkpt lat="44.33507" lon="5.87891">
        <ele>666.3867188</ele>
      </trkpt>
      <trkpt lat="44.3349" lon="5.87901">
        <ele>665.5195313</ele>
      </trkpt>
      <trkpt lat="44.3348" lon="5.87914">
        <ele>665.359375</ele>
      </trkpt>
      <trkpt lat="44.33469" lon="5.87927">
        <ele>665</ele>
      </trkpt>
      <trkpt lat="44.33461" lon="5.87944">
        <ele>665.3046875</ele>
      </trkpt>
      <trkpt lat="44.3345" lon="5.8796">
        <ele>665.2148438</ele>
      </trkpt>
      <trkpt lat="44.33442" lon="5.8798">
        <ele>665.21875</ele>
      </trkpt>
      <trkpt lat="44.33437" lon="5.88">
        <ele>665.25</ele>
      </trkpt>
      <trkpt lat="44.33428" lon="5.88019">
        <ele>664.9414063</ele>
      </trkpt>
      <trkpt lat="44.33423" lon="5.88042">
        <ele>665.203125</ele>
      </trkpt>
      <trkpt lat="44.33418" lon="5.88062">
        <ele>665.53125</ele>
      </trkpt>
      <trkpt lat="44.3341" lon="5.88085">
        <ele>665.9375</ele>
      </trkpt>
      <trkpt lat="44.33402" lon="5.88102">
        <ele>665.9140625</ele>
      </trkpt>
      <trkpt lat="44.33393" lon="5.88118">
        <ele>666.03125</ele>
      </trkpt>
      <trkpt lat="44.33385" lon="5.88138">
        <ele>666.4296875</ele>
      </trkpt>
      <trkpt lat="44.33377" lon="5.88154">
        <ele>667.0039063</ele>
      </trkpt>
      <trkpt lat="44.33372" lon="5.88174">
        <ele>667.8828125</ele>
      </trkpt>
      <trkpt lat="44.33364" lon="5.88194">
        <ele>668.828125</ele>
      </trkpt>
      <trkpt lat="44.33353" lon="5.88207">
        <ele>669.34375</ele>
      </trkpt>
      <trkpt lat="44.33348" lon="5.88227">
        <ele>669.9335938</ele>
      </trkpt>
      <trkpt lat="44.33334" lon="5.88243">
        <ele>670.0546875</ele>
      </trkpt>
      <trkpt lat="44.33326" lon="5.88256">
        <ele>670.1445313</ele>
      </trkpt>
      <trkpt lat="44.3331" lon="5.8826">
        <ele>669.671875</ele>
      </trkpt>
      <trkpt lat="44.33294" lon="5.88253">
        <ele>668.734375</ele>
      </trkpt>
      <trkpt lat="44.33278" lon="5.8825">
        <ele>667.9335938</ele>
      </trkpt>
      <trkpt lat="44.33261" lon="5.88253">
        <ele>666.9726563</ele>
      </trkpt>
      <trkpt lat="44.33243" lon="5.88253">
        <ele>665.9726563</ele>
      </trkpt>
      <trkpt lat="44.33226" lon="5.8826">
        <ele>665.3320313</ele>
      </trkpt>
      <trkpt lat="44.33213" lon="5.88266">
        <ele>664.5664063</ele>
      </trkpt>
      <trkpt lat="44.33194" lon="5.88279">
        <ele>662.875</ele>
      </trkpt>
      <trkpt lat="44.33178" lon="5.88286">
        <ele>661.7226563</ele>
      </trkpt>
      <trkpt lat="44.33172" lon="5.88293">
        <ele>660.9414063</ele>
      </trkpt>
      <trkpt lat="44.33175" lon="5.88293">
        <ele>661.0234375</ele>
      </trkpt>
      <trkpt lat="44.33137" lon="5.88299">
        <ele>659.15625</ele>
      </trkpt>
      <trkpt lat="44.33124" lon="5.88312">
        <ele>657.484375</ele>
      </trkpt>
      <trkpt lat="44.3311" lon="5.88319">
        <ele>656.640625</ele>
      </trkpt>
      <trkpt lat="44.33094" lon="5.88329">
        <ele>655.5273438</ele>
      </trkpt>
      <trkpt lat="44.33081" lon="5.88335">
        <ele>654.6835938</ele>
      </trkpt>
      <trkpt lat="44.33065" lon="5.88345">
        <ele>653.7890625</ele>
      </trkpt>
      <trkpt lat="44.33051" lon="5.88352">
        <ele>653.1875</ele>
      </trkpt>
      <trkpt lat="44.33035" lon="5.88352">
        <ele>652.8984375</ele>
      </trkpt>
      <trkpt lat="44.33019" lon="5.88355">
        <ele>652.4296875</ele>
      </trkpt>
      <trkpt lat="44.33003" lon="5.88358">
        <ele>651.9609375</ele>
      </trkpt>
      <trkpt lat="44.32984" lon="5.88358">
        <ele>651.6210938</ele>
      </trkpt>
      <trkpt lat="44.32965" lon="5.88358">
        <ele>651.2929688</ele>
      </trkpt>
      <trkpt lat="44.32949" lon="5.88352">
        <ele>651.5820313</ele>
      </trkpt>
      <trkpt lat="44.32933" lon="5.88352">
        <ele>651.5195313</ele>
      </trkpt>
      <trkpt lat="44.32916" lon="5.88345">
        <ele>651.7070313</ele>
      </trkpt>
      <trkpt lat="44.329" lon="5.88342">
        <ele>651.609375</ele>
      </trkpt>
      <trkpt lat="44.32887" lon="5.88332">
        <ele>651.7226563</ele>
      </trkpt>
      <trkpt lat="44.32871" lon="5.88325">
        <ele>651.6679688</ele>
      </trkpt>
      <trkpt lat="44.32857" lon="5.88316">
        <ele>651.78125</ele>
      </trkpt>
      <trkpt lat="44.32844" lon="5.88306">
        <ele>652.1289063</ele>
      </trkpt>
      <trkpt lat="44.3283" lon="5.88296">
        <ele>652.5742188</ele>
      </trkpt>
      <trkpt lat="44.32814" lon="5.88289">
        <ele>652.7773438</ele>
      </trkpt>
      <trkpt lat="44.32795" lon="5.88273">
        <ele>653.25</ele>
      </trkpt>
      <trkpt lat="44.32782" lon="5.88263">
        <ele>653.5742188</ele>
      </trkpt>
      <trkpt lat="44.32766" lon="5.88253">
        <ele>653.984375</ele>
      </trkpt>
      <trkpt lat="44.32752" lon="5.8824">
        <ele>654.53125</ele>
      </trkpt>
      <trkpt lat="44.32741" lon="5.88227">
        <ele>654.8710938</ele>
      </trkpt>
      <trkpt lat="44.32725" lon="5.88217">
        <ele>654.8398438</ele>
      </trkpt>
      <trkpt lat="44.32709" lon="5.88214">
        <ele>654.6015625</ele>
      </trkpt>
      <trkpt lat="44.3269" lon="5.88214">
        <ele>654.1601563</ele>
      </trkpt>
      <trkpt lat="44.32671" lon="5.8821">
        <ele>653.7539063</ele>
      </trkpt>
      <trkpt lat="44.32655" lon="5.88204">
        <ele>653.5273438</ele>
      </trkpt>
      <trkpt lat="44.32642" lon="5.88194">
        <ele>653.3945313</ele>
      </trkpt>
      <trkpt lat="44.32628" lon="5.88187">
        <ele>653.0820313</ele>
      </trkpt>
      <trkpt lat="44.32615" lon="5.88174">
        <ele>652.9570313</ele>
      </trkpt>
      <trkpt lat="44.32601" lon="5.88164">
        <ele>652.6914063</ele>
      </trkpt>
      <trkpt lat="44.32585" lon="5.88158">
        <ele>652.2421875</ele>
      </trkpt>
      <trkpt lat="44.32569" lon="5.88154">
        <ele>651.8164063</ele>
      </trkpt>
      <trkpt lat="44.32553" lon="5.88154">
        <ele>651.4609375</ele>
      </trkpt>
      <trkpt lat="44.32534" lon="5.88154">
        <ele>651.0429688</ele>
      </trkpt>
      <trkpt lat="44.32518" lon="5.88161">
        <ele>650.6054688</ele>
      </trkpt>
      <trkpt lat="44.32501" lon="5.88164">
        <ele>650.3789063</ele>
      </trkpt>
      <trkpt lat="44.32485" lon="5.88167">
        <ele>650.1835938</ele>
      </trkpt>
      <trkpt lat="44.32469" lon="5.88171">
        <ele>650.0273438</ele>
      </trkpt>
      <trkpt lat="44.32453" lon="5.88174">
        <ele>650.0976563</ele>
      </trkpt>
      <trkpt lat="44.32439" lon="5.88181">
        <ele>650.140625</ele>
      </trkpt>
      <trkpt lat="44.32426" lon="5.88191">
        <ele>650.0859375</ele>
      </trkpt>
      <trkpt lat="44.32415" lon="5.882">
        <ele>649.9414063</ele>
      </trkpt>
      <trkpt lat="44.32404" lon="5.8821">
        <ele>650.0429688</ele>
      </trkpt>
      <trkpt lat="44.32391" lon="5.8822">
        <ele>650.3515625</ele>
      </trkpt>
      <trkpt lat="44.32388" lon="5.88223">
        <ele>650.3515625</ele>
      </trkpt>
      <trkpt lat="44.3235" lon="5.88243">
        <ele>650.8242188</ele>
      </trkpt>
      <trkpt lat="44.32334" lon="5.88253">
        <ele>651.4648438</ele>
      </trkpt>
      <trkpt lat="44.32321" lon="5.88253">
        <ele>652.4335938</ele>
      </trkpt>
      <trkpt lat="44.3231" lon="5.88237">
        <ele>653.8710938</ele>
      </trkpt>
      <trkpt lat="44.3231" lon="5.88214">
        <ele>654.78125</ele>
      </trkpt>
      <trkpt lat="44.3231" lon="5.88191">
        <ele>655.6445313</ele>
      </trkpt>
      <trkpt lat="44.32307" lon="5.88167">
        <ele>656.5664063</ele>
      </trkpt>
      <trkpt lat="44.32307" lon="5.88144">
        <ele>657.3359375</ele>
      </trkpt>
      <trkpt lat="44.32297" lon="5.88135">
        <ele>658.1601563</ele>
      </trkpt>
      <trkpt lat="44.32278" lon="5.88148">
        <ele>658.9960938</ele>
      </trkpt>
      <trkpt lat="44.32267" lon="5.88164">
        <ele>659.1835938</ele>
      </trkpt>
      <trkpt lat="44.32256" lon="5.88184">
        <ele>659.4101563</ele>
      </trkpt>
      <trkpt lat="44.32245" lon="5.88184">
        <ele>660.140625</ele>
      </trkpt>
      <trkpt lat="44.32245" lon="5.88161">
        <ele>660.5664063</ele>
      </trkpt>
      <trkpt lat="44.32243" lon="5.88141">
        <ele>661.03125</ele>
      </trkpt>
      <trkpt lat="44.32237" lon="5.88118">
        <ele>661.6445313</ele>
      </trkpt>
      <trkpt lat="44.32229" lon="5.88098">
        <ele>662.4570313</ele>
      </trkpt>
      <trkpt lat="44.32227" lon="5.88079">
        <ele>663.3867188</ele>
      </trkpt>
      <trkpt lat="44.32218" lon="5.88062">
        <ele>664.8671875</ele>
      </trkpt>
      <trkpt lat="44.3221" lon="5.88042">
        <ele>666.6484375</ele>
      </trkpt>
      <trkpt lat="44.32205" lon="5.88019">
        <ele>668.8359375</ele>
      </trkpt>
      <trkpt lat="44.32194" lon="5.88">
        <ele>671.75</ele>
      </trkpt>
      <trkpt lat="44.32183" lon="5.8798">
        <ele>674.203125</ele>
      </trkpt>
      <trkpt lat="44.32175" lon="5.87964">
        <ele>675.8515625</ele>
      </trkpt>
      <trkpt lat="44.32167" lon="5.87947">
        <ele>677.7734375</ele>
      </trkpt>
      <trkpt lat="44.32162" lon="5.87927">
        <ele>680.4101563</ele>
      </trkpt>
      <trkpt lat="44.32173" lon="5.87924">
        <ele>681.1054688</ele>
      </trkpt>
      <trkpt lat="44.32191" lon="5.87924">
        <ele>680.8945313</ele>
      </trkpt>
      <trkpt lat="44.32208" lon="5.87921">
        <ele>678.40625</ele>
      </trkpt>
      <trkpt lat="44.32208" lon="5.87898">
        <ele>679.046875</ele>
      </trkpt>
      <trkpt lat="44.322" lon="5.87878">
        <ele>681.1875</ele>
      </trkpt>
      <trkpt lat="44.32189" lon="5.87858">
        <ele>683.9179688</ele>
      </trkpt>
      <trkpt lat="44.32181" lon="5.87838">
        <ele>685.0117188</ele>
      </trkpt>
      <trkpt lat="44.32173" lon="5.87822">
        <ele>686.4960938</ele>
      </trkpt>
      <trkpt lat="44.32165" lon="5.87806">
        <ele>688.3359375</ele>
      </trkpt>
      <trkpt lat="44.32154" lon="5.87789">
        <ele>690.7617188</ele>
      </trkpt>
      <trkpt lat="44.32146" lon="5.87773">
        <ele>693.0390625</ele>
      </trkpt>
      <trkpt lat="44.32132" lon="5.87766">
        <ele>696.4179688</ele>
      </trkpt>
      <trkpt lat="44.32121" lon="5.87783">
        <ele>697.234375</ele>
      </trkpt>
      <trkpt lat="44.32111" lon="5.87796">
        <ele>697.8671875</ele>
      </trkpt>
      <trkpt lat="44.32097" lon="5.87806">
        <ele>698.796875</ele>
      </trkpt>
      <trkpt lat="44.32084" lon="5.87815">
        <ele>698.9140625</ele>
      </trkpt>
      <trkpt lat="44.3207" lon="5.87825">
        <ele>698.015625</ele>
      </trkpt>
      <trkpt lat="44.32054" lon="5.87825">
        <ele>698.8007813</ele>
      </trkpt>
      <trkpt lat="44.32041" lon="5.87815">
        <ele>701.53125</ele>
      </trkpt>
      <trkpt lat="44.3203" lon="5.87806">
        <ele>704.0742188</ele>
      </trkpt>
      <trkpt lat="44.32024" lon="5.87786">
        <ele>707.8867188</ele>
      </trkpt>
      <trkpt lat="44.32019" lon="5.87766">
        <ele>711.4570313</ele>
      </trkpt>
      <trkpt lat="44.32014" lon="5.87743">
        <ele>714.4804688</ele>
      </trkpt>
      <trkpt lat="44.32006" lon="5.87723">
        <ele>716.03125</ele>
      </trkpt>
      <trkpt lat="44.31995" lon="5.87704">
        <ele>717.3867188</ele>
      </trkpt>
      <trkpt lat="44.31987" lon="5.87684">
        <ele>718.421875</ele>
      </trkpt>
      <trkpt lat="44.31979" lon="5.87667">
        <ele>719.2304688</ele>
      </trkpt>
      <trkpt lat="44.3197" lon="5.87644">
        <ele>720.8671875</ele>
      </trkpt>
      <trkpt lat="44.31962" lon="5.87625">
        <ele>721.1015625</ele>
      </trkpt>
      <trkpt lat="44.31957" lon="5.87605">
        <ele>721.3867188</ele>
      </trkpt>
      <trkpt lat="44.31954" lon="5.87585">
        <ele>722.1796875</ele>
      </trkpt>
      <trkpt lat="44.31952" lon="5.87562">
        <ele>722.84375</ele>
      </trkpt>
      <trkpt lat="44.31952" lon="5.87539">
        <ele>723.6953125</ele>
      </trkpt>
      <trkpt lat="44.31944" lon="5.87523">
        <ele>724.3320313</ele>
      </trkpt>
      <trkpt lat="44.3193" lon="5.87536">
        <ele>723.6796875</ele>
      </trkpt>
      <trkpt lat="44.31914" lon="5.87536">
        <ele>723.578125</ele>
      </trkpt>
      <trkpt lat="44.31898" lon="5.87529">
        <ele>723.8984375</ele>
      </trkpt>
      <trkpt lat="44.31882" lon="5.87526">
        <ele>723.9257813</ele>
      </trkpt>
      <trkpt lat="44.31863" lon="5.87519">
        <ele>724.3242188</ele>
      </trkpt>
      <trkpt lat="44.31849" lon="5.87506">
        <ele>725.171875</ele>
      </trkpt>
      <trkpt lat="44.31836" lon="5.87496">
        <ele>725.1953125</ele>
      </trkpt>
      <trkpt lat="44.31822" lon="5.87486">
        <ele>725.3046875</ele>
      </trkpt>
      <trkpt lat="44.31809" lon="5.87473">
        <ele>725.75</ele>
      </trkpt>
      <trkpt lat="44.31795" lon="5.87467">
        <ele>725.1757813</ele>
      </trkpt>
      <trkpt lat="44.31782" lon="5.8746">
        <ele>724.7109375</ele>
      </trkpt>
      <trkpt lat="44.31768" lon="5.8745">
        <ele>724.6054688</ele>
      </trkpt>
      <trkpt lat="44.31763" lon="5.8745">
        <ele>724.3046875</ele>
      </trkpt>
      <trkpt lat="44.31776" lon="5.87457">
        <ele>724.6015625</ele>
      </trkpt>
      <trkpt lat="44.31771" lon="5.8747">
        <ele>723.3203125</ele>
      </trkpt>
      <trkpt lat="44.31755" lon="5.8748">
        <ele>720.9375</ele>
      </trkpt>
      <trkpt lat="44.31739" lon="5.87483">
        <ele>718.9179688</ele>
      </trkpt>
      <trkpt lat="44.31725" lon="5.87493">
        <ele>715.4609375</ele>
      </trkpt>
      <trkpt lat="44.31709" lon="5.87493">
        <ele>713.7265625</ele>
      </trkpt>
      <trkpt lat="44.31698" lon="5.87483">
        <ele>714.96875</ele>
      </trkpt>
      <trkpt lat="44.31688" lon="5.87467">
        <ele>716.5195313</ele>
      </trkpt>
      <trkpt lat="44.31688" lon="5.8744">
        <ele>718.890625</ele>
      </trkpt>
      <trkpt lat="44.31688" lon="5.87417">
        <ele>720.65625</ele>
      </trkpt>
      <trkpt lat="44.31679" lon="5.87401">
        <ele>718.3710938</ele>
      </trkpt>
      <trkpt lat="44.31669" lon="5.87391">
        <ele>715.8164063</ele>
      </trkpt>
      <trkpt lat="44.31661" lon="5.87378">
        <ele>713.7890625</ele>
      </trkpt>
      <trkpt lat="44.31655" lon="5.87358">
        <ele>711.9140625</ele>
      </trkpt>
      <trkpt lat="44.31644" lon="5.87342">
        <ele>708.59375</ele>
      </trkpt>
      <trkpt lat="44.31636" lon="5.87322">
        <ele>705.5664063</ele>
      </trkpt>
      <trkpt lat="44.31631" lon="5.87302">
        <ele>702.8515625</ele>
      </trkpt>
      <trkpt lat="44.31631" lon="5.87279">
        <ele>700.828125</ele>
      </trkpt>
      <trkpt lat="44.31636" lon="5.87256">
        <ele>699.8242188</ele>
      </trkpt>
      <trkpt lat="44.31639" lon="5.87233">
        <ele>698.1210938</ele>
      </trkpt>
      <trkpt lat="44.31642" lon="5.8721">
        <ele>696.2890625</ele>
      </trkpt>
      <trkpt lat="44.31647" lon="5.87187">
        <ele>694.4570313</ele>
      </trkpt>
      <trkpt lat="44.3165" lon="5.87164">
        <ele>691.90625</ele>
      </trkpt>
      <trkpt lat="44.31652" lon="5.87144">
        <ele>689.6523438</ele>
      </trkpt>
      <trkpt lat="44.3165" lon="5.87125">
        <ele>687.4140625</ele>
      </trkpt>
      <trkpt lat="44.31647" lon="5.87105">
        <ele>685.296875</ele>
      </trkpt>
      <trkpt lat="44.31639" lon="5.87085">
        <ele>683.0820313</ele>
      </trkpt>
      <trkpt lat="44.31631" lon="5.87065">
        <ele>681.2304688</ele>
      </trkpt>
      <trkpt lat="44.3162" lon="5.87056">
        <ele>679.4726563</ele>
      </trkpt>
      <trkpt lat="44.31612" lon="5.87039">
        <ele>677.609375</ele>
      </trkpt>
      <trkpt lat="44.31596" lon="5.87026">
        <ele>675.1640625</ele>
      </trkpt>
      <trkpt lat="44.31585" lon="5.87016">
        <ele>673.4648438</ele>
      </trkpt>
      <trkpt lat="44.31572" lon="5.87003">
        <ele>671.4726563</ele>
      </trkpt>
      <trkpt lat="44.31558" lon="5.8699">
        <ele>669.6914063</ele>
      </trkpt>
      <trkpt lat="44.31542" lon="5.8698">
        <ele>668.2265625</ele>
      </trkpt>
      <trkpt lat="44.31529" lon="5.8697">
        <ele>667.125</ele>
      </trkpt>
      <trkpt lat="44.31515" lon="5.8696">
        <ele>665.90625</ele>
      </trkpt>
      <trkpt lat="44.31502" lon="5.8695">
        <ele>664.7382813</ele>
      </trkpt>
      <trkpt lat="44.31488" lon="5.8694">
        <ele>663.8320313</ele>
      </trkpt>
      <trkpt lat="44.31475" lon="5.86927">
        <ele>663.2148438</ele>
      </trkpt>
      <trkpt lat="44.31464" lon="5.86914">
        <ele>662.3789063</ele>
      </trkpt>
      <trkpt lat="44.31456" lon="5.86898">
        <ele>660.765625</ele>
      </trkpt>
      <trkpt lat="44.31442" lon="5.86878">
        <ele>658.75</ele>
      </trkpt>
      <trkpt lat="44.3144" lon="5.86868">
        <ele>658.1757813</ele>
      </trkpt>
      <trkpt lat="44.31413" lon="5.86855">
        <ele>655.7539063</ele>
      </trkpt>
      <trkpt lat="44.31407" lon="5.86838">
        <ele>654.7382813</ele>
      </trkpt>
      <trkpt lat="44.31396" lon="5.86819">
        <ele>653.2421875</ele>
      </trkpt>
      <trkpt lat="44.31388" lon="5.86802">
        <ele>652.1132813</ele>
      </trkpt>
      <trkpt lat="44.31378" lon="5.86786">
        <ele>650.7421875</ele>
      </trkpt>
      <trkpt lat="44.31367" lon="5.86769">
        <ele>649.375</ele>
      </trkpt>
      <trkpt lat="44.31359" lon="5.86753">
        <ele>648.2265625</ele>
      </trkpt>
      <trkpt lat="44.31351" lon="5.86736">
        <ele>647.6445313</ele>
      </trkpt>
      <trkpt lat="44.3134" lon="5.86717">
        <ele>646.8671875</ele>
      </trkpt>
      <trkpt lat="44.31324" lon="5.86707">
        <ele>645.703125</ele>
      </trkpt>
      <trkpt lat="44.3131" lon="5.86694">
        <ele>644.78125</ele>
      </trkpt>
      <trkpt lat="44.31299" lon="5.8668">
        <ele>644.2539063</ele>
      </trkpt>
      <trkpt lat="44.31283" lon="5.86677">
        <ele>642.6757813</ele>
      </trkpt>
      <trkpt lat="44.3127" lon="5.86671">
        <ele>641.4960938</ele>
      </trkpt>
      <trkpt lat="44.31251" lon="5.86664">
        <ele>639.8476563</ele>
      </trkpt>
      <trkpt lat="44.31235" lon="5.86661">
        <ele>638.2890625</ele>
      </trkpt>
      <trkpt lat="44.31221" lon="5.86651">
        <ele>637.1875</ele>
      </trkpt>
      <trkpt lat="44.31205" lon="5.86641">
        <ele>635.7890625</ele>
      </trkpt>
      <trkpt lat="44.31192" lon="5.86628">
        <ele>634.8007813</ele>
      </trkpt>
      <trkpt lat="44.31184" lon="5.86611">
        <ele>634.5351563</ele>
      </trkpt>
      <trkpt lat="44.31173" lon="5.86598">
        <ele>633.84375</ele>
      </trkpt>
      <trkpt lat="44.31165" lon="5.86578">
        <ele>633.6796875</ele>
      </trkpt>
      <trkpt lat="44.31151" lon="5.86562">
        <ele>632.8164063</ele>
      </trkpt>
      <trkpt lat="44.3114" lon="5.86546">
        <ele>632.2421875</ele>
      </trkpt>
      <trkpt lat="44.3113" lon="5.86532">
        <ele>631.5546875</ele>
      </trkpt>
      <trkpt lat="44.31119" lon="5.86513">
        <ele>630.7617188</ele>
      </trkpt>
      <trkpt lat="44.31108" lon="5.865">
        <ele>629.8320313</ele>
      </trkpt>
      <trkpt lat="44.311" lon="5.86483">
        <ele>629.2539063</ele>
      </trkpt>
      <trkpt lat="44.31089" lon="5.8647">
        <ele>628.4375</ele>
      </trkpt>
      <trkpt lat="44.31076" lon="5.8645">
        <ele>627.6914063</ele>
      </trkpt>
      <trkpt lat="44.3106" lon="5.86444">
        <ele>626.1796875</ele>
      </trkpt>
      <trkpt lat="44.31043" lon="5.86444">
        <ele>624.4335938</ele>
      </trkpt>
      <trkpt lat="44.31025" lon="5.86447">
        <ele>622.2773438</ele>
      </trkpt>
      <trkpt lat="44.31008" lon="5.8645">
        <ele>620.6640625</ele>
      </trkpt>
      <trkpt lat="44.30992" lon="5.8645">
        <ele>619.2070313</ele>
      </trkpt>
      <trkpt lat="44.30976" lon="5.86444">
        <ele>617.9882813</ele>
      </trkpt>
      <trkpt lat="44.3096" lon="5.86444">
        <ele>616.7109375</ele>
      </trkpt>
      <trkpt lat="44.30944" lon="5.8644">
        <ele>615.7617188</ele>
      </trkpt>
      <trkpt lat="44.30928" lon="5.8643">
        <ele>614.9296875</ele>
      </trkpt>
      <trkpt lat="44.30914" lon="5.86421">
        <ele>614.1914063</ele>
      </trkpt>
      <trkpt lat="44.30903" lon="5.86407">
        <ele>614.5273438</ele>
      </trkpt>
      <trkpt lat="44.30887" lon="5.86394">
        <ele>614.7734375</ele>
      </trkpt>
      <trkpt lat="44.30876" lon="5.86384">
        <ele>614.9101563</ele>
      </trkpt>
      <trkpt lat="44.30863" lon="5.86371">
        <ele>615.0117188</ele>
      </trkpt>
      <trkpt lat="44.30849" lon="5.86361">
        <ele>615.1875</ele>
      </trkpt>
      <trkpt lat="44.30839" lon="5.86348">
        <ele>615.9179688</ele>
      </trkpt>
      <trkpt lat="44.30825" lon="5.86335">
        <ele>616.2460938</ele>
      </trkpt>
      <trkpt lat="44.30812" lon="5.86319">
        <ele>616.3828125</ele>
      </trkpt>
      <trkpt lat="44.30801" lon="5.86302">
        <ele>616.703125</ele>
      </trkpt>
      <trkpt lat="44.30793" lon="5.86286">
        <ele>617.5976563</ele>
      </trkpt>
      <trkpt lat="44.30779" lon="5.86263">
        <ele>617.5976563</ele>
      </trkpt>
      <trkpt lat="44.30771" lon="5.86246">
        <ele>617</ele>
      </trkpt>
      <trkpt lat="44.30763" lon="5.8623">
        <ele>616.0664063</ele>
      </trkpt>
      <trkpt lat="44.30755" lon="5.8621">
        <ele>614.9101563</ele>
      </trkpt>
      <trkpt lat="44.3075" lon="5.86187">
        <ele>613.75</ele>
      </trkpt>
      <trkpt lat="44.30742" lon="5.86171">
        <ele>612.1757813</ele>
      </trkpt>
      <trkpt lat="44.30728" lon="5.86157">
        <ele>610.53125</ele>
      </trkpt>
      <trkpt lat="44.30717" lon="5.86147">
        <ele>609.1523438</ele>
      </trkpt>
      <trkpt lat="44.30701" lon="5.86141">
        <ele>607.2109375</ele>
      </trkpt>
      <trkpt lat="44.30685" lon="5.86138">
        <ele>605.8671875</ele>
      </trkpt>
      <trkpt lat="44.30669" lon="5.86134">
        <ele>605.890625</ele>
      </trkpt>
      <trkpt lat="44.30666" lon="5.86154">
        <ele>606.90625</ele>
      </trkpt>
      <trkpt lat="44.30669" lon="5.86177">
        <ele>607.828125</ele>
      </trkpt>
      <trkpt lat="44.30672" lon="5.862">
        <ele>608.734375</ele>
      </trkpt>
      <trkpt lat="44.3068" lon="5.86217">
        <ele>609.3320313</ele>
      </trkpt>
      <trkpt lat="44.30682" lon="5.8624">
        <ele>610.4804688</ele>
      </trkpt>
      <trkpt lat="44.3069" lon="5.86259">
        <ele>611.328125</ele>
      </trkpt>
      <trkpt lat="44.30701" lon="5.86282">
        <ele>612.8554688</ele>
      </trkpt>
      <trkpt lat="44.30709" lon="5.86299">
        <ele>613.8554688</ele>
      </trkpt>
      <trkpt lat="44.30717" lon="5.86319">
        <ele>614.75</ele>
      </trkpt>
      <trkpt lat="44.30723" lon="5.86342">
        <ele>615.2929688</ele>
      </trkpt>
      <trkpt lat="44.30731" lon="5.86361">
        <ele>615.4570313</ele>
      </trkpt>
      <trkpt lat="44.30739" lon="5.86388">
        <ele>616.03125</ele>
      </trkpt>
      <trkpt lat="44.30747" lon="5.86411">
        <ele>616.546875</ele>
      </trkpt>
      <trkpt lat="44.30752" lon="5.86437">
        <ele>617.1484375</ele>
      </trkpt>
      <trkpt lat="44.30758" lon="5.8646">
        <ele>617.5625</ele>
      </trkpt>
      <trkpt lat="44.30766" lon="5.8648">
        <ele>617.5976563</ele>
      </trkpt>
      <trkpt lat="44.30774" lon="5.865">
        <ele>617.53125</ele>
      </trkpt>
      <trkpt lat="44.30779" lon="5.86519">
        <ele>617.5898438</ele>
      </trkpt>
      <trkpt lat="44.30787" lon="5.86539">
        <ele>617.53125</ele>
      </trkpt>
      <trkpt lat="44.3079" lon="5.86559">
        <ele>618.1757813</ele>
      </trkpt>
      <trkpt lat="44.30795" lon="5.86582">
        <ele>618.4882813</ele>
      </trkpt>
      <trkpt lat="44.30804" lon="5.86611">
        <ele>619.0898438</ele>
      </trkpt>
      <trkpt lat="44.30809" lon="5.86631">
        <ele>619.671875</ele>
      </trkpt>
      <trkpt lat="44.30814" lon="5.86661">
        <ele>620.3945313</ele>
      </trkpt>
      <trkpt lat="44.30817" lon="5.86684">
        <ele>620.9804688</ele>
      </trkpt>
      <trkpt lat="44.3082" lon="5.86703">
        <ele>621.5117188</ele>
      </trkpt>
      <trkpt lat="44.30825" lon="5.86727">
        <ele>622.078125</ele>
      </trkpt>
      <trkpt lat="44.30828" lon="5.8675">
        <ele>622.8476563</ele>
      </trkpt>
      <trkpt lat="44.30833" lon="5.86769">
        <ele>623.1289063</ele>
      </trkpt>
      <trkpt lat="44.30833" lon="5.86792">
        <ele>624.1289063</ele>
      </trkpt>
      <trkpt lat="44.30833" lon="5.86815">
        <ele>625.1484375</ele>
      </trkpt>
      <trkpt lat="44.30833" lon="5.86838">
        <ele>626.2226563</ele>
      </trkpt>
      <trkpt lat="44.30833" lon="5.86861">
        <ele>627.296875</ele>
      </trkpt>
      <trkpt lat="44.30833" lon="5.86884">
        <ele>628.7304688</ele>
      </trkpt>
      <trkpt lat="44.30831" lon="5.86907">
        <ele>630.4726563</ele>
      </trkpt>
      <trkpt lat="44.30828" lon="5.8693">
        <ele>631.8046875</ele>
      </trkpt>
      <trkpt lat="44.30822" lon="5.86954">
        <ele>632.8515625</ele>
      </trkpt>
      <trkpt lat="44.30814" lon="5.86977">
        <ele>634</ele>
      </trkpt>
      <trkpt lat="44.30806" lon="5.86993">
        <ele>634.640625</ele>
      </trkpt>
      <trkpt lat="44.30795" lon="5.87006">
        <ele>635.5664063</ele>
      </trkpt>
      <trkpt lat="44.30779" lon="5.87026">
        <ele>637.3125</ele>
      </trkpt>
      <trkpt lat="44.30766" lon="5.87039">
        <ele>638.46875</ele>
      </trkpt>
      <trkpt lat="44.30755" lon="5.87052">
        <ele>638.96875</ele>
      </trkpt>
      <trkpt lat="44.30744" lon="5.87062">
        <ele>639.3945313</ele>
      </trkpt>
      <trkpt lat="44.3076" lon="5.87042">
        <ele>638.8828125</ele>
      </trkpt>
      <trkpt lat="44.3075" lon="5.87072">
        <ele>638.46875</ele>
      </trkpt>
      <trkpt lat="44.30742" lon="5.87088">
        <ele>638.3203125</ele>
      </trkpt>
      <trkpt lat="44.30733" lon="5.87108">
        <ele>638.7617188</ele>
      </trkpt>
      <trkpt lat="44.30725" lon="5.87125">
        <ele>639.1796875</ele>
      </trkpt>
      <trkpt lat="44.30715" lon="5.87141">
        <ele>639.7539063</ele>
      </trkpt>
      <trkpt lat="44.30707" lon="5.87157">
        <ele>640.34375</ele>
      </trkpt>
      <trkpt lat="44.30696" lon="5.87177">
        <ele>640.9335938</ele>
      </trkpt>
      <trkpt lat="44.30682" lon="5.87194">
        <ele>641.8320313</ele>
      </trkpt>
      <trkpt lat="44.30672" lon="5.87207">
        <ele>642.8710938</ele>
      </trkpt>
      <trkpt lat="44.30658" lon="5.8722">
        <ele>644.1523438</ele>
      </trkpt>
      <trkpt lat="44.30647" lon="5.87233">
        <ele>645.0625</ele>
      </trkpt>
      <trkpt lat="44.30639" lon="5.87246">
        <ele>645.6289063</ele>
      </trkpt>
      <trkpt lat="44.30628" lon="5.87266">
        <ele>646.6367188</ele>
      </trkpt>
      <trkpt lat="44.30615" lon="5.87286">
        <ele>647.9804688</ele>
      </trkpt>
      <trkpt lat="44.30604" lon="5.87302">
        <ele>648.796875</ele>
      </trkpt>
      <trkpt lat="44.30596" lon="5.87319">
        <ele>649.2773438</ele>
      </trkpt>
      <trkpt lat="44.30588" lon="5.87335">
        <ele>649.734375</ele>
      </trkpt>
      <trkpt lat="44.30577" lon="5.87352">
        <ele>650.3515625</ele>
      </trkpt>
      <trkpt lat="44.30569" lon="5.87368">
        <ele>650.9804688</ele>
      </trkpt>
      <trkpt lat="44.30561" lon="5.87391">
        <ele>651.7148438</ele>
      </trkpt>
      <trkpt lat="44.30558" lon="5.87411">
        <ele>651.8554688</ele>
      </trkpt>
      <trkpt lat="44.30558" lon="5.87421">
        <ele>651.796875</ele>
      </trkpt>
      <trkpt lat="44.30556" lon="5.87411">
        <ele>642.7999878</ele>
        <time>2019-05-21T09:58:13Z</time>
      </trkpt>
      <trkpt lat="44.30553" lon="5.8741">
        <ele>643</ele>
        <time>2019-05-21T09:58:48Z</time>
      </trkpt>
      <trkpt lat="44.30549" lon="5.87413">
        <ele>642.7999878</ele>
        <time>2019-05-21T09:59:00Z</time>
      </trkpt>
      <trkpt lat="44.30548" lon="5.87414">
        <ele>642.7999878</ele>
        <time>2019-05-21T09:59:01Z</time>
      </trkpt>
      <trkpt lat="44.30547" lon="5.87415">
        <ele>642.7999878</ele>
        <time>2019-05-21T09:59:02Z</time>
      </trkpt>
      <trkpt lat="44.3053" lon="5.87447">
        <ele>643</ele>
        <time>2019-05-21T09:59:15Z</time>
      </trkpt>
      <trkpt lat="44.30526" lon="5.87498">
        <ele>645</ele>
        <time>2019-05-21T09:59:31Z</time>
      </trkpt>
      <trkpt lat="44.30526" lon="5.87533">
        <ele>648</ele>
        <time>2019-05-21T09:59:43Z</time>
      </trkpt>
      <trkpt lat="44.30521" lon="5.87577">
        <ele>649.5999756</ele>
        <time>2019-05-21T10:00:02Z</time>
      </trkpt>
      <trkpt lat="44.30505" lon="5.87611">
        <ele>649.2000122</ele>
        <time>2019-05-21T10:00:19Z</time>
      </trkpt>
      <trkpt lat="44.30504" lon="5.87611">
        <ele>649.2000122</ele>
        <time>2019-05-21T10:00:37Z</time>
      </trkpt>
      <trkpt lat="44.30502" lon="5.87617">
        <ele>649.2000122</ele>
        <time>2019-05-21T10:00:59Z</time>
      </trkpt>
      <trkpt lat="44.30501" lon="5.87619">
        <ele>649.2000122</ele>
        <time>2019-05-21T10:01:00Z</time>
      </trkpt>
      <trkpt lat="44.30499" lon="5.87621">
        <ele>649.2000122</ele>
        <time>2019-05-21T10:01:01Z</time>
      </trkpt>
      <trkpt lat="44.30497" lon="5.87624">
        <ele>649</ele>
        <time>2019-05-21T10:01:02Z</time>
      </trkpt>
      <trkpt lat="44.30495" lon="5.87627">
        <ele>649</ele>
        <time>2019-05-21T10:01:03Z</time>
      </trkpt>
      <trkpt lat="44.30489" lon="5.87635">
        <ele>649</ele>
        <time>2019-05-21T10:01:05Z</time>
      </trkpt>
      <trkpt lat="44.30485" lon="5.87638">
        <ele>649</ele>
        <time>2019-05-21T10:01:06Z</time>
      </trkpt>
      <trkpt lat="44.30481" lon="5.8764">
        <ele>648.7999878</ele>
        <time>2019-05-21T10:01:07Z</time>
      </trkpt>
      <trkpt lat="44.30438" lon="5.87679">
        <ele>648</ele>
        <time>2019-05-21T10:01:18Z</time>
      </trkpt>
      <trkpt lat="44.30434" lon="5.87682">
        <ele>648</ele>
        <time>2019-05-21T10:01:19Z</time>
      </trkpt>
      <trkpt lat="44.30429" lon="5.87685">
        <ele>648</ele>
        <time>2019-05-21T10:01:20Z</time>
      </trkpt>
      <trkpt lat="44.30426" lon="5.87688">
        <ele>647.7999878</ele>
        <time>2019-05-21T10:01:21Z</time>
      </trkpt>
      <trkpt lat="44.30421" lon="5.87691">
        <ele>647.7999878</ele>
        <time>2019-05-21T10:01:22Z</time>
      </trkpt>
      <trkpt lat="44.30417" lon="5.87694">
        <ele>647.5999756</ele>
        <time>2019-05-21T10:01:23Z</time>
      </trkpt>
      <trkpt lat="44.30412" lon="5.87697">
        <ele>647.5999756</ele>
        <time>2019-05-21T10:01:24Z</time>
      </trkpt>
      <trkpt lat="44.30408" lon="5.87701">
        <ele>647.2000122</ele>
        <time>2019-05-21T10:01:25Z</time>
      </trkpt>
      <trkpt lat="44.30404" lon="5.87706">
        <ele>647.2000122</ele>
        <time>2019-05-21T10:01:26Z</time>
      </trkpt>
      <trkpt lat="44.304" lon="5.87711">
        <ele>647</ele>
        <time>2019-05-21T10:01:27Z</time>
      </trkpt>
      <trkpt lat="44.30397" lon="5.87717">
        <ele>647</ele>
        <time>2019-05-21T10:01:28Z</time>
      </trkpt>
      <trkpt lat="44.30346" lon="5.87775">
        <ele>645</ele>
        <time>2019-05-21T10:01:41Z</time>
      </trkpt>
      <trkpt lat="44.30321" lon="5.87775">
        <ele>645.5999756</ele>
        <time>2019-05-21T10:01:53Z</time>
      </trkpt>
      <trkpt lat="44.30296" lon="5.87774">
        <ele>646</ele>
        <time>2019-05-21T10:02:05Z</time>
      </trkpt>
      <trkpt lat="44.30298" lon="5.87776">
        <ele>646.4000244</ele>
        <time>2019-05-21T10:02:37Z</time>
      </trkpt>
      <trkpt lat="44.30302" lon="5.87775">
        <ele>646.5999756</ele>
        <time>2019-05-21T10:02:40Z</time>
      </trkpt>
      <trkpt lat="44.30305" lon="5.87775">
        <ele>646.5999756</ele>
        <time>2019-05-21T10:02:41Z</time>
      </trkpt>
      <trkpt lat="44.30307" lon="5.87774">
        <ele>646.5999756</ele>
        <time>2019-05-21T10:02:42Z</time>
      </trkpt>
      <trkpt lat="44.3031" lon="5.87774">
        <ele>646.5999756</ele>
        <time>2019-05-21T10:02:43Z</time>
      </trkpt>
      <trkpt lat="44.30312" lon="5.87773">
        <ele>646.4000244</ele>
        <time>2019-05-21T10:02:44Z</time>
      </trkpt>
      <trkpt lat="44.30314" lon="5.87774">
        <ele>646.4000244</ele>
        <time>2019-05-21T10:02:45Z</time>
      </trkpt>
      <trkpt lat="44.30317" lon="5.87774">
        <ele>646.4000244</ele>
        <time>2019-05-21T10:02:46Z</time>
      </trkpt>
      <trkpt lat="44.30329" lon="5.87774">
        <ele>646.4000244</ele>
        <time>2019-05-21T10:02:51Z</time>
      </trkpt>
      <trkpt lat="44.30332" lon="5.87773">
        <ele>646.4000244</ele>
        <time>2019-05-21T10:02:52Z</time>
      </trkpt>
      <trkpt lat="44.30336" lon="5.87772">
        <ele>646.4000244</ele>
        <time>2019-05-21T10:02:53Z</time>
      </trkpt>
      <trkpt lat="44.30339" lon="5.87771">
        <ele>646.4000244</ele>
        <time>2019-05-21T10:02:54Z</time>
      </trkpt>
      <trkpt lat="44.3035" lon="5.87762">
        <ele>646.4000244</ele>
        <time>2019-05-21T10:02:57Z</time>
      </trkpt>
      <trkpt lat="44.304" lon="5.87703">
        <ele>646</ele>
        <time>2019-05-21T10:03:14Z</time>
      </trkpt>
      <trkpt lat="44.30437" lon="5.87673">
        <ele>646.5999756</ele>
        <time>2019-05-21T10:03:29Z</time>
      </trkpt>
      <trkpt lat="44.30469" lon="5.87641">
        <ele>648.4000244</ele>
        <time>2019-05-21T10:03:45Z</time>
      </trkpt>
      <trkpt lat="44.30503" lon="5.87609">
        <ele>649.7999878</ele>
        <time>2019-05-21T10:04:03Z</time>
      </trkpt>
      <trkpt lat="44.30523" lon="5.8756">
        <ele>650.2000122</ele>
        <time>2019-05-21T10:04:20Z</time>
      </trkpt>
      <trkpt lat="44.30511" lon="5.87545">
        <ele>650.7999878</ele>
        <time>2019-05-21T10:04:31Z</time>
      </trkpt>
      <trkpt lat="44.30504" lon="5.87544">
        <ele>651.4000244</ele>
        <time>2019-05-21T10:04:50Z</time>
      </trkpt>
      <trkpt lat="44.305" lon="5.87538">
        <ele>651.5999756</ele>
        <time>2019-05-21T10:04:56Z</time>
      </trkpt>
      <trkpt lat="44.30488" lon="5.87522">
        <ele>652.5999756</ele>
        <time>2019-05-21T10:05:12Z</time>
      </trkpt>
      <trkpt lat="44.3047" lon="5.87513">
        <ele>653.2000122</ele>
        <time>2019-05-21T10:05:29Z</time>
      </trkpt>
      <trkpt lat="44.3046" lon="5.87518">
        <ele>654.7999878</ele>
        <time>2019-05-21T10:05:46Z</time>
      </trkpt>
      <trkpt lat="44.30455" lon="5.87519">
        <ele>654.4000244</ele>
        <time>2019-05-21T10:05:59Z</time>
      </trkpt>
      <trkpt lat="44.30443" lon="5.87523">
        <ele>654.5999756</ele>
        <time>2019-05-21T10:06:09Z</time>
      </trkpt>
      <trkpt lat="44.30441" lon="5.87523">
        <ele>654.7999878</ele>
        <time>2019-05-21T10:06:10Z</time>
      </trkpt>
      <trkpt lat="44.30425" lon="5.87527">
        <ele>654.7999878</ele>
        <time>2019-05-21T10:06:15Z</time>
      </trkpt>
      <trkpt lat="44.30355" lon="5.87536">
        <ele>654.7999878</ele>
        <time>2019-05-21T10:06:31Z</time>
      </trkpt>
      <trkpt lat="44.30276" lon="5.87552">
        <ele>652.4000244</ele>
        <time>2019-05-21T10:06:46Z</time>
      </trkpt>
      <trkpt lat="44.302" lon="5.8758">
        <ele>652</ele>
        <time>2019-05-21T10:07:01Z</time>
      </trkpt>
      <trkpt lat="44.30191" lon="5.87589">
        <ele>651.7999878</ele>
        <time>2019-05-21T10:07:03Z</time>
      </trkpt>
      <trkpt lat="44.30161" lon="5.87628">
        <ele>651</ele>
        <time>2019-05-21T10:07:09Z</time>
      </trkpt>
      <trkpt lat="44.30155" lon="5.87634">
        <ele>650.7999878</ele>
        <time>2019-05-21T10:07:10Z</time>
      </trkpt>
      <trkpt lat="44.30149" lon="5.87638">
        <ele>650.4000244</ele>
        <time>2019-05-21T10:07:11Z</time>
      </trkpt>
      <trkpt lat="44.30143" lon="5.87641">
        <ele>650.4000244</ele>
        <time>2019-05-21T10:07:12Z</time>
      </trkpt>
      <trkpt lat="44.30138" lon="5.87644">
        <ele>650.2000122</ele>
        <time>2019-05-21T10:07:13Z</time>
      </trkpt>
      <trkpt lat="44.30133" lon="5.87645">
        <ele>650</ele>
        <time>2019-05-21T10:07:14Z</time>
      </trkpt>
      <trkpt lat="44.30132" lon="5.87643">
        <ele>649.7999878</ele>
        <time>2019-05-21T10:07:15Z</time>
      </trkpt>
      <trkpt lat="44.30127" lon="5.87642">
        <ele>649.5999756</ele>
        <time>2019-05-21T10:07:16Z</time>
      </trkpt>
      <trkpt lat="44.30122" lon="5.87641">
        <ele>649.5999756</ele>
        <time>2019-05-21T10:07:17Z</time>
      </trkpt>
      <trkpt lat="44.30074" lon="5.87618">
        <ele>650.5999756</ele>
        <time>2019-05-21T10:07:31Z</time>
      </trkpt>
      <trkpt lat="44.3007" lon="5.87614">
        <ele>650.4000244</ele>
        <time>2019-05-21T10:07:41Z</time>
      </trkpt>
      <trkpt lat="44.30075" lon="5.87618">
        <ele>650.4000244</ele>
        <time>2019-05-21T10:07:44Z</time>
      </trkpt>
      <trkpt lat="44.30088" lon="5.87626">
        <ele>650.4000244</ele>
        <time>2019-05-21T10:07:49Z</time>
      </trkpt>
      <trkpt lat="44.30139" lon="5.87649">
        <ele>651.5999756</ele>
        <time>2019-05-21T10:08:03Z</time>
      </trkpt>
      <trkpt lat="44.30151" lon="5.87649">
        <ele>651.5999756</ele>
        <time>2019-05-21T10:08:06Z</time>
      </trkpt>
      <trkpt lat="44.30162" lon="5.87645">
        <ele>651.4000244</ele>
        <time>2019-05-21T10:08:10Z</time>
      </trkpt>
      <trkpt lat="44.30161" lon="5.87644">
        <ele>651.2000122</ele>
        <time>2019-05-21T10:08:12Z</time>
      </trkpt>
      <trkpt lat="44.3016" lon="5.87647">
        <ele>651</ele>
        <time>2019-05-21T10:08:13Z</time>
      </trkpt>
      <trkpt lat="44.30158" lon="5.87648">
        <ele>651</ele>
        <time>2019-05-21T10:08:14Z</time>
      </trkpt>
      <trkpt lat="44.30157" lon="5.87649">
        <ele>650.7999878</ele>
        <time>2019-05-21T10:08:15Z</time>
      </trkpt>
      <trkpt lat="44.30155" lon="5.8765">
        <ele>650.4000244</ele>
        <time>2019-05-21T10:08:16Z</time>
      </trkpt>
      <trkpt lat="44.30155" lon="5.87651">
        <ele>647.5999756</ele>
        <time>2019-05-21T10:08:22Z</time>
      </trkpt>
      <trkpt lat="44.30153" lon="5.87658">
        <ele>647.4000244</ele>
        <time>2019-05-21T10:08:33Z</time>
      </trkpt>
      <trkpt lat="44.30151" lon="5.87661">
        <ele>647.2000122</ele>
        <time>2019-05-21T10:08:34Z</time>
      </trkpt>
      <trkpt lat="44.30149" lon="5.87663">
        <ele>647.2000122</ele>
        <time>2019-05-21T10:08:35Z</time>
      </trkpt>
      <trkpt lat="44.30146" lon="5.87666">
        <ele>647</ele>
        <time>2019-05-21T10:08:36Z</time>
      </trkpt>
      <trkpt lat="44.30143" lon="5.8767">
        <ele>647</ele>
        <time>2019-05-21T10:08:37Z</time>
      </trkpt>
      <trkpt lat="44.30135" lon="5.87677">
        <ele>646.7999878</ele>
        <time>2019-05-21T10:08:39Z</time>
      </trkpt>
      <trkpt lat="44.30064" lon="5.87719">
        <ele>643.5999756</ele>
        <time>2019-05-21T10:08:52Z</time>
      </trkpt>
      <trkpt lat="44.30005" lon="5.87752">
        <ele>640.5999756</ele>
        <time>2019-05-21T10:09:00Z</time>
      </trkpt>
      <trkpt lat="44.2999" lon="5.87763">
        <ele>640</ele>
        <time>2019-05-21T10:09:02Z</time>
      </trkpt>
      <trkpt lat="44.29984" lon="5.8777">
        <ele>639.7999878</ele>
        <time>2019-05-21T10:09:03Z</time>
      </trkpt>
      <trkpt lat="44.29977" lon="5.87777">
        <ele>639.5999756</ele>
        <time>2019-05-21T10:09:04Z</time>
      </trkpt>
      <trkpt lat="44.29972" lon="5.87786">
        <ele>639.2000122</ele>
        <time>2019-05-21T10:09:05Z</time>
      </trkpt>
      <trkpt lat="44.29966" lon="5.87795">
        <ele>638.7999878</ele>
        <time>2019-05-21T10:09:06Z</time>
      </trkpt>
      <trkpt lat="44.29962" lon="5.87804">
        <ele>638.2000122</ele>
        <time>2019-05-21T10:09:07Z</time>
      </trkpt>
      <trkpt lat="44.29942" lon="5.87839">
        <ele>636.4000244</ele>
        <time>2019-05-21T10:09:12Z</time>
      </trkpt>
      <trkpt lat="44.29936" lon="5.87844">
        <ele>636</ele>
        <time>2019-05-21T10:09:13Z</time>
      </trkpt>
      <trkpt lat="44.29931" lon="5.87849">
        <ele>635.4000244</ele>
        <time>2019-05-21T10:09:14Z</time>
      </trkpt>
      <trkpt lat="44.29925" lon="5.87853">
        <ele>634.7999878</ele>
        <time>2019-05-21T10:09:15Z</time>
      </trkpt>
      <trkpt lat="44.29919" lon="5.87857">
        <ele>634.2000122</ele>
        <time>2019-05-21T10:09:16Z</time>
      </trkpt>
      <trkpt lat="44.29913" lon="5.87861">
        <ele>633.5999756</ele>
        <time>2019-05-21T10:09:17Z</time>
      </trkpt>
      <trkpt lat="44.29853" lon="5.87891">
        <ele>630.4000244</ele>
        <time>2019-05-21T10:09:25Z</time>
      </trkpt>
      <trkpt lat="44.29799" lon="5.87916">
        <ele>627.2000122</ele>
        <time>2019-05-21T10:09:35Z</time>
      </trkpt>
      <trkpt lat="44.29795" lon="5.87916">
        <ele>626</ele>
        <time>2019-05-21T10:09:36Z</time>
      </trkpt>
      <trkpt lat="44.29791" lon="5.87915">
        <ele>625.2000122</ele>
        <time>2019-05-21T10:09:37Z</time>
      </trkpt>
      <trkpt lat="44.29787" lon="5.87913">
        <ele>624.7999878</ele>
        <time>2019-05-21T10:09:38Z</time>
      </trkpt>
      <trkpt lat="44.29783" lon="5.87913">
        <ele>624.5999756</ele>
        <time>2019-05-21T10:09:39Z</time>
      </trkpt>
      <trkpt lat="44.29714" lon="5.87881">
        <ele>623.4000244</ele>
        <time>2019-05-21T10:09:54Z</time>
      </trkpt>
      <trkpt lat="44.29691" lon="5.87874">
        <ele>623.2000122</ele>
        <time>2019-05-21T10:09:59Z</time>
      </trkpt>
      <trkpt lat="44.29687" lon="5.87875">
        <ele>623</ele>
        <time>2019-05-21T10:10:00Z</time>
      </trkpt>
      <trkpt lat="44.29683" lon="5.87876">
        <ele>622.7999878</ele>
        <time>2019-05-21T10:10:01Z</time>
      </trkpt>
      <trkpt lat="44.29679" lon="5.87877">
        <ele>622.5999756</ele>
        <time>2019-05-21T10:10:02Z</time>
      </trkpt>
      <trkpt lat="44.29675" lon="5.87879">
        <ele>622</ele>
        <time>2019-05-21T10:10:03Z</time>
      </trkpt>
      <trkpt lat="44.29661" lon="5.87884">
        <ele>621.4000244</ele>
        <time>2019-05-21T10:10:10Z</time>
      </trkpt>
      <trkpt lat="44.29657" lon="5.87881">
        <ele>621.7999878</ele>
        <time>2019-05-21T10:10:18Z</time>
      </trkpt>
      <trkpt lat="44.29654" lon="5.87876">
        <ele>622.2000122</ele>
        <time>2019-05-21T10:10:29Z</time>
      </trkpt>
      <trkpt lat="44.29652" lon="5.87875">
        <ele>622</ele>
        <time>2019-05-21T10:10:30Z</time>
      </trkpt>
      <trkpt lat="44.29651" lon="5.87874">
        <ele>622</ele>
        <time>2019-05-21T10:10:31Z</time>
      </trkpt>
      <trkpt lat="44.2965" lon="5.87873">
        <ele>622.2000122</ele>
        <time>2019-05-21T10:10:32Z</time>
      </trkpt>
      <trkpt lat="44.29648" lon="5.87871">
        <ele>622.2000122</ele>
        <time>2019-05-21T10:10:33Z</time>
      </trkpt>
      <trkpt lat="44.29646" lon="5.87868">
        <ele>622.2000122</ele>
        <time>2019-05-21T10:10:34Z</time>
      </trkpt>
      <trkpt lat="44.29645" lon="5.87865">
        <ele>622.2000122</ele>
        <time>2019-05-21T10:10:35Z</time>
      </trkpt>
      <trkpt lat="44.29642" lon="5.87862">
        <ele>622.2000122</ele>
        <time>2019-05-21T10:10:36Z</time>
      </trkpt>
      <trkpt lat="44.2964" lon="5.87858">
        <ele>622.2000122</ele>
        <time>2019-05-21T10:10:37Z</time>
      </trkpt>
      <trkpt lat="44.29609" lon="5.87781">
        <ele>622.7999878</ele>
        <time>2019-05-21T10:10:55Z</time>
      </trkpt>
      <trkpt lat="44.29562" lon="5.87708">
        <ele>622.7999878</ele>
        <time>2019-05-21T10:11:13Z</time>
      </trkpt>
      <trkpt lat="44.29505" lon="5.87672">
        <ele>623</ele>
        <time>2019-05-21T10:11:30Z</time>
      </trkpt>
      <trkpt lat="44.29447" lon="5.87642">
        <ele>622.7999878</ele>
        <time>2019-05-21T10:11:47Z</time>
      </trkpt>
      <trkpt lat="44.29392" lon="5.87614">
        <ele>623.7999878</ele>
        <time>2019-05-21T10:12:05Z</time>
      </trkpt>
      <trkpt lat="44.29356" lon="5.87586">
        <ele>624.2000122</ele>
        <time>2019-05-21T10:12:22Z</time>
      </trkpt>
      <trkpt lat="44.29336" lon="5.87529">
        <ele>625.2000122</ele>
        <time>2019-05-21T10:12:37Z</time>
      </trkpt>
      <trkpt lat="44.29296" lon="5.87476">
        <ele>625</ele>
        <time>2019-05-21T10:12:54Z</time>
      </trkpt>
      <trkpt lat="44.29259" lon="5.87423">
        <ele>624.4000244</ele>
        <time>2019-05-21T10:13:10Z</time>
      </trkpt>
      <trkpt lat="44.2922" lon="5.87395">
        <ele>624.4000244</ele>
        <time>2019-05-21T10:13:23Z</time>
      </trkpt>
      <trkpt lat="44.2916" lon="5.87358">
        <ele>624.2000122</ele>
        <time>2019-05-21T10:13:40Z</time>
      </trkpt>
      <trkpt lat="44.29111" lon="5.87317">
        <ele>623.5999756</ele>
        <time>2019-05-21T10:13:57Z</time>
      </trkpt>
      <trkpt lat="44.29057" lon="5.87272">
        <ele>623.5999756</ele>
        <time>2019-05-21T10:14:14Z</time>
      </trkpt>
      <trkpt lat="44.29034" lon="5.8725">
        <ele>623.4000244</ele>
        <time>2019-05-21T10:14:21Z</time>
      </trkpt>
      <trkpt lat="44.28976" lon="5.87189">
        <ele>623.7999878</ele>
        <time>2019-05-21T10:14:39Z</time>
      </trkpt>
      <trkpt lat="44.2893" lon="5.87128">
        <ele>623.2000122</ele>
        <time>2019-05-21T10:14:55Z</time>
      </trkpt>
      <trkpt lat="44.28879" lon="5.87088">
        <ele>623</ele>
        <time>2019-05-21T10:15:11Z</time>
      </trkpt>
      <trkpt lat="44.28881" lon="5.87086">
        <ele>623.7999878</ele>
        <time>2019-05-21T10:15:19Z</time>
      </trkpt>
      <trkpt lat="44.28892" lon="5.87073">
        <ele>624.4000244</ele>
        <time>2019-05-21T10:15:38Z</time>
      </trkpt>
      <trkpt lat="44.28901" lon="5.87064">
        <ele>624.2000122</ele>
        <time>2019-05-21T10:16:04Z</time>
      </trkpt>
      <trkpt lat="44.28909" lon="5.87045">
        <ele>624.5999756</ele>
        <time>2019-05-21T10:16:30Z</time>
      </trkpt>
      <trkpt lat="44.28907" lon="5.87053">
        <ele>624.2000122</ele>
        <time>2019-05-21T10:17:36Z</time>
      </trkpt>
      <trkpt lat="44.28908" lon="5.87052">
        <ele>624.7999878</ele>
        <time>2019-05-21T10:18:03Z</time>
      </trkpt>
      <trkpt lat="44.2891" lon="5.87056">
        <ele>625.4000244</ele>
        <time>2019-05-21T10:18:28Z</time>
      </trkpt>
      <trkpt lat="44.28906" lon="5.8706">
        <ele>625</ele>
        <time>2019-05-21T10:19:10Z</time>
      </trkpt>
      <trkpt lat="44.28907" lon="5.87052">
        <ele>624.4000244</ele>
        <time>2019-05-21T10:20:19Z</time>
      </trkpt>
      <trkpt lat="44.28907" lon="5.87059">
        <ele>624.7999878</ele>
        <time>2019-05-21T10:21:08Z</time>
      </trkpt>
      <trkpt lat="44.28903" lon="5.87066">
        <ele>624.5999756</ele>
        <time>2019-05-21T10:21:16Z</time>
      </trkpt>
      <trkpt lat="44.28893" lon="5.87085">
        <ele>625.5999756</ele>
        <time>2019-05-21T10:21:32Z</time>
      </trkpt>
      <trkpt lat="44.28885" lon="5.87086">
        <ele>625.2000122</ele>
        <time>2019-05-21T10:21:42Z</time>
      </trkpt>
      <trkpt lat="44.2886" lon="5.87072">
        <ele>624.5999756</ele>
        <time>2019-05-21T10:21:55Z</time>
      </trkpt>
      <trkpt lat="44.28847" lon="5.87059">
        <ele>625</ele>
        <time>2019-05-21T10:22:00Z</time>
      </trkpt>
      <trkpt lat="44.28795" lon="5.87013">
        <ele>625.5999756</ele>
        <time>2019-05-21T10:22:17Z</time>
      </trkpt>
      <trkpt lat="44.28746" lon="5.86971">
        <ele>626.2000122</ele>
        <time>2019-05-21T10:22:33Z</time>
      </trkpt>
      <trkpt lat="44.28697" lon="5.86934">
        <ele>627.2000122</ele>
        <time>2019-05-21T10:22:49Z</time>
      </trkpt>
      <trkpt lat="44.28635" lon="5.86873">
        <ele>626.4000244</ele>
        <time>2019-05-21T10:23:07Z</time>
      </trkpt>
      <trkpt lat="44.28592" lon="5.86828">
        <ele>626</ele>
        <time>2019-05-21T10:23:20Z</time>
      </trkpt>
      <trkpt lat="44.28514" lon="5.8677">
        <ele>625.5999756</ele>
        <time>2019-05-21T10:23:38Z</time>
      </trkpt>
      <trkpt lat="44.28483" lon="5.86754">
        <ele>624.4000244</ele>
        <time>2019-05-21T10:23:45Z</time>
      </trkpt>
      <trkpt lat="44.28479" lon="5.86751">
        <ele>624.4000244</ele>
        <time>2019-05-21T10:23:46Z</time>
      </trkpt>
      <trkpt lat="44.28461" lon="5.86731">
        <ele>624</ele>
        <time>2019-05-21T10:23:51Z</time>
      </trkpt>
      <trkpt lat="44.28458" lon="5.86725">
        <ele>624</ele>
        <time>2019-05-21T10:23:52Z</time>
      </trkpt>
      <trkpt lat="44.28438" lon="5.86681">
        <ele>623.5999756</ele>
        <time>2019-05-21T10:23:58Z</time>
      </trkpt>
      <trkpt lat="44.28435" lon="5.86672">
        <ele>623.5999756</ele>
        <time>2019-05-21T10:23:59Z</time>
      </trkpt>
      <trkpt lat="44.28431" lon="5.86653">
        <ele>623.4000244</ele>
        <time>2019-05-21T10:24:01Z</time>
      </trkpt>
      <trkpt lat="44.2843" lon="5.86643">
        <ele>623.4000244</ele>
        <time>2019-05-21T10:24:02Z</time>
      </trkpt>
      <trkpt lat="44.28429" lon="5.86633">
        <ele>623.2000122</ele>
        <time>2019-05-21T10:24:03Z</time>
      </trkpt>
      <trkpt lat="44.2843" lon="5.86623">
        <ele>623</ele>
        <time>2019-05-21T10:24:04Z</time>
      </trkpt>
      <trkpt lat="44.2843" lon="5.86612">
        <ele>623</ele>
        <time>2019-05-21T10:24:05Z</time>
      </trkpt>
      <trkpt lat="44.28432" lon="5.86592">
        <ele>622.7999878</ele>
        <time>2019-05-21T10:24:07Z</time>
      </trkpt>
      <trkpt lat="44.28431" lon="5.86582">
        <ele>622.5999756</ele>
        <time>2019-05-21T10:24:08Z</time>
      </trkpt>
      <trkpt lat="44.28431" lon="5.86571">
        <ele>622.5999756</ele>
        <time>2019-05-21T10:24:09Z</time>
      </trkpt>
      <trkpt lat="44.28426" lon="5.86533">
        <ele>620.5999756</ele>
        <time>2019-05-21T10:24:13Z</time>
      </trkpt>
      <trkpt lat="44.28408" lon="5.8643">
        <ele>618.2000122</ele>
        <time>2019-05-21T10:24:27Z</time>
      </trkpt>
      <trkpt lat="44.28408" lon="5.86377">
        <ele>618.7999878</ele>
        <time>2019-05-21T10:24:40Z</time>
      </trkpt>
      <trkpt lat="44.28393" lon="5.86322">
        <ele>620.7999878</ele>
        <time>2019-05-21T10:24:56Z</time>
      </trkpt>
      <trkpt lat="44.28367" lon="5.86271">
        <ele>622</ele>
        <time>2019-05-21T10:25:11Z</time>
      </trkpt>
      <trkpt lat="44.28343" lon="5.86219">
        <ele>622.7999878</ele>
        <time>2019-05-21T10:25:26Z</time>
      </trkpt>
      <trkpt lat="44.28309" lon="5.86168">
        <ele>624</ele>
        <time>2019-05-21T10:25:41Z</time>
      </trkpt>
      <trkpt lat="44.28264" lon="5.86117">
        <ele>623.7999878</ele>
        <time>2019-05-21T10:25:56Z</time>
      </trkpt>
      <trkpt lat="44.28255" lon="5.86112">
        <ele>623.4000244</ele>
        <time>2019-05-21T10:25:58Z</time>
      </trkpt>
      <trkpt lat="44.28251" lon="5.86109">
        <ele>623.4000244</ele>
        <time>2019-05-21T10:25:59Z</time>
      </trkpt>
      <trkpt lat="44.28187" lon="5.86037">
        <ele>621.2000122</ele>
        <time>2019-05-21T10:26:16Z</time>
      </trkpt>
      <trkpt lat="44.28151" lon="5.85991">
        <ele>620.7999878</ele>
        <time>2019-05-21T10:26:29Z</time>
      </trkpt>
      <trkpt lat="44.28103" lon="5.85946">
        <ele>620.5999756</ele>
        <time>2019-05-21T10:26:44Z</time>
      </trkpt>
      <trkpt lat="44.28054" lon="5.8591">
        <ele>619.7999878</ele>
        <time>2019-05-21T10:26:59Z</time>
      </trkpt>
      <trkpt lat="44.27981" lon="5.85867">
        <ele>617.2000122</ele>
        <time>2019-05-21T10:27:12Z</time>
      </trkpt>
      <trkpt lat="44.27927" lon="5.85839">
        <ele>613.7999878</ele>
        <time>2019-05-21T10:27:23Z</time>
      </trkpt>
      <trkpt lat="44.2792" lon="5.85835">
        <ele>613.2000122</ele>
        <time>2019-05-21T10:27:25Z</time>
      </trkpt>
      <trkpt lat="44.27899" lon="5.85827">
        <ele>612.2000122</ele>
        <time>2019-05-21T10:27:30Z</time>
      </trkpt>
      <trkpt lat="44.27829" lon="5.85792">
        <ele>610</ele>
        <time>2019-05-21T10:27:45Z</time>
      </trkpt>
      <trkpt lat="44.27783" lon="5.85761">
        <ele>609.2000122</ele>
        <time>2019-05-21T10:27:59Z</time>
      </trkpt>
      <trkpt lat="44.27751" lon="5.85717">
        <ele>609.4000244</ele>
        <time>2019-05-21T10:28:13Z</time>
      </trkpt>
      <trkpt lat="44.27698" lon="5.85632">
        <ele>609.2000122</ele>
        <time>2019-05-21T10:28:27Z</time>
      </trkpt>
      <trkpt lat="44.27621" lon="5.85574">
        <ele>605.4000244</ele>
        <time>2019-05-21T10:28:40Z</time>
      </trkpt>
      <trkpt lat="44.27585" lon="5.85549">
        <ele>602.2000122</ele>
        <time>2019-05-21T10:28:46Z</time>
      </trkpt>
      <trkpt lat="44.27569" lon="5.85536">
        <ele>601</ele>
        <time>2019-05-21T10:28:49Z</time>
      </trkpt>
      <trkpt lat="44.27516" lon="5.85461">
        <ele>600</ele>
        <time>2019-05-21T10:29:04Z</time>
      </trkpt>
      <trkpt lat="44.27487" lon="5.8539">
        <ele>598.7999878</ele>
        <time>2019-05-21T10:29:19Z</time>
      </trkpt>
      <trkpt lat="44.27483" lon="5.85387">
        <ele>597</ele>
        <time>2019-05-21T10:29:26Z</time>
      </trkpt>
      <trkpt lat="44.27481" lon="5.85395">
        <ele>596.5999756</ele>
        <time>2019-05-21T10:30:28Z</time>
      </trkpt>
      <trkpt lat="44.27471" lon="5.8538">
        <ele>596.5999756</ele>
        <time>2019-05-21T10:30:52Z</time>
      </trkpt>
      <trkpt lat="44.27468" lon="5.85375">
        <ele>596.5999756</ele>
        <time>2019-05-21T10:30:53Z</time>
      </trkpt>
      <trkpt lat="44.27464" lon="5.8537">
        <ele>596.5999756</ele>
        <time>2019-05-21T10:30:54Z</time>
      </trkpt>
      <trkpt lat="44.27423" lon="5.85314">
        <ele>594.7999878</ele>
        <time>2019-05-21T10:31:07Z</time>
      </trkpt>
      <trkpt lat="44.27385" lon="5.85289">
        <ele>593.2000122</ele>
        <time>2019-05-21T10:31:18Z</time>
      </trkpt>
      <trkpt lat="44.27314" lon="5.85244">
        <ele>591.4000244</ele>
        <time>2019-05-21T10:31:32Z</time>
      </trkpt>
      <trkpt lat="44.27222" lon="5.85156">
        <ele>588.4000244</ele>
        <time>2019-05-21T10:31:50Z</time>
      </trkpt>
      <trkpt lat="44.27209" lon="5.85143">
        <ele>588.2000122</ele>
        <time>2019-05-21T10:31:53Z</time>
      </trkpt>
      <trkpt lat="44.27204" lon="5.85141">
        <ele>588</ele>
        <time>2019-05-21T10:31:54Z</time>
      </trkpt>
      <trkpt lat="44.27114" lon="5.85096">
        <ele>586.4000244</ele>
        <time>2019-05-21T10:32:11Z</time>
      </trkpt>
      <trkpt lat="44.27056" lon="5.8507">
        <ele>587</ele>
        <time>2019-05-21T10:32:26Z</time>
      </trkpt>
      <trkpt lat="44.27001" lon="5.85056">
        <ele>587.2000122</ele>
        <time>2019-05-21T10:32:40Z</time>
      </trkpt>
      <trkpt lat="44.2697" lon="5.85041">
        <ele>588</ele>
        <time>2019-05-21T10:32:53Z</time>
      </trkpt>
      <trkpt lat="44.26967" lon="5.8504">
        <ele>588.4000244</ele>
        <time>2019-05-21T10:32:55Z</time>
      </trkpt>
      <trkpt lat="44.26934" lon="5.85041">
        <ele>590.4000244</ele>
        <time>2019-05-21T10:33:07Z</time>
      </trkpt>
      <trkpt lat="44.26928" lon="5.85039">
        <ele>590.7999878</ele>
        <time>2019-05-21T10:33:10Z</time>
      </trkpt>
      <trkpt lat="44.26925" lon="5.8504">
        <ele>590.7999878</ele>
        <time>2019-05-21T10:33:11Z</time>
      </trkpt>
      <trkpt lat="44.26922" lon="5.85041">
        <ele>590.7999878</ele>
        <time>2019-05-21T10:33:12Z</time>
      </trkpt>
      <trkpt lat="44.2692" lon="5.85041">
        <ele>591</ele>
        <time>2019-05-21T10:33:13Z</time>
      </trkpt>
      <trkpt lat="44.26918" lon="5.85041">
        <ele>591.2000122</ele>
        <time>2019-05-21T10:33:14Z</time>
      </trkpt>
      <trkpt lat="44.26907" lon="5.85024">
        <ele>591.5999756</ele>
        <time>2019-05-21T10:33:30Z</time>
      </trkpt>
      <trkpt lat="44.26915" lon="5.85037">
        <ele>591.5999756</ele>
        <time>2019-05-21T10:33:41Z</time>
      </trkpt>
      <trkpt lat="44.26946" lon="5.8511">
        <ele>590.5999756</ele>
        <time>2019-05-21T10:33:52Z</time>
      </trkpt>
      <trkpt lat="44.26968" lon="5.85215">
        <ele>588.2000122</ele>
        <time>2019-05-21T10:34:03Z</time>
      </trkpt>
      <trkpt lat="44.26967" lon="5.85224">
        <ele>588</ele>
        <time>2019-05-21T10:34:04Z</time>
      </trkpt>
      <trkpt lat="44.26966" lon="5.85232">
        <ele>588</ele>
        <time>2019-05-21T10:34:05Z</time>
      </trkpt>
      <trkpt lat="44.26961" lon="5.85284">
        <ele>585</ele>
        <time>2019-05-21T10:34:15Z</time>
      </trkpt>
      <trkpt lat="44.26948" lon="5.85338">
        <ele>585.4000244</ele>
        <time>2019-05-21T10:34:33Z</time>
      </trkpt>
      <trkpt lat="44.26931" lon="5.85387">
        <ele>588.5999756</ele>
        <time>2019-05-21T10:34:52Z</time>
      </trkpt>
      <trkpt lat="44.26921" lon="5.8542">
        <ele>591.5999756</ele>
        <time>2019-05-21T10:35:08Z</time>
      </trkpt>
      <trkpt lat="44.26907" lon="5.85456">
        <ele>594.5999756</ele>
        <time>2019-05-21T10:35:25Z</time>
      </trkpt>
      <trkpt lat="44.26907" lon="5.85458">
        <ele>594.7999878</ele>
        <time>2019-05-21T10:35:26Z</time>
      </trkpt>
      <trkpt lat="44.26907" lon="5.85459">
        <ele>595</ele>
        <time>2019-05-21T10:35:27Z</time>
      </trkpt>
      <trkpt lat="44.26901" lon="5.85495">
        <ele>597.2000122</ele>
        <time>2019-05-21T10:35:42Z</time>
      </trkpt>
      <trkpt lat="44.26899" lon="5.85502">
        <ele>597.4000244</ele>
        <time>2019-05-21T10:35:45Z</time>
      </trkpt>
      <trkpt lat="44.26897" lon="5.85504">
        <ele>597.5999756</ele>
        <time>2019-05-21T10:35:46Z</time>
      </trkpt>
      <trkpt lat="44.26896" lon="5.85507">
        <ele>597.7999878</ele>
        <time>2019-05-21T10:35:47Z</time>
      </trkpt>
      <trkpt lat="44.26895" lon="5.85509">
        <ele>597.7999878</ele>
        <time>2019-05-21T10:35:48Z</time>
      </trkpt>
      <trkpt lat="44.26895" lon="5.8551">
        <ele>598</ele>
        <time>2019-05-21T10:35:49Z</time>
      </trkpt>
      <trkpt lat="44.26894" lon="5.85512">
        <ele>598.2000122</ele>
        <time>2019-05-21T10:35:50Z</time>
      </trkpt>
      <trkpt lat="44.26892" lon="5.85519">
        <ele>598.4000244</ele>
        <time>2019-05-21T10:35:53Z</time>
      </trkpt>
      <trkpt lat="44.26887" lon="5.85529">
        <ele>599.4000244</ele>
        <time>2019-05-21T10:35:58Z</time>
      </trkpt>
      <trkpt lat="44.26887" lon="5.85531">
        <ele>599.4000244</ele>
        <time>2019-05-21T10:35:59Z</time>
      </trkpt>
      <trkpt lat="44.2688" lon="5.85537">
        <ele>599.7999878</ele>
        <time>2019-05-21T10:36:02Z</time>
      </trkpt>
      <trkpt lat="44.26879" lon="5.85539">
        <ele>600</ele>
        <time>2019-05-21T10:36:03Z</time>
      </trkpt>
      <trkpt lat="44.26877" lon="5.85543">
        <ele>600.2000122</ele>
        <time>2019-05-21T10:36:05Z</time>
      </trkpt>
      <trkpt lat="44.26868" lon="5.85569">
        <ele>601.5999756</ele>
        <time>2019-05-21T10:36:17Z</time>
      </trkpt>
      <trkpt lat="44.26867" lon="5.85571">
        <ele>601.7999878</ele>
        <time>2019-05-21T10:36:18Z</time>
      </trkpt>
      <trkpt lat="44.2686" lon="5.85574">
        <ele>601.7999878</ele>
        <time>2019-05-21T10:36:20Z</time>
      </trkpt>
      <trkpt lat="44.26859" lon="5.85575">
        <ele>602</ele>
        <time>2019-05-21T10:36:21Z</time>
      </trkpt>
      <trkpt lat="44.26853" lon="5.85584">
        <ele>602.2000122</ele>
        <time>2019-05-21T10:36:25Z</time>
      </trkpt>
      <trkpt lat="44.26853" lon="5.85586">
        <ele>602.2000122</ele>
        <time>2019-05-21T10:36:26Z</time>
      </trkpt>
      <trkpt lat="44.26851" lon="5.85592">
        <ele>602.4000244</ele>
        <time>2019-05-21T10:36:28Z</time>
      </trkpt>
      <trkpt lat="44.2685" lon="5.85596">
        <ele>602.7999878</ele>
        <time>2019-05-21T10:36:30Z</time>
      </trkpt>
      <trkpt lat="44.26848" lon="5.85603">
        <ele>603.2000122</ele>
        <time>2019-05-21T10:36:33Z</time>
      </trkpt>
      <trkpt lat="44.26847" lon="5.85606">
        <ele>603.4000244</ele>
        <time>2019-05-21T10:36:34Z</time>
      </trkpt>
      <trkpt lat="44.26837" lon="5.85647">
        <ele>604.4000244</ele>
        <time>2019-05-21T10:36:51Z</time>
      </trkpt>
      <trkpt lat="44.26835" lon="5.85653">
        <ele>604.7999878</ele>
        <time>2019-05-21T10:36:53Z</time>
      </trkpt>
      <trkpt lat="44.26835" lon="5.85655">
        <ele>604.7999878</ele>
        <time>2019-05-21T10:36:54Z</time>
      </trkpt>
      <trkpt lat="44.26829" lon="5.85693">
        <ele>606.4000244</ele>
        <time>2019-05-21T10:37:11Z</time>
      </trkpt>
      <trkpt lat="44.26828" lon="5.85697">
        <ele>606.7999878</ele>
        <time>2019-05-21T10:37:14Z</time>
      </trkpt>
      <trkpt lat="44.26825" lon="5.85712">
        <ele>608.2000122</ele>
        <time>2019-05-21T10:37:22Z</time>
      </trkpt>
      <trkpt lat="44.26821" lon="5.85724">
        <ele>610</ele>
        <time>2019-05-21T10:37:37Z</time>
      </trkpt>
      <trkpt lat="44.26823" lon="5.85725">
        <ele>610.5999756</ele>
        <time>2019-05-21T10:38:09Z</time>
      </trkpt>
      <trkpt lat="44.26822" lon="5.85728">
        <ele>610.4000244</ele>
        <time>2019-05-21T10:38:12Z</time>
      </trkpt>
      <trkpt lat="44.26818" lon="5.85737">
        <ele>610.4000244</ele>
        <time>2019-05-21T10:38:16Z</time>
      </trkpt>
      <trkpt lat="44.26816" lon="5.8574">
        <ele>610.2000122</ele>
        <time>2019-05-21T10:38:17Z</time>
      </trkpt>
      <trkpt lat="44.26799" lon="5.85763">
        <ele>609.7999878</ele>
        <time>2019-05-21T10:38:22Z</time>
      </trkpt>
      <trkpt lat="44.26795" lon="5.85769">
        <ele>609.7999878</ele>
        <time>2019-05-21T10:38:23Z</time>
      </trkpt>
      <trkpt lat="44.26746" lon="5.85856">
        <ele>608</ele>
        <time>2019-05-21T10:38:36Z</time>
      </trkpt>
      <trkpt lat="44.26704" lon="5.85937">
        <ele>606</ele>
        <time>2019-05-21T10:38:50Z</time>
      </trkpt>
      <trkpt lat="44.26679" lon="5.85971">
        <ele>605.4000244</ele>
        <time>2019-05-21T10:38:58Z</time>
      </trkpt>
      <trkpt lat="44.26674" lon="5.85973">
        <ele>605.4000244</ele>
        <time>2019-05-21T10:38:59Z</time>
      </trkpt>
      <trkpt lat="44.26674" lon="5.8598">
        <ele>605</ele>
        <time>2019-05-21T10:39:09Z</time>
      </trkpt>
      <trkpt lat="44.26673" lon="5.85984">
        <ele>605</ele>
        <time>2019-05-21T10:39:11Z</time>
      </trkpt>
      <trkpt lat="44.26672" lon="5.85985">
        <ele>604.7999878</ele>
        <time>2019-05-21T10:39:12Z</time>
      </trkpt>
      <trkpt lat="44.26675" lon="5.85987">
        <ele>604.5999756</ele>
        <time>2019-05-21T10:39:30Z</time>
      </trkpt>
      <trkpt lat="44.26669" lon="5.85991">
        <ele>604.4000244</ele>
        <time>2019-05-21T10:39:40Z</time>
      </trkpt>
      <trkpt lat="44.26677" lon="5.85979">
        <ele>604.7999878</ele>
        <time>2019-05-21T10:39:56Z</time>
      </trkpt>
      <trkpt lat="44.26698" lon="5.85952">
        <ele>605</ele>
        <time>2019-05-21T10:40:30Z</time>
      </trkpt>
      <trkpt lat="44.26715" lon="5.85934">
        <ele>605.4000244</ele>
        <time>2019-05-21T10:40:47Z</time>
      </trkpt>
      <trkpt lat="44.26733" lon="5.85898">
        <ele>605.4000244</ele>
        <time>2019-05-21T10:41:22Z</time>
      </trkpt>
      <trkpt lat="44.26744" lon="5.85884">
        <ele>605.5999756</ele>
        <time>2019-05-21T10:41:33Z</time>
      </trkpt>
      <trkpt lat="44.26745" lon="5.85881">
        <ele>605.7999878</ele>
        <time>2019-05-21T10:41:35Z</time>
      </trkpt>
      <trkpt lat="44.26744" lon="5.8588">
        <ele>605.7999878</ele>
        <time>2019-05-21T10:41:36Z</time>
      </trkpt>
      <trkpt lat="44.26739" lon="5.85877">
        <ele>605.7999878</ele>
        <time>2019-05-21T10:41:40Z</time>
      </trkpt>
      <trkpt lat="44.26742" lon="5.8587">
        <ele>605</ele>
        <time>2019-05-21T10:42:11Z</time>
      </trkpt>
      <trkpt lat="44.26737" lon="5.85878">
        <ele>604</ele>
        <time>2019-05-21T10:42:34Z</time>
      </trkpt>
      <trkpt lat="44.26738" lon="5.85869">
        <ele>605.2000122</ele>
        <time>2019-05-21T10:43:26Z</time>
      </trkpt>
      <trkpt lat="44.26742" lon="5.85885">
        <ele>604.7999878</ele>
        <time>2019-05-21T10:43:43Z</time>
      </trkpt>
      <trkpt lat="44.2674" lon="5.85891">
        <ele>605.4000244</ele>
        <time>2019-05-21T10:43:57Z</time>
      </trkpt>
      <trkpt lat="44.26738" lon="5.8589">
        <ele>605.4000244</ele>
        <time>2019-05-21T10:43:58Z</time>
      </trkpt>
      <trkpt lat="44.26739" lon="5.85892">
        <ele>605.2000122</ele>
        <time>2019-05-21T10:44:39Z</time>
      </trkpt>
      <trkpt lat="44.26735" lon="5.859">
        <ele>605.5999756</ele>
        <time>2019-05-21T10:45:16Z</time>
      </trkpt>
      <trkpt lat="44.26743" lon="5.85908">
        <ele>605</ele>
        <time>2019-05-21T10:46:04Z</time>
      </trkpt>
      <trkpt lat="44.26727" lon="5.85906">
        <ele>605.5999756</ele>
        <time>2019-05-21T10:46:38Z</time>
      </trkpt>
      <trkpt lat="44.26732" lon="5.85894">
        <ele>605.2000122</ele>
        <time>2019-05-21T10:46:54Z</time>
      </trkpt>
      <trkpt lat="44.2673" lon="5.85893">
        <ele>605.4000244</ele>
        <time>2019-05-21T10:47:17Z</time>
      </trkpt>
      <trkpt lat="44.2674" lon="5.85896">
        <ele>605.4000244</ele>
        <time>2019-05-21T10:47:34Z</time>
      </trkpt>
      <trkpt lat="44.26739" lon="5.85904">
        <ele>605.2000122</ele>
        <time>2019-05-21T10:47:55Z</time>
      </trkpt>
      <trkpt lat="44.26733" lon="5.85922">
        <ele>605.2000122</ele>
        <time>2019-05-21T10:48:09Z</time>
      </trkpt>
      <trkpt lat="44.26733" lon="5.85931">
        <ele>605.5999756</ele>
        <time>2019-05-21T10:48:25Z</time>
      </trkpt>
      <trkpt lat="44.26736" lon="5.85951">
        <ele>605.5999756</ele>
        <time>2019-05-21T10:48:30Z</time>
      </trkpt>
      <trkpt lat="44.26737" lon="5.85956">
        <ele>605.5999756</ele>
        <time>2019-05-21T10:48:31Z</time>
      </trkpt>
      <trkpt lat="44.26739" lon="5.85962">
        <ele>605.4000244</ele>
        <time>2019-05-21T10:48:32Z</time>
      </trkpt>
      <trkpt lat="44.26745" lon="5.85978">
        <ele>605.4000244</ele>
        <time>2019-05-21T10:48:35Z</time>
      </trkpt>
      <trkpt lat="44.26747" lon="5.85982">
        <ele>605.4000244</ele>
        <time>2019-05-21T10:48:36Z</time>
      </trkpt>
      <trkpt lat="44.26757" lon="5.86022">
        <ele>603.5999756</ele>
        <time>2019-05-21T10:48:43Z</time>
      </trkpt>
      <trkpt lat="44.26777" lon="5.86093">
        <ele>600</ele>
        <time>2019-05-21T10:48:51Z</time>
      </trkpt>
      <trkpt lat="44.26797" lon="5.86145">
        <ele>597</ele>
        <time>2019-05-21T10:48:55Z</time>
      </trkpt>
      <trkpt lat="44.26807" lon="5.86185">
        <ele>593.4000244</ele>
        <time>2019-05-21T10:48:58Z</time>
      </trkpt>
      <trkpt lat="44.26817" lon="5.86224">
        <ele>590</ele>
        <time>2019-05-21T10:49:01Z</time>
      </trkpt>
      <trkpt lat="44.26843" lon="5.86321">
        <ele>587</ele>
        <time>2019-05-21T10:49:10Z</time>
      </trkpt>
      <trkpt lat="44.26856" lon="5.86392">
        <ele>584</ele>
        <time>2019-05-21T10:49:20Z</time>
      </trkpt>
      <trkpt lat="44.26863" lon="5.86449">
        <ele>584.2000122</ele>
        <time>2019-05-21T10:49:35Z</time>
      </trkpt>
      <trkpt lat="44.26877" lon="5.86496">
        <ele>586</ele>
        <time>2019-05-21T10:49:52Z</time>
      </trkpt>
      <trkpt lat="44.26891" lon="5.86529">
        <ele>588</ele>
        <time>2019-05-21T10:50:06Z</time>
      </trkpt>
      <trkpt lat="44.26905" lon="5.8655">
        <ele>591</ele>
        <time>2019-05-21T10:50:18Z</time>
      </trkpt>
      <trkpt lat="44.26919" lon="5.86578">
        <ele>594.2000122</ele>
        <time>2019-05-21T10:50:33Z</time>
      </trkpt>
      <trkpt lat="44.2693" lon="5.86602">
        <ele>597.2000122</ele>
        <time>2019-05-21T10:50:45Z</time>
      </trkpt>
      <trkpt lat="44.26936" lon="5.86612">
        <ele>597.7999878</ele>
        <time>2019-05-21T10:50:51Z</time>
      </trkpt>
      <trkpt lat="44.26941" lon="5.86631">
        <ele>599</ele>
        <time>2019-05-21T10:51:00Z</time>
      </trkpt>
      <trkpt lat="44.26943" lon="5.86654">
        <ele>600.2000122</ele>
        <time>2019-05-21T10:51:11Z</time>
      </trkpt>
      <trkpt lat="44.26947" lon="5.86676">
        <ele>601.7999878</ele>
        <time>2019-05-21T10:51:22Z</time>
      </trkpt>
      <trkpt lat="44.26952" lon="5.86687">
        <ele>602.7999878</ele>
        <time>2019-05-21T10:51:30Z</time>
      </trkpt>
      <trkpt lat="44.26958" lon="5.86707">
        <ele>603.7999878</ele>
        <time>2019-05-21T10:51:41Z</time>
      </trkpt>
      <trkpt lat="44.2696" lon="5.86719">
        <ele>604.5999756</ele>
        <time>2019-05-21T10:51:47Z</time>
      </trkpt>
      <trkpt lat="44.26973" lon="5.8677">
        <ele>605.2000122</ele>
        <time>2019-05-21T10:52:03Z</time>
      </trkpt>
      <trkpt lat="44.26981" lon="5.86803">
        <ele>606</ele>
        <time>2019-05-21T10:52:15Z</time>
      </trkpt>
      <trkpt lat="44.26992" lon="5.86838">
        <ele>606.5999756</ele>
        <time>2019-05-21T10:52:29Z</time>
      </trkpt>
      <trkpt lat="44.27011" lon="5.869">
        <ele>607</ele>
        <time>2019-05-21T10:52:46Z</time>
      </trkpt>
      <trkpt lat="44.27036" lon="5.8693">
        <ele>607.4000244</ele>
        <time>2019-05-21T10:53:01Z</time>
      </trkpt>
      <trkpt lat="44.27072" lon="5.86976">
        <ele>609.7999878</ele>
        <time>2019-05-21T10:53:20Z</time>
      </trkpt>
      <trkpt lat="44.27095" lon="5.87013">
        <ele>611.5999756</ele>
        <time>2019-05-21T10:53:37Z</time>
      </trkpt>
      <trkpt lat="44.27119" lon="5.87044">
        <ele>614</ele>
        <time>2019-05-21T10:53:53Z</time>
      </trkpt>
      <trkpt lat="44.27142" lon="5.87069">
        <ele>615.7999878</ele>
        <time>2019-05-21T10:54:09Z</time>
      </trkpt>
      <trkpt lat="44.27165" lon="5.87088">
        <ele>617.7999878</ele>
        <time>2019-05-21T10:54:25Z</time>
      </trkpt>
      <trkpt lat="44.27172" lon="5.87094">
        <ele>618.7999878</ele>
        <time>2019-05-21T10:54:30Z</time>
      </trkpt>
      <trkpt lat="44.27176" lon="5.87099">
        <ele>619.2000122</ele>
        <time>2019-05-21T10:54:33Z</time>
      </trkpt>
      <trkpt lat="44.27178" lon="5.87103">
        <ele>619.5999756</ele>
        <time>2019-05-21T10:54:35Z</time>
      </trkpt>
      <trkpt lat="44.27179" lon="5.87104">
        <ele>619.7999878</ele>
        <time>2019-05-21T10:54:36Z</time>
      </trkpt>
      <trkpt lat="44.27182" lon="5.87108">
        <ele>620.2000122</ele>
        <time>2019-05-21T10:54:38Z</time>
      </trkpt>
      <trkpt lat="44.27184" lon="5.8711">
        <ele>620.2000122</ele>
        <time>2019-05-21T10:54:39Z</time>
      </trkpt>
      <trkpt lat="44.27219" lon="5.87147">
        <ele>622.4000244</ele>
        <time>2019-05-21T10:54:57Z</time>
      </trkpt>
      <trkpt lat="44.27255" lon="5.87176">
        <ele>622.7999878</ele>
        <time>2019-05-21T10:55:12Z</time>
      </trkpt>
      <trkpt lat="44.27295" lon="5.87225">
        <ele>623</ele>
        <time>2019-05-21T10:55:28Z</time>
      </trkpt>
      <trkpt lat="44.27328" lon="5.87259">
        <ele>624.2000122</ele>
        <time>2019-05-21T10:55:45Z</time>
      </trkpt>
      <trkpt lat="44.2735" lon="5.87299">
        <ele>625.4000244</ele>
        <time>2019-05-21T10:56:01Z</time>
      </trkpt>
      <trkpt lat="44.27376" lon="5.87334">
        <ele>627</ele>
        <time>2019-05-21T10:56:16Z</time>
      </trkpt>
      <trkpt lat="44.27398" lon="5.8734">
        <ele>628.4000244</ele>
        <time>2019-05-21T10:56:28Z</time>
      </trkpt>
      <trkpt lat="44.27402" lon="5.87335">
        <ele>628.5999756</ele>
        <time>2019-05-21T10:56:30Z</time>
      </trkpt>
      <trkpt lat="44.27416" lon="5.87319">
        <ele>630.5999756</ele>
        <time>2019-05-21T10:56:37Z</time>
      </trkpt>
      <trkpt lat="44.27418" lon="5.87316">
        <ele>630.5999756</ele>
        <time>2019-05-21T10:56:38Z</time>
      </trkpt>
      <trkpt lat="44.27419" lon="5.87313">
        <ele>630.7999878</ele>
        <time>2019-05-21T10:56:39Z</time>
      </trkpt>
      <trkpt lat="44.27421" lon="5.8731">
        <ele>631</ele>
        <time>2019-05-21T10:56:40Z</time>
      </trkpt>
      <trkpt lat="44.27422" lon="5.87308">
        <ele>631</ele>
        <time>2019-05-21T10:56:41Z</time>
      </trkpt>
      <trkpt lat="44.27423" lon="5.87306">
        <ele>631.2000122</ele>
        <time>2019-05-21T10:56:42Z</time>
      </trkpt>
      <trkpt lat="44.27424" lon="5.87303">
        <ele>631.2000122</ele>
        <time>2019-05-21T10:56:43Z</time>
      </trkpt>
      <trkpt lat="44.27443" lon="5.87276">
        <ele>633</ele>
        <time>2019-05-21T10:56:58Z</time>
      </trkpt>
      <trkpt lat="44.27444" lon="5.87268">
        <ele>633.4000244</ele>
        <time>2019-05-21T10:57:02Z</time>
      </trkpt>
      <trkpt lat="44.27457" lon="5.87232">
        <ele>636.4000244</ele>
        <time>2019-05-21T10:57:22Z</time>
      </trkpt>
      <trkpt lat="44.27462" lon="5.8721">
        <ele>637.7999878</ele>
        <time>2019-05-21T10:57:34Z</time>
      </trkpt>
      <trkpt lat="44.27473" lon="5.87192">
        <ele>640</ele>
        <time>2019-05-21T10:57:47Z</time>
      </trkpt>
      <trkpt lat="44.27481" lon="5.87185">
        <ele>641.4000244</ele>
        <time>2019-05-21T10:57:54Z</time>
      </trkpt>
      <trkpt lat="44.27485" lon="5.87178">
        <ele>642.5999756</ele>
        <time>2019-05-21T10:58:00Z</time>
      </trkpt>
      <trkpt lat="44.27488" lon="5.87172">
        <ele>643</ele>
        <time>2019-05-21T10:58:04Z</time>
      </trkpt>
      <trkpt lat="44.27502" lon="5.87155">
        <ele>644</ele>
        <time>2019-05-21T10:58:14Z</time>
      </trkpt>
      <trkpt lat="44.27509" lon="5.87147">
        <ele>644.7999878</ele>
        <time>2019-05-21T10:58:18Z</time>
      </trkpt>
      <trkpt lat="44.2751" lon="5.87145">
        <ele>644.7999878</ele>
        <time>2019-05-21T10:58:19Z</time>
      </trkpt>
      <trkpt lat="44.27534" lon="5.87094">
        <ele>643.5999756</ele>
        <time>2019-05-21T10:58:33Z</time>
      </trkpt>
      <trkpt lat="44.27578" lon="5.87005">
        <ele>642</ele>
        <time>2019-05-21T10:58:49Z</time>
      </trkpt>
      <trkpt lat="44.27582" lon="5.86999">
        <ele>642</ele>
        <time>2019-05-21T10:58:50Z</time>
      </trkpt>
      <trkpt lat="44.27585" lon="5.86993">
        <ele>642</ele>
        <time>2019-05-21T10:58:51Z</time>
      </trkpt>
      <trkpt lat="44.27589" lon="5.86987">
        <ele>641.7999878</ele>
        <time>2019-05-21T10:58:52Z</time>
      </trkpt>
      <trkpt lat="44.27593" lon="5.86982">
        <ele>641.7999878</ele>
        <time>2019-05-21T10:58:53Z</time>
      </trkpt>
      <trkpt lat="44.27598" lon="5.86977">
        <ele>641.5999756</ele>
        <time>2019-05-21T10:58:54Z</time>
      </trkpt>
      <trkpt lat="44.27603" lon="5.86973">
        <ele>641.4000244</ele>
        <time>2019-05-21T10:58:55Z</time>
      </trkpt>
      <trkpt lat="44.2765" lon="5.86938">
        <ele>637.7999878</ele>
        <time>2019-05-21T10:59:03Z</time>
      </trkpt>
      <trkpt lat="44.27684" lon="5.86913">
        <ele>634.7999878</ele>
        <time>2019-05-21T10:59:09Z</time>
      </trkpt>
      <trkpt lat="44.27713" lon="5.86907">
        <ele>632</ele>
        <time>2019-05-21T10:59:18Z</time>
      </trkpt>
      <trkpt lat="44.27719" lon="5.86942">
        <ele>632.4000244</ele>
        <time>2019-05-21T10:59:34Z</time>
      </trkpt>
      <trkpt lat="44.27721" lon="5.86941">
        <ele>632.7999878</ele>
        <time>2019-05-21T10:59:52Z</time>
      </trkpt>
      <trkpt lat="44.27715" lon="5.86969">
        <ele>632.4000244</ele>
        <time>2019-05-21T11:00:00Z</time>
      </trkpt>
      <trkpt lat="44.27718" lon="5.86986">
        <ele>632.2000122</ele>
        <time>2019-05-21T11:00:05Z</time>
      </trkpt>
      <trkpt lat="44.27719" lon="5.86989">
        <ele>632.2000122</ele>
        <time>2019-05-21T11:00:06Z</time>
      </trkpt>
      <trkpt lat="44.2772" lon="5.86992">
        <ele>632.2000122</ele>
        <time>2019-05-21T11:00:07Z</time>
      </trkpt>
      <trkpt lat="44.27726" lon="5.87045">
        <ele>633.7999878</ele>
        <time>2019-05-21T11:00:24Z</time>
      </trkpt>
      <trkpt lat="44.27724" lon="5.87093">
        <ele>636</ele>
        <time>2019-05-21T11:00:42Z</time>
      </trkpt>
      <trkpt lat="44.27724" lon="5.87102">
        <ele>637</ele>
        <time>2019-05-21T11:00:46Z</time>
      </trkpt>
      <trkpt lat="44.27724" lon="5.87104">
        <ele>637.2000122</ele>
        <time>2019-05-21T11:00:47Z</time>
      </trkpt>
      <trkpt lat="44.27724" lon="5.87109">
        <ele>637.5999756</ele>
        <time>2019-05-21T11:00:49Z</time>
      </trkpt>
      <trkpt lat="44.27723" lon="5.87112">
        <ele>637.7999878</ele>
        <time>2019-05-21T11:00:50Z</time>
      </trkpt>
      <trkpt lat="44.27722" lon="5.87116">
        <ele>638</ele>
        <time>2019-05-21T11:00:51Z</time>
      </trkpt>
      <trkpt lat="44.27721" lon="5.87119">
        <ele>638.2000122</ele>
        <time>2019-05-21T11:00:52Z</time>
      </trkpt>
      <trkpt lat="44.27721" lon="5.87122">
        <ele>638.4000244</ele>
        <time>2019-05-21T11:00:53Z</time>
      </trkpt>
      <trkpt lat="44.27722" lon="5.87126">
        <ele>638.5999756</ele>
        <time>2019-05-21T11:00:55Z</time>
      </trkpt>
      <trkpt lat="44.27724" lon="5.87139">
        <ele>639.4000244</ele>
        <time>2019-05-21T11:01:01Z</time>
      </trkpt>
      <trkpt lat="44.27725" lon="5.87145">
        <ele>640.2000122</ele>
        <time>2019-05-21T11:01:04Z</time>
      </trkpt>
      <trkpt lat="44.27726" lon="5.87152">
        <ele>640.5999756</ele>
        <time>2019-05-21T11:01:07Z</time>
      </trkpt>
      <trkpt lat="44.27727" lon="5.87154">
        <ele>640.7999878</ele>
        <time>2019-05-21T11:01:08Z</time>
      </trkpt>
      <trkpt lat="44.27732" lon="5.87186">
        <ele>643.2000122</ele>
        <time>2019-05-21T11:01:23Z</time>
      </trkpt>
      <trkpt lat="44.27732" lon="5.87198">
        <ele>644</ele>
        <time>2019-05-21T11:01:29Z</time>
      </trkpt>
      <trkpt lat="44.27731" lon="5.87206">
        <ele>644.4000244</ele>
        <time>2019-05-21T11:01:32Z</time>
      </trkpt>
      <trkpt lat="44.27732" lon="5.87215">
        <ele>644.5999756</ele>
        <time>2019-05-21T11:01:35Z</time>
      </trkpt>
      <trkpt lat="44.27735" lon="5.87229">
        <ele>645.2000122</ele>
        <time>2019-05-21T11:01:39Z</time>
      </trkpt>
      <trkpt lat="44.27736" lon="5.87233">
        <ele>645.2000122</ele>
        <time>2019-05-21T11:01:40Z</time>
      </trkpt>
      <trkpt lat="44.27736" lon="5.87237">
        <ele>645.2000122</ele>
        <time>2019-05-21T11:01:41Z</time>
      </trkpt>
      <trkpt lat="44.27752" lon="5.87292">
        <ele>645.7999878</ele>
        <time>2019-05-21T11:01:55Z</time>
      </trkpt>
      <trkpt lat="44.2777" lon="5.87369">
        <ele>644.2000122</ele>
        <time>2019-05-21T11:02:11Z</time>
      </trkpt>
      <trkpt lat="44.27773" lon="5.8738">
        <ele>644</ele>
        <time>2019-05-21T11:02:13Z</time>
      </trkpt>
      <trkpt lat="44.27801" lon="5.87462">
        <ele>642.2000122</ele>
        <time>2019-05-21T11:02:28Z</time>
      </trkpt>
      <trkpt lat="44.27807" lon="5.87472">
        <ele>640.5999756</ele>
        <time>2019-05-21T11:02:35Z</time>
      </trkpt>
      <trkpt lat="44.27811" lon="5.87473">
        <ele>640.2000122</ele>
        <time>2019-05-21T11:02:57Z</time>
      </trkpt>
      <trkpt lat="44.27848" lon="5.87493">
        <ele>640.4000244</ele>
        <time>2019-05-21T11:03:09Z</time>
      </trkpt>
      <trkpt lat="44.27862" lon="5.87533">
        <ele>640.5999756</ele>
        <time>2019-05-21T11:03:19Z</time>
      </trkpt>
      <trkpt lat="44.27881" lon="5.87601">
        <ele>639.7999878</ele>
        <time>2019-05-21T11:03:34Z</time>
      </trkpt>
      <trkpt lat="44.27925" lon="5.87649">
        <ele>639.4000244</ele>
        <time>2019-05-21T11:03:51Z</time>
      </trkpt>
      <trkpt lat="44.27966" lon="5.87679">
        <ele>641.4000244</ele>
        <time>2019-05-21T11:04:08Z</time>
      </trkpt>
      <trkpt lat="44.28003" lon="5.87701">
        <ele>643.4000244</ele>
        <time>2019-05-21T11:04:25Z</time>
      </trkpt>
      <trkpt lat="44.28041" lon="5.87723">
        <ele>644.7999878</ele>
        <time>2019-05-21T11:04:41Z</time>
      </trkpt>
      <trkpt lat="44.28078" lon="5.87757">
        <ele>645.7999878</ele>
        <time>2019-05-21T11:04:58Z</time>
      </trkpt>
      <trkpt lat="44.28107" lon="5.87805">
        <ele>646.2000122</ele>
        <time>2019-05-21T11:05:14Z</time>
      </trkpt>
      <trkpt lat="44.28149" lon="5.87877">
        <ele>646.4000244</ele>
        <time>2019-05-21T11:05:36Z</time>
      </trkpt>
      <trkpt lat="44.2818" lon="5.87926">
        <ele>646.7999878</ele>
        <time>2019-05-21T11:05:54Z</time>
      </trkpt>
      <trkpt lat="44.28219" lon="5.87972">
        <ele>646.4000244</ele>
        <time>2019-05-21T11:06:11Z</time>
      </trkpt>
      <trkpt lat="44.28277" lon="5.88015">
        <ele>646.4000244</ele>
        <time>2019-05-21T11:06:27Z</time>
      </trkpt>
      <trkpt lat="44.28326" lon="5.88055">
        <ele>646.4000244</ele>
        <time>2019-05-21T11:06:45Z</time>
      </trkpt>
      <trkpt lat="44.28375" lon="5.88098">
        <ele>646.2000122</ele>
        <time>2019-05-21T11:07:02Z</time>
      </trkpt>
      <trkpt lat="44.2843" lon="5.88172">
        <ele>644.7999878</ele>
        <time>2019-05-21T11:07:19Z</time>
      </trkpt>
      <trkpt lat="44.28461" lon="5.88241">
        <ele>645.2000122</ele>
        <time>2019-05-21T11:07:35Z</time>
      </trkpt>
      <trkpt lat="44.28481" lon="5.88285">
        <ele>648.4000244</ele>
        <time>2019-05-21T11:07:51Z</time>
      </trkpt>
      <trkpt lat="44.28503" lon="5.88321">
        <ele>650.5999756</ele>
        <time>2019-05-21T11:08:05Z</time>
      </trkpt>
      <trkpt lat="44.28504" lon="5.88325">
        <ele>650.5999756</ele>
        <time>2019-05-21T11:08:06Z</time>
      </trkpt>
      <trkpt lat="44.28505" lon="5.88328">
        <ele>650.7999878</ele>
        <time>2019-05-21T11:08:07Z</time>
      </trkpt>
      <trkpt lat="44.28505" lon="5.88331">
        <ele>650.7999878</ele>
        <time>2019-05-21T11:08:08Z</time>
      </trkpt>
      <trkpt lat="44.28506" lon="5.88334">
        <ele>650.7999878</ele>
        <time>2019-05-21T11:08:09Z</time>
      </trkpt>
      <trkpt lat="44.28507" lon="5.88337">
        <ele>651</ele>
        <time>2019-05-21T11:08:10Z</time>
      </trkpt>
      <trkpt lat="44.28529" lon="5.88379">
        <ele>652.2000122</ele>
        <time>2019-05-21T11:08:24Z</time>
      </trkpt>
      <trkpt lat="44.28563" lon="5.88404">
        <ele>654</ele>
        <time>2019-05-21T11:08:39Z</time>
      </trkpt>
      <trkpt lat="44.28582" lon="5.88429">
        <ele>654.5999756</ele>
        <time>2019-05-21T11:08:53Z</time>
      </trkpt>
      <trkpt lat="44.28595" lon="5.88448">
        <ele>654.4000244</ele>
        <time>2019-05-21T11:09:01Z</time>
      </trkpt>
      <trkpt lat="44.28598" lon="5.88458">
        <ele>654.2000122</ele>
        <time>2019-05-21T11:09:04Z</time>
      </trkpt>
      <trkpt lat="44.28623" lon="5.88513">
        <ele>651.4000244</ele>
        <time>2019-05-21T11:09:15Z</time>
      </trkpt>
      <trkpt lat="44.28629" lon="5.88518">
        <ele>650.5999756</ele>
        <time>2019-05-21T11:09:16Z</time>
      </trkpt>
      <trkpt lat="44.28648" lon="5.88534">
        <ele>648.4000244</ele>
        <time>2019-05-21T11:09:20Z</time>
      </trkpt>
      <trkpt lat="44.28679" lon="5.88553">
        <ele>645.2000122</ele>
        <time>2019-05-21T11:09:27Z</time>
      </trkpt>
      <trkpt lat="44.28701" lon="5.88569">
        <ele>644</ele>
        <time>2019-05-21T11:09:32Z</time>
      </trkpt>
      <trkpt lat="44.28706" lon="5.88572">
        <ele>643.7999878</ele>
        <time>2019-05-21T11:09:33Z</time>
      </trkpt>
      <trkpt lat="44.28711" lon="5.88576">
        <ele>643.4000244</ele>
        <time>2019-05-21T11:09:34Z</time>
      </trkpt>
      <trkpt lat="44.28718" lon="5.88579">
        <ele>643.2000122</ele>
        <time>2019-05-21T11:09:35Z</time>
      </trkpt>
      <trkpt lat="44.28723" lon="5.88582">
        <ele>643</ele>
        <time>2019-05-21T11:09:36Z</time>
      </trkpt>
      <trkpt lat="44.28729" lon="5.88584">
        <ele>642.7999878</ele>
        <time>2019-05-21T11:09:37Z</time>
      </trkpt>
      <trkpt lat="44.28738" lon="5.88585">
        <ele>642.4000244</ele>
        <time>2019-05-21T11:09:38Z</time>
      </trkpt>
      <trkpt lat="44.28779" lon="5.88596">
        <ele>640.2000122</ele>
        <time>2019-05-21T11:09:48Z</time>
      </trkpt>
      <trkpt lat="44.28834" lon="5.88627">
        <ele>639.7999878</ele>
        <time>2019-05-21T11:10:03Z</time>
      </trkpt>
      <trkpt lat="44.28846" lon="5.88673">
        <ele>636.5999756</ele>
        <time>2019-05-21T11:10:14Z</time>
      </trkpt>
      <trkpt lat="44.28858" lon="5.88735">
        <ele>635.2000122</ele>
        <time>2019-05-21T11:10:29Z</time>
      </trkpt>
      <trkpt lat="44.28881" lon="5.888">
        <ele>633.5999756</ele>
        <time>2019-05-21T11:10:41Z</time>
      </trkpt>
      <trkpt lat="44.28887" lon="5.88819">
        <ele>632.2000122</ele>
        <time>2019-05-21T11:10:44Z</time>
      </trkpt>
      <trkpt lat="44.28898" lon="5.88847">
        <ele>628.7999878</ele>
        <time>2019-05-21T11:10:48Z</time>
      </trkpt>
      <trkpt lat="44.28909" lon="5.88878">
        <ele>625.2000122</ele>
        <time>2019-05-21T11:10:52Z</time>
      </trkpt>
      <trkpt lat="44.28919" lon="5.88913">
        <ele>621.4000244</ele>
        <time>2019-05-21T11:10:56Z</time>
      </trkpt>
      <trkpt lat="44.28926" lon="5.88947">
        <ele>617.5999756</ele>
        <time>2019-05-21T11:11:00Z</time>
      </trkpt>
      <trkpt lat="44.28934" lon="5.88986">
        <ele>613.7999878</ele>
        <time>2019-05-21T11:11:04Z</time>
      </trkpt>
      <trkpt lat="44.2894" lon="5.89015">
        <ele>610.5999756</ele>
        <time>2019-05-21T11:11:07Z</time>
      </trkpt>
      <trkpt lat="44.28949" lon="5.89042">
        <ele>610</ele>
        <time>2019-05-21T11:11:08Z</time>
      </trkpt>
      <trkpt lat="44.2895" lon="5.89051">
        <ele>608.7999878</ele>
        <time>2019-05-21T11:11:09Z</time>
      </trkpt>
      <trkpt lat="44.28953" lon="5.89066">
        <ele>605.4000244</ele>
        <time>2019-05-21T11:11:12Z</time>
      </trkpt>
      <trkpt lat="44.28963" lon="5.89078">
        <ele>604.4000244</ele>
        <time>2019-05-21T11:11:14Z</time>
      </trkpt>
      <trkpt lat="44.28971" lon="5.89102">
        <ele>601.2000122</ele>
        <time>2019-05-21T11:11:18Z</time>
      </trkpt>
      <trkpt lat="44.28979" lon="5.89125">
        <ele>599.7999878</ele>
        <time>2019-05-21T11:11:22Z</time>
      </trkpt>
      <trkpt lat="44.29041" lon="5.89208">
        <ele>596.7999878</ele>
        <time>2019-05-21T11:11:33Z</time>
      </trkpt>
      <trkpt lat="44.29076" lon="5.89254">
        <ele>593.4000244</ele>
        <time>2019-05-21T11:11:42Z</time>
      </trkpt>
      <trkpt lat="44.29089" lon="5.89264">
        <ele>590.2000122</ele>
        <time>2019-05-21T11:11:45Z</time>
      </trkpt>
      <trkpt lat="44.2915" lon="5.89316">
        <ele>586.7999878</ele>
        <time>2019-05-21T11:11:58Z</time>
      </trkpt>
      <trkpt lat="44.29154" lon="5.89322">
        <ele>586.4000244</ele>
        <time>2019-05-21T11:11:59Z</time>
      </trkpt>
      <trkpt lat="44.29158" lon="5.89329">
        <ele>586</ele>
        <time>2019-05-21T11:12:00Z</time>
      </trkpt>
      <trkpt lat="44.29161" lon="5.89336">
        <ele>585.7999878</ele>
        <time>2019-05-21T11:12:01Z</time>
      </trkpt>
      <trkpt lat="44.29164" lon="5.89343">
        <ele>585.5999756</ele>
        <time>2019-05-21T11:12:02Z</time>
      </trkpt>
      <trkpt lat="44.29184" lon="5.89388">
        <ele>582.2000122</ele>
        <time>2019-05-21T11:12:08Z</time>
      </trkpt>
      <trkpt lat="44.29227" lon="5.89477">
        <ele>579.2000122</ele>
        <time>2019-05-21T11:12:23Z</time>
      </trkpt>
      <trkpt lat="44.29243" lon="5.89553">
        <ele>577</ele>
        <time>2019-05-21T11:12:38Z</time>
      </trkpt>
      <trkpt lat="44.29221" lon="5.89606">
        <ele>578.7999878</ele>
        <time>2019-05-21T11:12:55Z</time>
      </trkpt>
      <trkpt lat="44.29211" lon="5.89633">
        <ele>580.5999756</ele>
        <time>2019-05-21T11:13:10Z</time>
      </trkpt>
      <trkpt lat="44.29202" lon="5.89652">
        <ele>582.5999756</ele>
        <time>2019-05-21T11:13:23Z</time>
      </trkpt>
      <trkpt lat="44.29193" lon="5.89671">
        <ele>583</ele>
        <time>2019-05-21T11:13:30Z</time>
      </trkpt>
      <trkpt lat="44.2919" lon="5.89682">
        <ele>583</ele>
        <time>2019-05-21T11:13:33Z</time>
      </trkpt>
      <trkpt lat="44.2918" lon="5.89714">
        <ele>582</ele>
        <time>2019-05-21T11:13:43Z</time>
      </trkpt>
      <trkpt lat="44.29181" lon="5.89715">
        <ele>581.7999878</ele>
        <time>2019-05-21T11:13:44Z</time>
      </trkpt>
      <trkpt lat="44.29181" lon="5.89716">
        <ele>581.5999756</ele>
        <time>2019-05-21T11:13:45Z</time>
      </trkpt>
      <trkpt lat="44.2918" lon="5.89715">
        <ele>581.4000244</ele>
        <time>2019-05-21T11:13:46Z</time>
      </trkpt>
      <trkpt lat="44.29181" lon="5.89714">
        <ele>581</ele>
        <time>2019-05-21T11:13:47Z</time>
      </trkpt>
      <trkpt lat="44.29187" lon="5.89716">
        <ele>580.5999756</ele>
        <time>2019-05-21T11:14:06Z</time>
      </trkpt>
      <trkpt lat="44.29184" lon="5.89715">
        <ele>580.5999756</ele>
        <time>2019-05-21T11:14:40Z</time>
      </trkpt>
      <trkpt lat="44.29198" lon="5.89691">
        <ele>581.7999878</ele>
        <time>2019-05-21T11:14:51Z</time>
      </trkpt>
      <trkpt lat="44.292" lon="5.89687">
        <ele>582.2000122</ele>
        <time>2019-05-21T11:14:52Z</time>
      </trkpt>
      <trkpt lat="44.29202" lon="5.89686">
        <ele>582.4000244</ele>
        <time>2019-05-21T11:14:53Z</time>
      </trkpt>
      <trkpt lat="44.29203" lon="5.89682">
        <ele>582.5999756</ele>
        <time>2019-05-21T11:14:54Z</time>
      </trkpt>
      <trkpt lat="44.29202" lon="5.89679">
        <ele>582.5999756</ele>
        <time>2019-05-21T11:14:55Z</time>
      </trkpt>
      <trkpt lat="44.29202" lon="5.89676">
        <ele>582.5999756</ele>
        <time>2019-05-21T11:14:56Z</time>
      </trkpt>
      <trkpt lat="44.29203" lon="5.89673">
        <ele>582.7999878</ele>
        <time>2019-05-21T11:14:57Z</time>
      </trkpt>
      <trkpt lat="44.29205" lon="5.89671">
        <ele>583</ele>
        <time>2019-05-21T11:14:58Z</time>
      </trkpt>
      <trkpt lat="44.29207" lon="5.89669">
        <ele>583.2000122</ele>
        <time>2019-05-21T11:14:59Z</time>
      </trkpt>
      <trkpt lat="44.29236" lon="5.89629">
        <ele>584.2000122</ele>
        <time>2019-05-21T11:15:16Z</time>
      </trkpt>
      <trkpt lat="44.29262" lon="5.89601">
        <ele>585</ele>
        <time>2019-05-21T11:15:33Z</time>
      </trkpt>
      <trkpt lat="44.29304" lon="5.89584">
        <ele>585.7999878</ele>
        <time>2019-05-21T11:15:50Z</time>
      </trkpt>
      <trkpt lat="44.29366" lon="5.8958">
        <ele>585.4000244</ele>
        <time>2019-05-21T11:16:09Z</time>
      </trkpt>
      <trkpt lat="44.29419" lon="5.8958">
        <ele>585</ele>
        <time>2019-05-21T11:16:26Z</time>
      </trkpt>
      <trkpt lat="44.29472" lon="5.89581">
        <ele>585.7999878</ele>
        <time>2019-05-21T11:16:45Z</time>
      </trkpt>
      <trkpt lat="44.29509" lon="5.89572">
        <ele>585.2000122</ele>
        <time>2019-05-21T11:16:59Z</time>
      </trkpt>
      <trkpt lat="44.29517" lon="5.89574">
        <ele>584.4000244</ele>
        <time>2019-05-21T11:17:04Z</time>
      </trkpt>
      <trkpt lat="44.29517" lon="5.89566">
        <ele>583.4000244</ele>
        <time>2019-05-21T11:17:32Z</time>
      </trkpt>
      <trkpt lat="44.29513" lon="5.89571">
        <ele>583.4000244</ele>
        <time>2019-05-21T11:18:06Z</time>
      </trkpt>
      <trkpt lat="44.29509" lon="5.89568">
        <ele>584</ele>
        <time>2019-05-21T11:18:58Z</time>
      </trkpt>
      <trkpt lat="44.29514" lon="5.89568">
        <ele>584</ele>
        <time>2019-05-21T11:19:01Z</time>
      </trkpt>
      <trkpt lat="44.29511" lon="5.89566">
        <ele>583.7999878</ele>
        <time>2019-05-21T11:19:27Z</time>
      </trkpt>
      <trkpt lat="44.29523" lon="5.89551">
        <ele>584</ele>
        <time>2019-05-21T11:19:33Z</time>
      </trkpt>
      <trkpt lat="44.2958" lon="5.89521">
        <ele>584</ele>
        <time>2019-05-21T11:19:45Z</time>
      </trkpt>
      <trkpt lat="44.29593" lon="5.89516">
        <ele>583.7999878</ele>
        <time>2019-05-21T11:19:47Z</time>
      </trkpt>
      <trkpt lat="44.296" lon="5.89515">
        <ele>583.5999756</ele>
        <time>2019-05-21T11:19:48Z</time>
      </trkpt>
      <trkpt lat="44.29608" lon="5.89515">
        <ele>583.4000244</ele>
        <time>2019-05-21T11:19:49Z</time>
      </trkpt>
      <trkpt lat="44.29615" lon="5.89516">
        <ele>583.2000122</ele>
        <time>2019-05-21T11:19:50Z</time>
      </trkpt>
      <trkpt lat="44.29622" lon="5.89517">
        <ele>583</ele>
        <time>2019-05-21T11:19:51Z</time>
      </trkpt>
      <trkpt lat="44.2969" lon="5.89524">
        <ele>579.2000122</ele>
        <time>2019-05-21T11:20:01Z</time>
      </trkpt>
      <trkpt lat="44.29696" lon="5.89524">
        <ele>579</ele>
        <time>2019-05-21T11:20:02Z</time>
      </trkpt>
      <trkpt lat="44.29761" lon="5.89528">
        <ele>576.4000244</ele>
        <time>2019-05-21T11:20:15Z</time>
      </trkpt>
      <trkpt lat="44.29813" lon="5.89531">
        <ele>577.4000244</ele>
        <time>2019-05-21T11:20:31Z</time>
      </trkpt>
      <trkpt lat="44.29876" lon="5.89517">
        <ele>578.2000122</ele>
        <time>2019-05-21T11:20:49Z</time>
      </trkpt>
      <trkpt lat="44.29941" lon="5.89494">
        <ele>578.2000122</ele>
        <time>2019-05-21T11:21:07Z</time>
      </trkpt>
      <trkpt lat="44.29999" lon="5.89476">
        <ele>577.7999878</ele>
        <time>2019-05-21T11:21:22Z</time>
      </trkpt>
      <trkpt lat="44.30063" lon="5.89455">
        <ele>576.7999878</ele>
        <time>2019-05-21T11:21:39Z</time>
      </trkpt>
      <trkpt lat="44.30123" lon="5.89438">
        <ele>577</ele>
        <time>2019-05-21T11:21:56Z</time>
      </trkpt>
      <trkpt lat="44.30193" lon="5.89417">
        <ele>576.2000122</ele>
        <time>2019-05-21T11:22:16Z</time>
      </trkpt>
      <trkpt lat="44.30248" lon="5.894">
        <ele>576.2000122</ele>
        <time>2019-05-21T11:22:33Z</time>
      </trkpt>
      <trkpt lat="44.303" lon="5.89385">
        <ele>575.7999878</ele>
        <time>2019-05-21T11:22:50Z</time>
      </trkpt>
      <trkpt lat="44.30358" lon="5.89369">
        <ele>576.7999878</ele>
        <time>2019-05-21T11:23:10Z</time>
      </trkpt>
      <trkpt lat="44.30405" lon="5.89354">
        <ele>577.7999878</ele>
        <time>2019-05-21T11:23:28Z</time>
      </trkpt>
      <trkpt lat="44.30447" lon="5.89341">
        <ele>579.4000244</ele>
        <time>2019-05-21T11:23:43Z</time>
      </trkpt>
      <trkpt lat="44.30511" lon="5.89321">
        <ele>580.4000244</ele>
        <time>2019-05-21T11:24:02Z</time>
      </trkpt>
      <trkpt lat="44.30567" lon="5.89306">
        <ele>579</ele>
        <time>2019-05-21T11:24:19Z</time>
      </trkpt>
      <trkpt lat="44.30625" lon="5.89289">
        <ele>579</ele>
        <time>2019-05-21T11:24:36Z</time>
      </trkpt>
      <trkpt lat="44.30686" lon="5.8927">
        <ele>578.7999878</ele>
        <time>2019-05-21T11:24:54Z</time>
      </trkpt>
      <trkpt lat="44.30741" lon="5.89254">
        <ele>579</ele>
        <time>2019-05-21T11:25:09Z</time>
      </trkpt>
      <trkpt lat="44.30795" lon="5.89238">
        <ele>580</ele>
        <time>2019-05-21T11:25:27Z</time>
      </trkpt>
      <trkpt lat="44.30839" lon="5.8923">
        <ele>580.5999756</ele>
        <time>2019-05-21T11:25:45Z</time>
      </trkpt>
      <trkpt lat="44.3088" lon="5.89217">
        <ele>582</ele>
        <time>2019-05-21T11:26:01Z</time>
      </trkpt>
      <trkpt lat="44.30927" lon="5.89203">
        <ele>584.5999756</ele>
        <time>2019-05-21T11:26:22Z</time>
      </trkpt>
      <trkpt lat="44.30969" lon="5.89188">
        <ele>586.4000244</ele>
        <time>2019-05-21T11:26:41Z</time>
      </trkpt>
      <trkpt lat="44.3101" lon="5.89177">
        <ele>588.2000122</ele>
        <time>2019-05-21T11:27:01Z</time>
      </trkpt>
      <trkpt lat="44.31055" lon="5.89162">
        <ele>588.7999878</ele>
        <time>2019-05-21T11:27:19Z</time>
      </trkpt>
      <trkpt lat="44.31109" lon="5.89154">
        <ele>589</ele>
        <time>2019-05-21T11:27:38Z</time>
      </trkpt>
      <trkpt lat="44.31156" lon="5.89144">
        <ele>588.5999756</ele>
        <time>2019-05-21T11:27:55Z</time>
      </trkpt>
      <trkpt lat="44.31197" lon="5.8914">
        <ele>589.2000122</ele>
        <time>2019-05-21T11:28:10Z</time>
      </trkpt>
      <trkpt lat="44.31249" lon="5.89131">
        <ele>590.5999756</ele>
        <time>2019-05-21T11:28:29Z</time>
      </trkpt>
      <trkpt lat="44.31288" lon="5.89128">
        <ele>591.4000244</ele>
        <time>2019-05-21T11:28:43Z</time>
      </trkpt>
      <trkpt lat="44.31336" lon="5.89111">
        <ele>591.7999878</ele>
        <time>2019-05-21T11:28:59Z</time>
      </trkpt>
      <trkpt lat="44.31394" lon="5.891">
        <ele>591.4000244</ele>
        <time>2019-05-21T11:29:15Z</time>
      </trkpt>
      <trkpt lat="44.31444" lon="5.89095">
        <ele>591</ele>
        <time>2019-05-21T11:29:29Z</time>
      </trkpt>
      <trkpt lat="44.31506" lon="5.89089">
        <ele>590.7999878</ele>
        <time>2019-05-21T11:29:46Z</time>
      </trkpt>
      <trkpt lat="44.31566" lon="5.89092">
        <ele>591</ele>
        <time>2019-05-21T11:30:01Z</time>
      </trkpt>
      <trkpt lat="44.31576" lon="5.89091">
        <ele>591</ele>
        <time>2019-05-21T11:30:03Z</time>
      </trkpt>
      <trkpt lat="44.31581" lon="5.89091">
        <ele>590.7999878</ele>
        <time>2019-05-21T11:30:04Z</time>
      </trkpt>
      <trkpt lat="44.31587" lon="5.89092">
        <ele>590.7999878</ele>
        <time>2019-05-21T11:30:05Z</time>
      </trkpt>
      <trkpt lat="44.31673" lon="5.89098">
        <ele>588.7999878</ele>
        <time>2019-05-21T11:30:22Z</time>
      </trkpt>
      <trkpt lat="44.3177" lon="5.89069">
        <ele>586</ele>
        <time>2019-05-21T11:30:41Z</time>
      </trkpt>
      <trkpt lat="44.31775" lon="5.89066">
        <ele>585.7999878</ele>
        <time>2019-05-21T11:30:42Z</time>
      </trkpt>
      <trkpt lat="44.31863" lon="5.89006">
        <ele>583</ele>
        <time>2019-05-21T11:30:59Z</time>
      </trkpt>
      <trkpt lat="44.31939" lon="5.88997">
        <ele>580.2000122</ele>
        <time>2019-05-21T11:31:13Z</time>
      </trkpt>
      <trkpt lat="44.31945" lon="5.88999">
        <ele>580.2000122</ele>
        <time>2019-05-21T11:31:14Z</time>
      </trkpt>
      <trkpt lat="44.3195" lon="5.89001">
        <ele>580</ele>
        <time>2019-05-21T11:31:15Z</time>
      </trkpt>
      <trkpt lat="44.31982" lon="5.89024">
        <ele>579.4000244</ele>
        <time>2019-05-21T11:31:21Z</time>
      </trkpt>
      <trkpt lat="44.3206" lon="5.89061">
        <ele>577</ele>
        <time>2019-05-21T11:31:35Z</time>
      </trkpt>
      <trkpt lat="44.32143" lon="5.89074">
        <ele>574.4000244</ele>
        <time>2019-05-21T11:31:49Z</time>
      </trkpt>
      <trkpt lat="44.32211" lon="5.89092">
        <ele>572.7999878</ele>
        <time>2019-05-21T11:32:03Z</time>
      </trkpt>
      <trkpt lat="44.32293" lon="5.89115">
        <ele>572.5999756</ele>
        <time>2019-05-21T11:32:22Z</time>
      </trkpt>
      <trkpt lat="44.32361" lon="5.89134">
        <ele>572.5999756</ele>
        <time>2019-05-21T11:32:40Z</time>
      </trkpt>
      <trkpt lat="44.32439" lon="5.8916">
        <ele>572.7999878</ele>
        <time>2019-05-21T11:32:59Z</time>
      </trkpt>
      <trkpt lat="44.32505" lon="5.89178">
        <ele>572.4000244</ele>
        <time>2019-05-21T11:33:16Z</time>
      </trkpt>
      <trkpt lat="44.32577" lon="5.89217">
        <ele>573.4000244</ele>
        <time>2019-05-21T11:33:35Z</time>
      </trkpt>
      <trkpt lat="44.32631" lon="5.89251">
        <ele>574.2000122</ele>
        <time>2019-05-21T11:33:52Z</time>
      </trkpt>
      <trkpt lat="44.32674" lon="5.89283">
        <ele>574.2000122</ele>
        <time>2019-05-21T11:34:04Z</time>
      </trkpt>
      <trkpt lat="44.32719" lon="5.89319">
        <ele>573.7999878</ele>
        <time>2019-05-21T11:34:18Z</time>
      </trkpt>
      <trkpt lat="44.32756" lon="5.89347">
        <ele>573.4000244</ele>
        <time>2019-05-21T11:34:33Z</time>
      </trkpt>
      <trkpt lat="44.32813" lon="5.8939">
        <ele>573.4000244</ele>
        <time>2019-05-21T11:34:51Z</time>
      </trkpt>
      <trkpt lat="44.32873" lon="5.89431">
        <ele>573.5999756</ele>
        <time>2019-05-21T11:35:09Z</time>
      </trkpt>
      <trkpt lat="44.32928" lon="5.89467">
        <ele>573.7999878</ele>
        <time>2019-05-21T11:35:27Z</time>
      </trkpt>
      <trkpt lat="44.32981" lon="5.8949">
        <ele>574</ele>
        <time>2019-05-21T11:35:44Z</time>
      </trkpt>
      <trkpt lat="44.33045" lon="5.89518">
        <ele>574.2000122</ele>
        <time>2019-05-21T11:36:03Z</time>
      </trkpt>
      <trkpt lat="44.33109" lon="5.89538">
        <ele>574.2000122</ele>
        <time>2019-05-21T11:36:22Z</time>
      </trkpt>
      <trkpt lat="44.33167" lon="5.89557">
        <ele>574.2000122</ele>
        <time>2019-05-21T11:36:40Z</time>
      </trkpt>
      <trkpt lat="44.33223" lon="5.89579">
        <ele>574.2000122</ele>
        <time>2019-05-21T11:36:56Z</time>
      </trkpt>
      <trkpt lat="44.33289" lon="5.89604">
        <ele>574.2000122</ele>
        <time>2019-05-21T11:37:15Z</time>
      </trkpt>
      <trkpt lat="44.33338" lon="5.89623">
        <ele>574.7999878</ele>
        <time>2019-05-21T11:37:30Z</time>
      </trkpt>
      <trkpt lat="44.33382" lon="5.89646">
        <ele>574.4000244</ele>
        <time>2019-05-21T11:37:44Z</time>
      </trkpt>
      <trkpt lat="44.3344" lon="5.8967">
        <ele>573.5999756</ele>
        <time>2019-05-21T11:38:01Z</time>
      </trkpt>
      <trkpt lat="44.33497" lon="5.89694">
        <ele>573.7999878</ele>
        <time>2019-05-21T11:38:17Z</time>
      </trkpt>
      <trkpt lat="44.33552" lon="5.89723">
        <ele>574.2000122</ele>
        <time>2019-05-21T11:38:35Z</time>
      </trkpt>
      <trkpt lat="44.33622" lon="5.89757">
        <ele>574.5999756</ele>
        <time>2019-05-21T11:38:55Z</time>
      </trkpt>
      <trkpt lat="44.33684" lon="5.89791">
        <ele>574.2000122</ele>
        <time>2019-05-21T11:39:13Z</time>
      </trkpt>
      <trkpt lat="44.33748" lon="5.89831">
        <ele>573.4000244</ele>
        <time>2019-05-21T11:39:28Z</time>
      </trkpt>
      <trkpt lat="44.3379" lon="5.89869">
        <ele>572.5999756</ele>
        <time>2019-05-21T11:39:42Z</time>
      </trkpt>
      <trkpt lat="44.33826" lon="5.89898">
        <ele>574.2000122</ele>
        <time>2019-05-21T11:39:58Z</time>
      </trkpt>
      <trkpt lat="44.3386" lon="5.89926">
        <ele>576.4000244</ele>
        <time>2019-05-21T11:40:15Z</time>
      </trkpt>
      <trkpt lat="44.33889" lon="5.89953">
        <ele>577.7999878</ele>
        <time>2019-05-21T11:40:31Z</time>
      </trkpt>
      <trkpt lat="44.33907" lon="5.89974">
        <ele>578.5999756</ele>
        <time>2019-05-21T11:40:43Z</time>
      </trkpt>
      <trkpt lat="44.3395" lon="5.90021">
        <ele>579.2000122</ele>
        <time>2019-05-21T11:40:59Z</time>
      </trkpt>
      <trkpt lat="44.33999" lon="5.90074">
        <ele>577.7999878</ele>
        <time>2019-05-21T11:41:15Z</time>
      </trkpt>
      <trkpt lat="44.34033" lon="5.90102">
        <ele>578.4000244</ele>
        <time>2019-05-21T11:41:29Z</time>
      </trkpt>
      <trkpt lat="44.34064" lon="5.90127">
        <ele>580.4000244</ele>
        <time>2019-05-21T11:41:44Z</time>
      </trkpt>
      <trkpt lat="44.34087" lon="5.90148">
        <ele>582.4000244</ele>
        <time>2019-05-21T11:41:58Z</time>
      </trkpt>
      <trkpt lat="44.34106" lon="5.90166">
        <ele>583.7999878</ele>
        <time>2019-05-21T11:42:10Z</time>
      </trkpt>
      <trkpt lat="44.34108" lon="5.90168">
        <ele>584</ele>
        <time>2019-05-21T11:42:11Z</time>
      </trkpt>
      <trkpt lat="44.3411" lon="5.9017">
        <ele>584.2000122</ele>
        <time>2019-05-21T11:42:12Z</time>
      </trkpt>
      <trkpt lat="44.34111" lon="5.90172">
        <ele>584.2000122</ele>
        <time>2019-05-21T11:42:13Z</time>
      </trkpt>
      <trkpt lat="44.34113" lon="5.90174">
        <ele>584.2000122</ele>
        <time>2019-05-21T11:42:14Z</time>
      </trkpt>
      <trkpt lat="44.34146" lon="5.90206">
        <ele>585</ele>
        <time>2019-05-21T11:42:29Z</time>
      </trkpt>
      <trkpt lat="44.34177" lon="5.90233">
        <ele>585</ele>
        <time>2019-05-21T11:42:37Z</time>
      </trkpt>
      <trkpt lat="44.3418" lon="5.90238">
        <ele>585</ele>
        <time>2019-05-21T11:42:38Z</time>
      </trkpt>
      <trkpt lat="44.34242" lon="5.90328">
        <ele>582.7999878</ele>
        <time>2019-05-21T11:42:51Z</time>
      </trkpt>
      <trkpt lat="44.34307" lon="5.90406">
        <ele>579.2000122</ele>
        <time>2019-05-21T11:43:00Z</time>
      </trkpt>
      <trkpt lat="44.34367" lon="5.90443">
        <ele>576.2000122</ele>
        <time>2019-05-21T11:43:08Z</time>
      </trkpt>
      <trkpt lat="44.34396" lon="5.90457">
        <ele>575.5999756</ele>
        <time>2019-05-21T11:43:17Z</time>
      </trkpt>
      <trkpt lat="44.34411" lon="5.90476">
        <ele>576.4000244</ele>
        <time>2019-05-21T11:43:25Z</time>
      </trkpt>
      <trkpt lat="44.34447" lon="5.90526">
        <ele>577</ele>
        <time>2019-05-21T11:43:35Z</time>
      </trkpt>
      <trkpt lat="44.34518" lon="5.90587">
        <ele>575.5999756</ele>
        <time>2019-05-21T11:43:50Z</time>
      </trkpt>
      <trkpt lat="44.3453" lon="5.90597">
        <ele>575.4000244</ele>
        <time>2019-05-21T11:43:53Z</time>
      </trkpt>
      <trkpt lat="44.34554" lon="5.90617">
        <ele>575.2000122</ele>
        <time>2019-05-21T11:43:59Z</time>
      </trkpt>
      <trkpt lat="44.34566" lon="5.90627">
        <ele>575.2000122</ele>
        <time>2019-05-21T11:44:02Z</time>
      </trkpt>
      <trkpt lat="44.34623" lon="5.90673">
        <ele>575.2000122</ele>
        <time>2019-05-21T11:44:16Z</time>
      </trkpt>
      <trkpt lat="44.3469" lon="5.90722">
        <ele>575</ele>
        <time>2019-05-21T11:44:30Z</time>
      </trkpt>
      <trkpt lat="44.34772" lon="5.9078">
        <ele>571.4000244</ele>
        <time>2019-05-21T11:44:43Z</time>
      </trkpt>
      <trkpt lat="44.34796" lon="5.90799">
        <ele>569.4000244</ele>
        <time>2019-05-21T11:44:47Z</time>
      </trkpt>
      <trkpt lat="44.34875" lon="5.90861">
        <ele>566.4000244</ele>
        <time>2019-05-21T11:45:02Z</time>
      </trkpt>
      <trkpt lat="44.34897" lon="5.90877">
        <ele>566</ele>
        <time>2019-05-21T11:45:07Z</time>
      </trkpt>
      <trkpt lat="44.34901" lon="5.90881">
        <ele>566</ele>
        <time>2019-05-21T11:45:08Z</time>
      </trkpt>
      <trkpt lat="44.34941" lon="5.90909">
        <ele>564.7999878</ele>
        <time>2019-05-21T11:45:17Z</time>
      </trkpt>
      <trkpt lat="44.34949" lon="5.90918">
        <ele>564.4000244</ele>
        <time>2019-05-21T11:45:19Z</time>
      </trkpt>
      <trkpt lat="44.34954" lon="5.90921">
        <ele>564.4000244</ele>
        <time>2019-05-21T11:45:20Z</time>
      </trkpt>
      <trkpt lat="44.35009" lon="5.90966">
        <ele>563.5999756</ele>
        <time>2019-05-21T11:45:35Z</time>
      </trkpt>
      <trkpt lat="44.35043" lon="5.91">
        <ele>564.2000122</ele>
        <time>2019-05-21T11:45:49Z</time>
      </trkpt>
      <trkpt lat="44.35082" lon="5.91033">
        <ele>566.4000244</ele>
        <time>2019-05-21T11:46:06Z</time>
      </trkpt>
      <trkpt lat="44.35111" lon="5.91063">
        <ele>567.2000122</ele>
        <time>2019-05-21T11:46:22Z</time>
      </trkpt>
      <trkpt lat="44.35143" lon="5.91088">
        <ele>568</ele>
        <time>2019-05-21T11:46:38Z</time>
      </trkpt>
      <trkpt lat="44.35183" lon="5.91131">
        <ele>569.4000244</ele>
        <time>2019-05-21T11:46:56Z</time>
      </trkpt>
      <trkpt lat="44.35214" lon="5.91163">
        <ele>570.7999878</ele>
        <time>2019-05-21T11:47:13Z</time>
      </trkpt>
      <trkpt lat="44.35257" lon="5.91199">
        <ele>571.5999756</ele>
        <time>2019-05-21T11:47:30Z</time>
      </trkpt>
      <trkpt lat="44.35303" lon="5.91243">
        <ele>571.7999878</ele>
        <time>2019-05-21T11:47:49Z</time>
      </trkpt>
      <trkpt lat="44.35347" lon="5.91277">
        <ele>572.4000244</ele>
        <time>2019-05-21T11:48:05Z</time>
      </trkpt>
      <trkpt lat="44.35387" lon="5.91308">
        <ele>573.7999878</ele>
        <time>2019-05-21T11:48:19Z</time>
      </trkpt>
      <trkpt lat="44.35434" lon="5.91333">
        <ele>574.2000122</ele>
        <time>2019-05-21T11:48:34Z</time>
      </trkpt>
      <trkpt lat="44.35477" lon="5.91367">
        <ele>574.2000122</ele>
        <time>2019-05-21T11:48:50Z</time>
      </trkpt>
      <trkpt lat="44.3553" lon="5.91401">
        <ele>575.4000244</ele>
        <time>2019-05-21T11:49:09Z</time>
      </trkpt>
      <trkpt lat="44.35587" lon="5.91442">
        <ele>575</ele>
        <time>2019-05-21T11:49:26Z</time>
      </trkpt>
      <trkpt lat="44.35656" lon="5.91483">
        <ele>574.2000122</ele>
        <time>2019-05-21T11:49:43Z</time>
      </trkpt>
      <trkpt lat="44.35708" lon="5.91523">
        <ele>573</ele>
        <time>2019-05-21T11:49:57Z</time>
      </trkpt>
      <trkpt lat="44.35734" lon="5.91542">
        <ele>572.7999878</ele>
        <time>2019-05-21T11:50:04Z</time>
      </trkpt>
      <trkpt lat="44.35794" lon="5.91582">
        <ele>572.4000244</ele>
        <time>2019-05-21T11:50:22Z</time>
      </trkpt>
      <trkpt lat="44.35843" lon="5.91613">
        <ele>572.5999756</ele>
        <time>2019-05-21T11:50:38Z</time>
      </trkpt>
      <trkpt lat="44.35893" lon="5.91651">
        <ele>572.7999878</ele>
        <time>2019-05-21T11:50:54Z</time>
      </trkpt>
      <trkpt lat="44.35939" lon="5.91681">
        <ele>572.5999756</ele>
        <time>2019-05-21T11:51:08Z</time>
      </trkpt>
      <trkpt lat="44.35986" lon="5.91714">
        <ele>572.5999756</ele>
        <time>2019-05-21T11:51:24Z</time>
      </trkpt>
      <trkpt lat="44.36039" lon="5.91757">
        <ele>573.2000122</ele>
        <time>2019-05-21T11:51:42Z</time>
      </trkpt>
      <trkpt lat="44.36089" lon="5.91789">
        <ele>572.4000244</ele>
        <time>2019-05-21T11:51:58Z</time>
      </trkpt>
      <trkpt lat="44.3614" lon="5.91826">
        <ele>572.4000244</ele>
        <time>2019-05-21T11:52:15Z</time>
      </trkpt>
      <trkpt lat="44.36188" lon="5.91859">
        <ele>572.4000244</ele>
        <time>2019-05-21T11:52:31Z</time>
      </trkpt>
      <trkpt lat="44.36239" lon="5.9189">
        <ele>573.2000122</ele>
        <time>2019-05-21T11:52:46Z</time>
      </trkpt>
      <trkpt lat="44.36292" lon="5.91929">
        <ele>572.5999756</ele>
        <time>2019-05-21T11:53:02Z</time>
      </trkpt>
      <trkpt lat="44.36349" lon="5.91967">
        <ele>572.2000122</ele>
        <time>2019-05-21T11:53:19Z</time>
      </trkpt>
      <trkpt lat="44.364" lon="5.92007">
        <ele>572.5999756</ele>
        <time>2019-05-21T11:53:37Z</time>
      </trkpt>
      <trkpt lat="44.3645" lon="5.92043">
        <ele>571</ele>
        <time>2019-05-21T11:53:53Z</time>
      </trkpt>
      <trkpt lat="44.36505" lon="5.92072">
        <ele>571</ele>
        <time>2019-05-21T11:54:09Z</time>
      </trkpt>
      <trkpt lat="44.36547" lon="5.92109">
        <ele>571.2000122</ele>
        <time>2019-05-21T11:54:25Z</time>
      </trkpt>
      <trkpt lat="44.36606" lon="5.92138">
        <ele>570.2000122</ele>
        <time>2019-05-21T11:54:42Z</time>
      </trkpt>
      <trkpt lat="44.36669" lon="5.92164">
        <ele>570.5999756</ele>
        <time>2019-05-21T11:55:01Z</time>
      </trkpt>
      <trkpt lat="44.36725" lon="5.92173">
        <ele>570.7999878</ele>
        <time>2019-05-21T11:55:16Z</time>
      </trkpt>
      <trkpt lat="44.36772" lon="5.92189">
        <ele>571.2000122</ele>
        <time>2019-05-21T11:55:31Z</time>
      </trkpt>
      <trkpt lat="44.36805" lon="5.92206">
        <ele>573</ele>
        <time>2019-05-21T11:55:47Z</time>
      </trkpt>
      <trkpt lat="44.36822" lon="5.9222">
        <ele>574.5999756</ele>
        <time>2019-05-21T11:55:59Z</time>
      </trkpt>
      <trkpt lat="44.36822" lon="5.92222">
        <ele>574.7999878</ele>
        <time>2019-05-21T11:56:00Z</time>
      </trkpt>
      <trkpt lat="44.36822" lon="5.92225">
        <ele>575</ele>
        <time>2019-05-21T11:56:01Z</time>
      </trkpt>
      <trkpt lat="44.36803" lon="5.92266">
        <ele>576.2000122</ele>
        <time>2019-05-21T11:56:17Z</time>
      </trkpt>
      <trkpt lat="44.36771" lon="5.92281">
        <ele>576</ele>
        <time>2019-05-21T11:56:30Z</time>
      </trkpt>
      <trkpt lat="44.36723" lon="5.92286">
        <ele>576</ele>
        <time>2019-05-21T11:56:44Z</time>
      </trkpt>
      <trkpt lat="44.36696" lon="5.92346">
        <ele>574.7999878</ele>
        <time>2019-05-21T11:56:59Z</time>
      </trkpt>
      <trkpt lat="44.36677" lon="5.92386">
        <ele>574.4000244</ele>
        <time>2019-05-21T11:57:08Z</time>
      </trkpt>
      <trkpt lat="44.36673" lon="5.92391">
        <ele>574.4000244</ele>
        <time>2019-05-21T11:57:09Z</time>
      </trkpt>
      <trkpt lat="44.3667" lon="5.92395">
        <ele>574.4000244</ele>
        <time>2019-05-21T11:57:10Z</time>
      </trkpt>
      <trkpt lat="44.36666" lon="5.92399">
        <ele>574.2000122</ele>
        <time>2019-05-21T11:57:11Z</time>
      </trkpt>
      <trkpt lat="44.36661" lon="5.92402">
        <ele>574</ele>
        <time>2019-05-21T11:57:12Z</time>
      </trkpt>
      <trkpt lat="44.36655" lon="5.92404">
        <ele>573.7999878</ele>
        <time>2019-05-21T11:57:13Z</time>
      </trkpt>
      <trkpt lat="44.3665" lon="5.92405">
        <ele>573.5999756</ele>
        <time>2019-05-21T11:57:14Z</time>
      </trkpt>
      <trkpt lat="44.36644" lon="5.92405">
        <ele>573.5999756</ele>
        <time>2019-05-21T11:57:15Z</time>
      </trkpt>
      <trkpt lat="44.36638" lon="5.92404">
        <ele>573.4000244</ele>
        <time>2019-05-21T11:57:16Z</time>
      </trkpt>
      <trkpt lat="44.36632" lon="5.92402">
        <ele>573.4000244</ele>
        <time>2019-05-21T11:57:17Z</time>
      </trkpt>
      <trkpt lat="44.36626" lon="5.92399">
        <ele>573.2000122</ele>
        <time>2019-05-21T11:57:18Z</time>
      </trkpt>
      <trkpt lat="44.36587" lon="5.92372">
        <ele>572.7999878</ele>
        <time>2019-05-21T11:57:25Z</time>
      </trkpt>
      <trkpt lat="44.36569" lon="5.92355">
        <ele>572.4000244</ele>
        <time>2019-05-21T11:57:29Z</time>
      </trkpt>
      <trkpt lat="44.36566" lon="5.92351">
        <ele>572</ele>
        <time>2019-05-21T11:57:30Z</time>
      </trkpt>
      <trkpt lat="44.36557" lon="5.92337">
        <ele>571.2000122</ele>
        <time>2019-05-21T11:57:34Z</time>
      </trkpt>
      <trkpt lat="44.36554" lon="5.92336">
        <ele>571.2000122</ele>
        <time>2019-05-21T11:57:35Z</time>
      </trkpt>
      <trkpt lat="44.36552" lon="5.92336">
        <ele>571.2000122</ele>
        <time>2019-05-21T11:57:36Z</time>
      </trkpt>
      <trkpt lat="44.36549" lon="5.92338">
        <ele>570.7999878</ele>
        <time>2019-05-21T11:57:37Z</time>
      </trkpt>
      <trkpt lat="44.36546" lon="5.92341">
        <ele>570.2000122</ele>
        <time>2019-05-21T11:57:38Z</time>
      </trkpt>
      <trkpt lat="44.36545" lon="5.92345">
        <ele>570</ele>
        <time>2019-05-21T11:57:39Z</time>
      </trkpt>
      <trkpt lat="44.36546" lon="5.92351">
        <ele>569.7999878</ele>
        <time>2019-05-21T11:57:40Z</time>
      </trkpt>
      <trkpt lat="44.3655" lon="5.92357">
        <ele>569.4000244</ele>
        <time>2019-05-21T11:57:41Z</time>
      </trkpt>
      <trkpt lat="44.36554" lon="5.92362">
        <ele>569.2000122</ele>
        <time>2019-05-21T11:57:42Z</time>
      </trkpt>
      <trkpt lat="44.36558" lon="5.92367">
        <ele>569</ele>
        <time>2019-05-21T11:57:43Z</time>
      </trkpt>
      <trkpt lat="44.36562" lon="5.92372">
        <ele>568.7999878</ele>
        <time>2019-05-21T11:57:44Z</time>
      </trkpt>
      <trkpt lat="44.36566" lon="5.92375">
        <ele>568.7999878</ele>
        <time>2019-05-21T11:57:45Z</time>
      </trkpt>
      <trkpt lat="44.36573" lon="5.92381">
        <ele>568.4000244</ele>
        <time>2019-05-21T11:57:46Z</time>
      </trkpt>
      <trkpt lat="44.36627" lon="5.92427">
        <ele>567.4000244</ele>
        <time>2019-05-21T11:58:03Z</time>
      </trkpt>
      <trkpt lat="44.36674" lon="5.92415">
        <ele>568.7999878</ele>
        <time>2019-05-21T11:58:19Z</time>
      </trkpt>
      <trkpt lat="44.36714" lon="5.92384">
        <ele>568.4000244</ele>
        <time>2019-05-21T11:58:35Z</time>
      </trkpt>
      <trkpt lat="44.36731" lon="5.92385">
        <ele>567.7999878</ele>
        <time>2019-05-21T11:58:48Z</time>
      </trkpt>
      <trkpt lat="44.36732" lon="5.92386">
        <ele>567.4000244</ele>
        <time>2019-05-21T11:59:01Z</time>
      </trkpt>
    </trkseg>
  </trk>
</gpx>